<?xml version="1.0" encoding="UTF-8" standalone="no" ?>
<gpx xmlns="http://www.topografix.com/GPX/1/1" xmlns:xsi="http://www.w3.org/2001/XMLSchema-instance" xsi:schemaLocation="http://www.topografix.com/GPX/1/1 http://www.topografix.com/GPX/1/1/gpx.xsd" version="1.1" creator="VisuGPX - https://www.visugpx.com">
  <metadata>
    <name>Entre Lagne et la Fontaine de Vaucluse</name>
    <desc><![CDATA[Balade au départ de Lagnes vers la Fontaine de Vaucluse.]]></desc>
  </metadata>
  <trk>
    <name><![CDATA[2019-12-09 15:00:26]]></name>
    <trkseg>
      <trkpt lat="43.89239" lon="5.11383">
        <ele>126.55</ele>
        <time>2019-12-09T08:18:21Z</time>
      </trkpt>
      <trkpt lat="43.89239" lon="5.11383">
        <ele>126.55</ele>
        <time>2019-12-09T08:18:22Z</time>
      </trkpt>
      <trkpt lat="43.89239" lon="5.11382">
        <ele>120.3</ele>
        <time>2019-12-09T08:18:25Z</time>
      </trkpt>
      <trkpt lat="43.89239" lon="5.11382">
        <ele>120.3</ele>
        <time>2019-12-09T08:18:26Z</time>
      </trkpt>
      <trkpt lat="43.89239" lon="5.1138">
        <ele>118.86</ele>
        <time>2019-12-09T08:18:47Z</time>
      </trkpt>
      <trkpt lat="43.89241" lon="5.1138">
        <ele>118.86</ele>
        <time>2019-12-09T08:19:16Z</time>
      </trkpt>
      <trkpt lat="43.89242" lon="5.11389">
        <ele>118.38</ele>
        <time>2019-12-09T08:20:01Z</time>
      </trkpt>
      <trkpt lat="43.89241" lon="5.11389">
        <ele>118.38</ele>
        <time>2019-12-09T08:20:36Z</time>
      </trkpt>
      <trkpt lat="43.89239" lon="5.11386">
        <ele>118.38</ele>
        <time>2019-12-09T08:21:11Z</time>
      </trkpt>
      <trkpt lat="43.89238" lon="5.11384">
        <ele>118.38</ele>
        <time>2019-12-09T08:21:54Z</time>
      </trkpt>
      <trkpt lat="43.8924" lon="5.11384">
        <ele>118.38</ele>
        <time>2019-12-09T08:22:33Z</time>
      </trkpt>
      <trkpt lat="43.89238" lon="5.11381">
        <ele>117.9</ele>
        <time>2019-12-09T08:23:14Z</time>
      </trkpt>
      <trkpt lat="43.89239" lon="5.11378">
        <ele>117.9</ele>
        <time>2019-12-09T08:23:51Z</time>
      </trkpt>
      <trkpt lat="43.89239" lon="5.11382">
        <ele>117.9</ele>
        <time>2019-12-09T08:24:28Z</time>
      </trkpt>
      <trkpt lat="43.89239" lon="5.11379">
        <ele>117.9</ele>
        <time>2019-12-09T08:25:11Z</time>
      </trkpt>
      <trkpt lat="43.89238" lon="5.11384">
        <ele>117.9</ele>
        <time>2019-12-09T08:25:56Z</time>
      </trkpt>
      <trkpt lat="43.89238" lon="5.11381">
        <ele>118.86</ele>
        <time>2019-12-09T08:26:34Z</time>
      </trkpt>
      <trkpt lat="43.89238" lon="5.1138">
        <ele>118.86</ele>
        <time>2019-12-09T08:27:12Z</time>
      </trkpt>
      <trkpt lat="43.89237" lon="5.1138">
        <ele>118.38</ele>
        <time>2019-12-09T08:27:55Z</time>
      </trkpt>
      <trkpt lat="43.89237" lon="5.11381">
        <ele>118.38</ele>
        <time>2019-12-09T08:28:32Z</time>
      </trkpt>
      <trkpt lat="43.89238" lon="5.11377">
        <ele>118.38</ele>
        <time>2019-12-09T08:29:09Z</time>
      </trkpt>
      <trkpt lat="43.89239" lon="5.11377">
        <ele>118.38</ele>
        <time>2019-12-09T08:29:44Z</time>
      </trkpt>
      <trkpt lat="43.89237" lon="5.11373">
        <ele>118.38</ele>
        <time>2019-12-09T08:30:25Z</time>
      </trkpt>
      <trkpt lat="43.89239" lon="5.1138">
        <ele>118.38</ele>
        <time>2019-12-09T08:31:01Z</time>
      </trkpt>
      <trkpt lat="43.89239" lon="5.11381">
        <ele>118.38</ele>
        <time>2019-12-09T08:31:33Z</time>
      </trkpt>
      <trkpt lat="43.89239" lon="5.1138">
        <ele>118.38</ele>
        <time>2019-12-09T08:32:05Z</time>
      </trkpt>
      <trkpt lat="43.89238" lon="5.11378">
        <ele>118.38</ele>
        <time>2019-12-09T08:32:41Z</time>
      </trkpt>
      <trkpt lat="43.89236" lon="5.11373">
        <ele>118.38</ele>
        <time>2019-12-09T08:33:14Z</time>
      </trkpt>
      <trkpt lat="43.89238" lon="5.11378">
        <ele>118.38</ele>
        <time>2019-12-09T08:33:54Z</time>
      </trkpt>
      <trkpt lat="43.89238" lon="5.11382">
        <ele>116.94</ele>
        <time>2019-12-09T08:34:28Z</time>
      </trkpt>
      <trkpt lat="43.89238" lon="5.1138">
        <ele>116.94</ele>
        <time>2019-12-09T08:35:04Z</time>
      </trkpt>
      <trkpt lat="43.89239" lon="5.11383">
        <ele>116.94</ele>
        <time>2019-12-09T08:35:41Z</time>
      </trkpt>
      <trkpt lat="43.89237" lon="5.1138">
        <ele>116.94</ele>
        <time>2019-12-09T08:36:10Z</time>
      </trkpt>
      <trkpt lat="43.89239" lon="5.1138">
        <ele>116.94</ele>
        <time>2019-12-09T08:36:38Z</time>
      </trkpt>
      <trkpt lat="43.89241" lon="5.11383">
        <ele>116.94</ele>
        <time>2019-12-09T08:37:12Z</time>
      </trkpt>
      <trkpt lat="43.89238" lon="5.11383">
        <ele>116.46</ele>
        <time>2019-12-09T08:37:44Z</time>
      </trkpt>
      <trkpt lat="43.89239" lon="5.1138">
        <ele>116.46</ele>
        <time>2019-12-09T08:38:20Z</time>
      </trkpt>
      <trkpt lat="43.89243" lon="5.11379">
        <ele>116.46</ele>
        <time>2019-12-09T08:38:53Z</time>
      </trkpt>
      <trkpt lat="43.89239" lon="5.11376">
        <ele>116.46</ele>
        <time>2019-12-09T08:39:26Z</time>
      </trkpt>
      <trkpt lat="43.89237" lon="5.11381">
        <ele>116.46</ele>
        <time>2019-12-09T08:40:04Z</time>
      </trkpt>
      <trkpt lat="43.8924" lon="5.11382">
        <ele>116.46</ele>
        <time>2019-12-09T08:40:36Z</time>
      </trkpt>
      <trkpt lat="43.8924" lon="5.11385">
        <ele>116.46</ele>
        <time>2019-12-09T08:41:06Z</time>
      </trkpt>
      <trkpt lat="43.89239" lon="5.11384">
        <ele>116.46</ele>
        <time>2019-12-09T08:41:36Z</time>
      </trkpt>
      <trkpt lat="43.89238" lon="5.11382">
        <ele>116.46</ele>
        <time>2019-12-09T08:42:02Z</time>
      </trkpt>
      <trkpt lat="43.89238" lon="5.11381">
        <ele>116.46</ele>
        <time>2019-12-09T08:42:30Z</time>
      </trkpt>
      <trkpt lat="43.89237" lon="5.11378">
        <ele>116.46</ele>
        <time>2019-12-09T08:43:03Z</time>
      </trkpt>
      <trkpt lat="43.89238" lon="5.11379">
        <ele>116.46</ele>
        <time>2019-12-09T08:43:27Z</time>
      </trkpt>
      <trkpt lat="43.89237" lon="5.1138">
        <ele>116.46</ele>
        <time>2019-12-09T08:43:52Z</time>
      </trkpt>
      <trkpt lat="43.89239" lon="5.11379">
        <ele>116.46</ele>
        <time>2019-12-09T08:44:22Z</time>
      </trkpt>
      <trkpt lat="43.89242" lon="5.11374">
        <ele>116.46</ele>
        <time>2019-12-09T08:44:57Z</time>
      </trkpt>
      <trkpt lat="43.8924" lon="5.11377">
        <ele>116.46</ele>
        <time>2019-12-09T08:45:20Z</time>
      </trkpt>
      <trkpt lat="43.89239" lon="5.11379">
        <ele>116.46</ele>
        <time>2019-12-09T08:45:32Z</time>
      </trkpt>
      <trkpt lat="43.89236" lon="5.1138">
        <ele>116.46</ele>
        <time>2019-12-09T08:46:00Z</time>
      </trkpt>
      <trkpt lat="43.89237" lon="5.11379">
        <ele>117.9</ele>
        <time>2019-12-09T08:46:07Z</time>
      </trkpt>
      <trkpt lat="43.89238" lon="5.11374">
        <ele>117.9</ele>
        <time>2019-12-09T08:46:25Z</time>
      </trkpt>
      <trkpt lat="43.89237" lon="5.11376">
        <ele>117.9</ele>
        <time>2019-12-09T08:46:50Z</time>
      </trkpt>
      <trkpt lat="43.89233" lon="5.11388">
        <ele>118.38</ele>
        <time>2019-12-09T08:47:04Z</time>
      </trkpt>
      <trkpt lat="43.89231" lon="5.11389">
        <ele>118.38</ele>
        <time>2019-12-09T08:47:10Z</time>
      </trkpt>
      <trkpt lat="43.89225" lon="5.11394">
        <ele>119.34</ele>
        <time>2019-12-09T08:47:17Z</time>
      </trkpt>
      <trkpt lat="43.89225" lon="5.11404">
        <ele>120.78</ele>
        <time>2019-12-09T08:47:24Z</time>
      </trkpt>
      <trkpt lat="43.89226" lon="5.11407">
        <ele>119.34</ele>
        <time>2019-12-09T08:47:26Z</time>
      </trkpt>
      <trkpt lat="43.8924" lon="5.11419">
        <ele>119.34</ele>
        <time>2019-12-09T08:47:44Z</time>
      </trkpt>
      <trkpt lat="43.89254" lon="5.11431">
        <ele>121.26</ele>
        <time>2019-12-09T08:48:02Z</time>
      </trkpt>
      <trkpt lat="43.89267" lon="5.1144">
        <ele>122.22</ele>
        <time>2019-12-09T08:48:19Z</time>
      </trkpt>
      <trkpt lat="43.89279" lon="5.1145">
        <ele>122.71</ele>
        <time>2019-12-09T08:48:33Z</time>
      </trkpt>
      <trkpt lat="43.89295" lon="5.11462">
        <ele>124.15</ele>
        <time>2019-12-09T08:48:52Z</time>
      </trkpt>
      <trkpt lat="43.89311" lon="5.11473">
        <ele>124.63</ele>
        <time>2019-12-09T08:49:10Z</time>
      </trkpt>
      <trkpt lat="43.89324" lon="5.11481">
        <ele>125.59</ele>
        <time>2019-12-09T08:49:25Z</time>
      </trkpt>
      <trkpt lat="43.89336" lon="5.11494">
        <ele>126.55</ele>
        <time>2019-12-09T08:49:41Z</time>
      </trkpt>
      <trkpt lat="43.89343" lon="5.11514">
        <ele>128.47</ele>
        <time>2019-12-09T08:50:00Z</time>
      </trkpt>
      <trkpt lat="43.89347" lon="5.11535">
        <ele>130.4</ele>
        <time>2019-12-09T08:50:17Z</time>
      </trkpt>
      <trkpt lat="43.89355" lon="5.11559">
        <ele>131.36</ele>
        <time>2019-12-09T08:50:34Z</time>
      </trkpt>
      <trkpt lat="43.8936" lon="5.1157">
        <ele>131.84</ele>
        <time>2019-12-09T08:50:46Z</time>
      </trkpt>
      <trkpt lat="43.89378" lon="5.11585">
        <ele>132.8</ele>
        <time>2019-12-09T08:51:05Z</time>
      </trkpt>
      <trkpt lat="43.89386" lon="5.11599">
        <ele>133.28</ele>
        <time>2019-12-09T08:51:16Z</time>
      </trkpt>
      <trkpt lat="43.89396" lon="5.11619">
        <ele>135.2</ele>
        <time>2019-12-09T08:51:33Z</time>
      </trkpt>
      <trkpt lat="43.89399" lon="5.11638">
        <ele>135.68</ele>
        <time>2019-12-09T08:51:47Z</time>
      </trkpt>
      <trkpt lat="43.89406" lon="5.11666">
        <ele>136.64</ele>
        <time>2019-12-09T08:52:08Z</time>
      </trkpt>
      <trkpt lat="43.89416" lon="5.11696">
        <ele>137.61</ele>
        <time>2019-12-09T08:52:30Z</time>
      </trkpt>
      <trkpt lat="43.89424" lon="5.11721">
        <ele>138.09</ele>
        <time>2019-12-09T08:52:49Z</time>
      </trkpt>
      <trkpt lat="43.89428" lon="5.11732">
        <ele>138.57</ele>
        <time>2019-12-09T08:52:57Z</time>
      </trkpt>
      <trkpt lat="43.89433" lon="5.11749">
        <ele>139.05</ele>
        <time>2019-12-09T08:53:10Z</time>
      </trkpt>
      <trkpt lat="43.89435" lon="5.11772">
        <ele>140.97</ele>
        <time>2019-12-09T08:53:27Z</time>
      </trkpt>
      <trkpt lat="43.89437" lon="5.11797">
        <ele>144.34</ele>
        <time>2019-12-09T08:53:45Z</time>
      </trkpt>
      <trkpt lat="43.89433" lon="5.11817">
        <ele>146.26</ele>
        <time>2019-12-09T08:54:02Z</time>
      </trkpt>
      <trkpt lat="43.89423" lon="5.11834">
        <ele>148.18</ele>
        <time>2019-12-09T08:54:19Z</time>
      </trkpt>
      <trkpt lat="43.89414" lon="5.11854">
        <ele>149.62</ele>
        <time>2019-12-09T08:54:37Z</time>
      </trkpt>
      <trkpt lat="43.89404" lon="5.11879">
        <ele>150.58</ele>
        <time>2019-12-09T08:54:57Z</time>
      </trkpt>
      <trkpt lat="43.89401" lon="5.119">
        <ele>152.03</ele>
        <time>2019-12-09T08:55:15Z</time>
      </trkpt>
      <trkpt lat="43.89399" lon="5.11925">
        <ele>154.43</ele>
        <time>2019-12-09T08:55:34Z</time>
      </trkpt>
      <trkpt lat="43.89402" lon="5.11947">
        <ele>155.39</ele>
        <time>2019-12-09T08:55:52Z</time>
      </trkpt>
      <trkpt lat="43.89407" lon="5.11967">
        <ele>156.35</ele>
        <time>2019-12-09T08:56:06Z</time>
      </trkpt>
      <trkpt lat="43.8941" lon="5.11987">
        <ele>157.31</ele>
        <time>2019-12-09T08:56:22Z</time>
      </trkpt>
      <trkpt lat="43.89411" lon="5.11998">
        <ele>157.79</ele>
        <time>2019-12-09T08:56:31Z</time>
      </trkpt>
      <trkpt lat="43.89411" lon="5.12021">
        <ele>159.72</ele>
        <time>2019-12-09T08:56:49Z</time>
      </trkpt>
      <trkpt lat="43.8941" lon="5.12047">
        <ele>162.12</ele>
        <time>2019-12-09T08:57:06Z</time>
      </trkpt>
      <trkpt lat="43.89411" lon="5.12064">
        <ele>164.04</ele>
        <time>2019-12-09T08:57:22Z</time>
      </trkpt>
      <trkpt lat="43.89412" lon="5.12086">
        <ele>165.96</ele>
        <time>2019-12-09T08:57:39Z</time>
      </trkpt>
      <trkpt lat="43.89423" lon="5.12103">
        <ele>168.37</ele>
        <time>2019-12-09T08:58:00Z</time>
      </trkpt>
      <trkpt lat="43.89434" lon="5.12121">
        <ele>169.33</ele>
        <time>2019-12-09T08:58:16Z</time>
      </trkpt>
      <trkpt lat="43.89444" lon="5.12141">
        <ele>169.81</ele>
        <time>2019-12-09T08:58:32Z</time>
      </trkpt>
      <trkpt lat="43.89452" lon="5.1216">
        <ele>171.25</ele>
        <time>2019-12-09T08:58:50Z</time>
      </trkpt>
      <trkpt lat="43.89461" lon="5.12178">
        <ele>172.69</ele>
        <time>2019-12-09T08:59:10Z</time>
      </trkpt>
      <trkpt lat="43.89471" lon="5.12196">
        <ele>174.62</ele>
        <time>2019-12-09T08:59:25Z</time>
      </trkpt>
      <trkpt lat="43.89481" lon="5.12209">
        <ele>176.54</ele>
        <time>2019-12-09T08:59:40Z</time>
      </trkpt>
      <trkpt lat="43.89487" lon="5.12222">
        <ele>177.98</ele>
        <time>2019-12-09T08:59:55Z</time>
      </trkpt>
      <trkpt lat="43.89495" lon="5.12239">
        <ele>180.38</ele>
        <time>2019-12-09T09:00:13Z</time>
      </trkpt>
      <trkpt lat="43.89496" lon="5.12241">
        <ele>178.94</ele>
        <time>2019-12-09T09:00:23Z</time>
      </trkpt>
      <trkpt lat="43.89496" lon="5.12241">
        <ele>180.38</ele>
        <time>2019-12-09T09:00:25Z</time>
      </trkpt>
      <trkpt lat="43.89495" lon="5.12237">
        <ele>179.42</ele>
        <time>2019-12-09T09:00:51Z</time>
      </trkpt>
      <trkpt lat="43.89496" lon="5.12238">
        <ele>178.94</ele>
        <time>2019-12-09T09:01:10Z</time>
      </trkpt>
      <trkpt lat="43.89498" lon="5.12239">
        <ele>178.46</ele>
        <time>2019-12-09T09:01:28Z</time>
      </trkpt>
      <trkpt lat="43.89495" lon="5.12235">
        <ele>178.46</ele>
        <time>2019-12-09T09:01:48Z</time>
      </trkpt>
      <trkpt lat="43.89494" lon="5.12234">
        <ele>178.46</ele>
        <time>2019-12-09T09:02:08Z</time>
      </trkpt>
      <trkpt lat="43.89493" lon="5.12236">
        <ele>179.42</ele>
        <time>2019-12-09T09:02:27Z</time>
      </trkpt>
      <trkpt lat="43.89493" lon="5.12232">
        <ele>179.42</ele>
        <time>2019-12-09T09:03:00Z</time>
      </trkpt>
      <trkpt lat="43.89498" lon="5.12226">
        <ele>178.94</ele>
        <time>2019-12-09T09:03:13Z</time>
      </trkpt>
      <trkpt lat="43.89508" lon="5.12212">
        <ele>177.98</ele>
        <time>2019-12-09T09:03:31Z</time>
      </trkpt>
      <trkpt lat="43.89512" lon="5.12208">
        <ele>179.42</ele>
        <time>2019-12-09T09:03:39Z</time>
      </trkpt>
      <trkpt lat="43.89523" lon="5.12199">
        <ele>180.87</ele>
        <time>2019-12-09T09:03:54Z</time>
      </trkpt>
      <trkpt lat="43.89536" lon="5.12202">
        <ele>182.31</ele>
        <time>2019-12-09T09:04:09Z</time>
      </trkpt>
      <trkpt lat="43.89545" lon="5.12216">
        <ele>183.27</ele>
        <time>2019-12-09T09:04:25Z</time>
      </trkpt>
      <trkpt lat="43.89551" lon="5.12233">
        <ele>185.19</ele>
        <time>2019-12-09T09:04:41Z</time>
      </trkpt>
      <trkpt lat="43.89553" lon="5.12249">
        <ele>186.63</ele>
        <time>2019-12-09T09:04:55Z</time>
      </trkpt>
      <trkpt lat="43.89564" lon="5.12261">
        <ele>188.56</ele>
        <time>2019-12-09T09:05:13Z</time>
      </trkpt>
      <trkpt lat="43.89578" lon="5.1227">
        <ele>190.48</ele>
        <time>2019-12-09T09:05:32Z</time>
      </trkpt>
      <trkpt lat="43.89589" lon="5.12277">
        <ele>192.4</ele>
        <time>2019-12-09T09:05:50Z</time>
      </trkpt>
      <trkpt lat="43.89601" lon="5.12286">
        <ele>194.32</ele>
        <time>2019-12-09T09:06:07Z</time>
      </trkpt>
      <trkpt lat="43.89613" lon="5.12296">
        <ele>195.28</ele>
        <time>2019-12-09T09:06:22Z</time>
      </trkpt>
      <trkpt lat="43.89624" lon="5.12308">
        <ele>197.21</ele>
        <time>2019-12-09T09:06:39Z</time>
      </trkpt>
      <trkpt lat="43.89637" lon="5.12319">
        <ele>198.17</ele>
        <time>2019-12-09T09:06:56Z</time>
      </trkpt>
      <trkpt lat="43.89648" lon="5.1233">
        <ele>200.09</ele>
        <time>2019-12-09T09:07:13Z</time>
      </trkpt>
      <trkpt lat="43.89657" lon="5.12339">
        <ele>201.53</ele>
        <time>2019-12-09T09:07:29Z</time>
      </trkpt>
      <trkpt lat="43.89667" lon="5.12347">
        <ele>202.98</ele>
        <time>2019-12-09T09:07:44Z</time>
      </trkpt>
      <trkpt lat="43.8968" lon="5.12355">
        <ele>204.42</ele>
        <time>2019-12-09T09:08:02Z</time>
      </trkpt>
      <trkpt lat="43.89694" lon="5.12365">
        <ele>205.38</ele>
        <time>2019-12-09T09:08:20Z</time>
      </trkpt>
      <trkpt lat="43.89705" lon="5.12375">
        <ele>207.3</ele>
        <time>2019-12-09T09:08:37Z</time>
      </trkpt>
      <trkpt lat="43.8972" lon="5.12389">
        <ele>209.22</ele>
        <time>2019-12-09T09:08:55Z</time>
      </trkpt>
      <trkpt lat="43.89724" lon="5.12393">
        <ele>209.7</ele>
        <time>2019-12-09T09:09:01Z</time>
      </trkpt>
      <trkpt lat="43.89735" lon="5.12407">
        <ele>210.67</ele>
        <time>2019-12-09T09:09:17Z</time>
      </trkpt>
      <trkpt lat="43.89747" lon="5.12421">
        <ele>212.11</ele>
        <time>2019-12-09T09:09:34Z</time>
      </trkpt>
      <trkpt lat="43.89757" lon="5.12433">
        <ele>214.03</ele>
        <time>2019-12-09T09:09:49Z</time>
      </trkpt>
      <trkpt lat="43.89766" lon="5.12444">
        <ele>215.95</ele>
        <time>2019-12-09T09:10:06Z</time>
      </trkpt>
      <trkpt lat="43.89773" lon="5.12456">
        <ele>216.91</ele>
        <time>2019-12-09T09:10:22Z</time>
      </trkpt>
      <trkpt lat="43.89781" lon="5.12468">
        <ele>219.32</ele>
        <time>2019-12-09T09:10:38Z</time>
      </trkpt>
      <trkpt lat="43.89787" lon="5.12483">
        <ele>220.76</ele>
        <time>2019-12-09T09:10:54Z</time>
      </trkpt>
      <trkpt lat="43.89786" lon="5.12493">
        <ele>222.2</ele>
        <time>2019-12-09T09:11:08Z</time>
      </trkpt>
      <trkpt lat="43.89787" lon="5.12494">
        <ele>223.16</ele>
        <time>2019-12-09T09:11:33Z</time>
      </trkpt>
      <trkpt lat="43.89785" lon="5.12497">
        <ele>223.16</ele>
        <time>2019-12-09T09:11:59Z</time>
      </trkpt>
      <trkpt lat="43.89781" lon="5.12497">
        <ele>224.61</ele>
        <time>2019-12-09T09:12:14Z</time>
      </trkpt>
      <trkpt lat="43.89767" lon="5.12485">
        <ele>225.09</ele>
        <time>2019-12-09T09:12:30Z</time>
      </trkpt>
      <trkpt lat="43.89748" lon="5.12473">
        <ele>225.57</ele>
        <time>2019-12-09T09:12:50Z</time>
      </trkpt>
      <trkpt lat="43.89734" lon="5.12465">
        <ele>226.05</ele>
        <time>2019-12-09T09:13:05Z</time>
      </trkpt>
      <trkpt lat="43.89719" lon="5.12459">
        <ele>227.01</ele>
        <time>2019-12-09T09:13:23Z</time>
      </trkpt>
      <trkpt lat="43.89715" lon="5.12473">
        <ele>229.41</ele>
        <time>2019-12-09T09:13:39Z</time>
      </trkpt>
      <trkpt lat="43.89723" lon="5.12486">
        <ele>230.85</ele>
        <time>2019-12-09T09:13:54Z</time>
      </trkpt>
      <trkpt lat="43.89733" lon="5.12498">
        <ele>232.78</ele>
        <time>2019-12-09T09:14:11Z</time>
      </trkpt>
      <trkpt lat="43.89741" lon="5.1251">
        <ele>234.7</ele>
        <time>2019-12-09T09:14:29Z</time>
      </trkpt>
      <trkpt lat="43.89746" lon="5.12526">
        <ele>236.62</ele>
        <time>2019-12-09T09:14:45Z</time>
      </trkpt>
      <trkpt lat="43.89742" lon="5.12542">
        <ele>238.54</ele>
        <time>2019-12-09T09:15:02Z</time>
      </trkpt>
      <trkpt lat="43.89733" lon="5.12558">
        <ele>240.47</ele>
        <time>2019-12-09T09:15:20Z</time>
      </trkpt>
      <trkpt lat="43.89724" lon="5.12573">
        <ele>241.91</ele>
        <time>2019-12-09T09:15:36Z</time>
      </trkpt>
      <trkpt lat="43.89717" lon="5.12592">
        <ele>242.87</ele>
        <time>2019-12-09T09:15:55Z</time>
      </trkpt>
      <trkpt lat="43.89712" lon="5.12608">
        <ele>244.79</ele>
        <time>2019-12-09T09:16:11Z</time>
      </trkpt>
      <trkpt lat="43.89708" lon="5.12622">
        <ele>246.23</ele>
        <time>2019-12-09T09:16:26Z</time>
      </trkpt>
      <trkpt lat="43.89701" lon="5.12632">
        <ele>247.2</ele>
        <time>2019-12-09T09:16:41Z</time>
      </trkpt>
      <trkpt lat="43.89692" lon="5.12639">
        <ele>248.16</ele>
        <time>2019-12-09T09:16:55Z</time>
      </trkpt>
      <trkpt lat="43.89688" lon="5.12641">
        <ele>248.64</ele>
        <time>2019-12-09T09:16:59Z</time>
      </trkpt>
      <trkpt lat="43.8967" lon="5.12653">
        <ele>249.6</ele>
        <time>2019-12-09T09:17:18Z</time>
      </trkpt>
      <trkpt lat="43.89665" lon="5.12657">
        <ele>249.6</ele>
        <time>2019-12-09T09:17:22Z</time>
      </trkpt>
      <trkpt lat="43.89651" lon="5.12668">
        <ele>250.08</ele>
        <time>2019-12-09T09:17:39Z</time>
      </trkpt>
      <trkpt lat="43.89647" lon="5.12675">
        <ele>250.08</ele>
        <time>2019-12-09T09:17:47Z</time>
      </trkpt>
      <trkpt lat="43.89645" lon="5.12695">
        <ele>251.52</ele>
        <time>2019-12-09T09:18:05Z</time>
      </trkpt>
      <trkpt lat="43.89646" lon="5.12708">
        <ele>252.96</ele>
        <time>2019-12-09T09:18:20Z</time>
      </trkpt>
      <trkpt lat="43.89645" lon="5.12709">
        <ele>252.96</ele>
        <time>2019-12-09T09:18:40Z</time>
      </trkpt>
      <trkpt lat="43.89645" lon="5.12708">
        <ele>252.96</ele>
        <time>2019-12-09T09:18:58Z</time>
      </trkpt>
      <trkpt lat="43.89652" lon="5.12717">
        <ele>253.93</ele>
        <time>2019-12-09T09:19:13Z</time>
      </trkpt>
      <trkpt lat="43.8966" lon="5.12734">
        <ele>254.89</ele>
        <time>2019-12-09T09:19:31Z</time>
      </trkpt>
      <trkpt lat="43.89664" lon="5.12748">
        <ele>256.81</ele>
        <time>2019-12-09T09:19:47Z</time>
      </trkpt>
      <trkpt lat="43.89666" lon="5.12762">
        <ele>257.29</ele>
        <time>2019-12-09T09:19:59Z</time>
      </trkpt>
      <trkpt lat="43.89662" lon="5.12783">
        <ele>258.25</ele>
        <time>2019-12-09T09:20:16Z</time>
      </trkpt>
      <trkpt lat="43.89661" lon="5.12801">
        <ele>259.69</ele>
        <time>2019-12-09T09:20:31Z</time>
      </trkpt>
      <trkpt lat="43.89668" lon="5.12817">
        <ele>260.65</ele>
        <time>2019-12-09T09:20:47Z</time>
      </trkpt>
      <trkpt lat="43.89679" lon="5.1283">
        <ele>262.1</ele>
        <time>2019-12-09T09:21:04Z</time>
      </trkpt>
      <trkpt lat="43.89683" lon="5.12838">
        <ele>262.58</ele>
        <time>2019-12-09T09:21:17Z</time>
      </trkpt>
      <trkpt lat="43.89691" lon="5.12861">
        <ele>263.54</ele>
        <time>2019-12-09T09:21:36Z</time>
      </trkpt>
      <trkpt lat="43.89696" lon="5.1288">
        <ele>264.5</ele>
        <time>2019-12-09T09:21:51Z</time>
      </trkpt>
      <trkpt lat="43.89709" lon="5.12899">
        <ele>264.98</ele>
        <time>2019-12-09T09:22:09Z</time>
      </trkpt>
      <trkpt lat="43.89719" lon="5.12916">
        <ele>266.42</ele>
        <time>2019-12-09T09:22:26Z</time>
      </trkpt>
      <trkpt lat="43.8973" lon="5.12935">
        <ele>267.38</ele>
        <time>2019-12-09T09:22:44Z</time>
      </trkpt>
      <trkpt lat="43.89742" lon="5.12952">
        <ele>267.86</ele>
        <time>2019-12-09T09:23:02Z</time>
      </trkpt>
      <trkpt lat="43.89751" lon="5.12969">
        <ele>269.79</ele>
        <time>2019-12-09T09:23:19Z</time>
      </trkpt>
      <trkpt lat="43.89755" lon="5.12979">
        <ele>270.75</ele>
        <time>2019-12-09T09:23:37Z</time>
      </trkpt>
      <trkpt lat="43.89763" lon="5.12991">
        <ele>271.23</ele>
        <time>2019-12-09T09:23:52Z</time>
      </trkpt>
      <trkpt lat="43.89775" lon="5.13006">
        <ele>272.67</ele>
        <time>2019-12-09T09:24:10Z</time>
      </trkpt>
      <trkpt lat="43.89779" lon="5.13027">
        <ele>273.15</ele>
        <time>2019-12-09T09:24:27Z</time>
      </trkpt>
      <trkpt lat="43.8978" lon="5.13045">
        <ele>274.11</ele>
        <time>2019-12-09T09:24:42Z</time>
      </trkpt>
      <trkpt lat="43.89782" lon="5.13071">
        <ele>274.11</ele>
        <time>2019-12-09T09:25:01Z</time>
      </trkpt>
      <trkpt lat="43.89788" lon="5.1309">
        <ele>274.59</ele>
        <time>2019-12-09T09:25:18Z</time>
      </trkpt>
      <trkpt lat="43.89792" lon="5.13098">
        <ele>275.07</ele>
        <time>2019-12-09T09:25:33Z</time>
      </trkpt>
      <trkpt lat="43.89798" lon="5.13109">
        <ele>277</ele>
        <time>2019-12-09T09:25:44Z</time>
      </trkpt>
      <trkpt lat="43.89811" lon="5.13123">
        <ele>277</ele>
        <time>2019-12-09T09:25:59Z</time>
      </trkpt>
      <trkpt lat="43.89823" lon="5.13137">
        <ele>278.44</ele>
        <time>2019-12-09T09:26:15Z</time>
      </trkpt>
      <trkpt lat="43.89832" lon="5.13153">
        <ele>278.92</ele>
        <time>2019-12-09T09:26:32Z</time>
      </trkpt>
      <trkpt lat="43.89839" lon="5.13162">
        <ele>280.36</ele>
        <time>2019-12-09T09:26:49Z</time>
      </trkpt>
      <trkpt lat="43.89844" lon="5.13173">
        <ele>280.84</ele>
        <time>2019-12-09T09:27:06Z</time>
      </trkpt>
      <trkpt lat="43.89852" lon="5.1319">
        <ele>282.28</ele>
        <time>2019-12-09T09:27:22Z</time>
      </trkpt>
      <trkpt lat="43.8986" lon="5.13205">
        <ele>283.73</ele>
        <time>2019-12-09T09:27:37Z</time>
      </trkpt>
      <trkpt lat="43.89863" lon="5.13219">
        <ele>284.69</ele>
        <time>2019-12-09T09:27:51Z</time>
      </trkpt>
      <trkpt lat="43.89869" lon="5.13227">
        <ele>285.65</ele>
        <time>2019-12-09T09:28:06Z</time>
      </trkpt>
      <trkpt lat="43.8987" lon="5.13231">
        <ele>285.65</ele>
        <time>2019-12-09T09:28:23Z</time>
      </trkpt>
      <trkpt lat="43.89875" lon="5.13237">
        <ele>286.13</ele>
        <time>2019-12-09T09:28:40Z</time>
      </trkpt>
      <trkpt lat="43.89871" lon="5.13234">
        <ele>287.09</ele>
        <time>2019-12-09T09:28:59Z</time>
      </trkpt>
      <trkpt lat="43.89869" lon="5.13231">
        <ele>287.09</ele>
        <time>2019-12-09T09:29:26Z</time>
      </trkpt>
      <trkpt lat="43.89869" lon="5.13232">
        <ele>285.65</ele>
        <time>2019-12-09T09:29:28Z</time>
      </trkpt>
      <trkpt lat="43.89871" lon="5.13234">
        <ele>285.17</ele>
        <time>2019-12-09T09:29:46Z</time>
      </trkpt>
      <trkpt lat="43.89865" lon="5.13241">
        <ele>285.17</ele>
        <time>2019-12-09T09:30:03Z</time>
      </trkpt>
      <trkpt lat="43.89867" lon="5.1324">
        <ele>285.17</ele>
        <time>2019-12-09T09:30:28Z</time>
      </trkpt>
      <trkpt lat="43.89865" lon="5.13241">
        <ele>285.17</ele>
        <time>2019-12-09T09:30:50Z</time>
      </trkpt>
      <trkpt lat="43.89863" lon="5.13239">
        <ele>285.17</ele>
        <time>2019-12-09T09:31:15Z</time>
      </trkpt>
      <trkpt lat="43.89862" lon="5.13236">
        <ele>285.17</ele>
        <time>2019-12-09T09:31:41Z</time>
      </trkpt>
      <trkpt lat="43.8986" lon="5.13233">
        <ele>285.17</ele>
        <time>2019-12-09T09:32:12Z</time>
      </trkpt>
      <trkpt lat="43.89864" lon="5.13236">
        <ele>285.17</ele>
        <time>2019-12-09T09:32:42Z</time>
      </trkpt>
      <trkpt lat="43.89867" lon="5.13235">
        <ele>285.17</ele>
        <time>2019-12-09T09:33:15Z</time>
      </trkpt>
      <trkpt lat="43.89865" lon="5.13236">
        <ele>285.17</ele>
        <time>2019-12-09T09:33:44Z</time>
      </trkpt>
      <trkpt lat="43.89865" lon="5.13242">
        <ele>285.17</ele>
        <time>2019-12-09T09:34:03Z</time>
      </trkpt>
      <trkpt lat="43.89866" lon="5.1324">
        <ele>285.17</ele>
        <time>2019-12-09T09:34:25Z</time>
      </trkpt>
      <trkpt lat="43.89868" lon="5.13239">
        <ele>286.13</ele>
        <time>2019-12-09T09:34:52Z</time>
      </trkpt>
      <trkpt lat="43.89868" lon="5.13238">
        <ele>286.13</ele>
        <time>2019-12-09T09:35:25Z</time>
      </trkpt>
      <trkpt lat="43.89871" lon="5.13238">
        <ele>286.13</ele>
        <time>2019-12-09T09:35:51Z</time>
      </trkpt>
      <trkpt lat="43.89869" lon="5.1324">
        <ele>286.13</ele>
        <time>2019-12-09T09:36:24Z</time>
      </trkpt>
      <trkpt lat="43.8987" lon="5.13241">
        <ele>286.13</ele>
        <time>2019-12-09T09:37:02Z</time>
      </trkpt>
      <trkpt lat="43.89869" lon="5.1324">
        <ele>286.13</ele>
        <time>2019-12-09T09:37:28Z</time>
      </trkpt>
      <trkpt lat="43.8987" lon="5.1324">
        <ele>286.61</ele>
        <time>2019-12-09T09:38:04Z</time>
      </trkpt>
      <trkpt lat="43.89869" lon="5.13239">
        <ele>286.13</ele>
        <time>2019-12-09T09:38:35Z</time>
      </trkpt>
      <trkpt lat="43.8987" lon="5.13239">
        <ele>286.61</ele>
        <time>2019-12-09T09:38:57Z</time>
      </trkpt>
      <trkpt lat="43.8987" lon="5.13239">
        <ele>286.13</ele>
        <time>2019-12-09T09:39:17Z</time>
      </trkpt>
      <trkpt lat="43.89871" lon="5.13239">
        <ele>286.13</ele>
        <time>2019-12-09T09:39:46Z</time>
      </trkpt>
      <trkpt lat="43.89872" lon="5.13238">
        <ele>286.13</ele>
        <time>2019-12-09T09:40:17Z</time>
      </trkpt>
      <trkpt lat="43.8987" lon="5.13233">
        <ele>286.13</ele>
        <time>2019-12-09T09:40:45Z</time>
      </trkpt>
      <trkpt lat="43.8987" lon="5.13233">
        <ele>286.13</ele>
        <time>2019-12-09T09:41:12Z</time>
      </trkpt>
      <trkpt lat="43.8987" lon="5.13234">
        <ele>286.13</ele>
        <time>2019-12-09T09:41:36Z</time>
      </trkpt>
      <trkpt lat="43.89871" lon="5.13238">
        <ele>286.13</ele>
        <time>2019-12-09T09:41:54Z</time>
      </trkpt>
      <trkpt lat="43.89872" lon="5.13234">
        <ele>286.13</ele>
        <time>2019-12-09T09:42:21Z</time>
      </trkpt>
      <trkpt lat="43.89871" lon="5.13236">
        <ele>286.61</ele>
        <time>2019-12-09T09:42:37Z</time>
      </trkpt>
      <trkpt lat="43.8987" lon="5.13239">
        <ele>291.9</ele>
        <time>2019-12-09T09:42:52Z</time>
      </trkpt>
      <trkpt lat="43.8987" lon="5.1324">
        <ele>287.09</ele>
        <time>2019-12-09T09:42:53Z</time>
      </trkpt>
      <trkpt lat="43.8987" lon="5.13241">
        <ele>286.61</ele>
        <time>2019-12-09T09:43:17Z</time>
      </trkpt>
      <trkpt lat="43.89865" lon="5.13243">
        <ele>286.61</ele>
        <time>2019-12-09T09:43:34Z</time>
      </trkpt>
      <trkpt lat="43.89864" lon="5.13247">
        <ele>286.61</ele>
        <time>2019-12-09T09:43:52Z</time>
      </trkpt>
      <trkpt lat="43.89858" lon="5.13251">
        <ele>286.13</ele>
        <time>2019-12-09T09:44:05Z</time>
      </trkpt>
      <trkpt lat="43.89853" lon="5.13263">
        <ele>285.65</ele>
        <time>2019-12-09T09:44:20Z</time>
      </trkpt>
      <trkpt lat="43.89857" lon="5.13282">
        <ele>285.65</ele>
        <time>2019-12-09T09:44:37Z</time>
      </trkpt>
      <trkpt lat="43.89862" lon="5.13301">
        <ele>285.17</ele>
        <time>2019-12-09T09:44:53Z</time>
      </trkpt>
      <trkpt lat="43.89872" lon="5.13318">
        <ele>285.17</ele>
        <time>2019-12-09T09:45:10Z</time>
      </trkpt>
      <trkpt lat="43.89887" lon="5.13331">
        <ele>285.17</ele>
        <time>2019-12-09T09:45:26Z</time>
      </trkpt>
      <trkpt lat="43.89894" lon="5.13336">
        <ele>286.13</ele>
        <time>2019-12-09T09:45:35Z</time>
      </trkpt>
      <trkpt lat="43.89906" lon="5.13344">
        <ele>288.05</ele>
        <time>2019-12-09T09:45:51Z</time>
      </trkpt>
      <trkpt lat="43.8992" lon="5.13351">
        <ele>289.49</ele>
        <time>2019-12-09T09:46:08Z</time>
      </trkpt>
      <trkpt lat="43.89933" lon="5.13362">
        <ele>289.97</ele>
        <time>2019-12-09T09:46:25Z</time>
      </trkpt>
      <trkpt lat="43.89947" lon="5.13374">
        <ele>290.94</ele>
        <time>2019-12-09T09:46:42Z</time>
      </trkpt>
      <trkpt lat="43.89955" lon="5.13381">
        <ele>291.42</ele>
        <time>2019-12-09T09:46:56Z</time>
      </trkpt>
      <trkpt lat="43.89967" lon="5.13392">
        <ele>292.38</ele>
        <time>2019-12-09T09:47:11Z</time>
      </trkpt>
      <trkpt lat="43.89981" lon="5.13407">
        <ele>293.34</ele>
        <time>2019-12-09T09:47:28Z</time>
      </trkpt>
      <trkpt lat="43.89989" lon="5.13424">
        <ele>294.78</ele>
        <time>2019-12-09T09:47:45Z</time>
      </trkpt>
      <trkpt lat="43.89991" lon="5.13437">
        <ele>295.26</ele>
        <time>2019-12-09T09:48:01Z</time>
      </trkpt>
      <trkpt lat="43.89995" lon="5.13454">
        <ele>296.7</ele>
        <time>2019-12-09T09:48:17Z</time>
      </trkpt>
      <trkpt lat="43.89999" lon="5.13475">
        <ele>297.67</ele>
        <time>2019-12-09T09:48:34Z</time>
      </trkpt>
      <trkpt lat="43.9" lon="5.13487">
        <ele>298.15</ele>
        <time>2019-12-09T09:48:44Z</time>
      </trkpt>
      <trkpt lat="43.90005" lon="5.13514">
        <ele>298.63</ele>
        <time>2019-12-09T09:49:04Z</time>
      </trkpt>
      <trkpt lat="43.90006" lon="5.13524">
        <ele>299.11</ele>
        <time>2019-12-09T09:49:12Z</time>
      </trkpt>
      <trkpt lat="43.90012" lon="5.13544">
        <ele>300.07</ele>
        <time>2019-12-09T09:49:30Z</time>
      </trkpt>
      <trkpt lat="43.90018" lon="5.13558">
        <ele>301.03</ele>
        <time>2019-12-09T09:49:44Z</time>
      </trkpt>
      <trkpt lat="43.90028" lon="5.13572">
        <ele>301.99</ele>
        <time>2019-12-09T09:50:00Z</time>
      </trkpt>
      <trkpt lat="43.90035" lon="5.13587">
        <ele>302.95</ele>
        <time>2019-12-09T09:50:15Z</time>
      </trkpt>
      <trkpt lat="43.90045" lon="5.13608">
        <ele>303.91</ele>
        <time>2019-12-09T09:50:33Z</time>
      </trkpt>
      <trkpt lat="43.90053" lon="5.1363">
        <ele>304.39</ele>
        <time>2019-12-09T09:50:51Z</time>
      </trkpt>
      <trkpt lat="43.90059" lon="5.13647">
        <ele>303.91</ele>
        <time>2019-12-09T09:51:05Z</time>
      </trkpt>
      <trkpt lat="43.90068" lon="5.13659">
        <ele>304.39</ele>
        <time>2019-12-09T09:51:19Z</time>
      </trkpt>
      <trkpt lat="43.90081" lon="5.13675">
        <ele>303.91</ele>
        <time>2019-12-09T09:51:38Z</time>
      </trkpt>
      <trkpt lat="43.90098" lon="5.13694">
        <ele>303.91</ele>
        <time>2019-12-09T09:51:59Z</time>
      </trkpt>
      <trkpt lat="43.90113" lon="5.13709">
        <ele>303.91</ele>
        <time>2019-12-09T09:52:18Z</time>
      </trkpt>
      <trkpt lat="43.90125" lon="5.13722">
        <ele>303.91</ele>
        <time>2019-12-09T09:52:34Z</time>
      </trkpt>
      <trkpt lat="43.90139" lon="5.13737">
        <ele>304.39</ele>
        <time>2019-12-09T09:52:51Z</time>
      </trkpt>
      <trkpt lat="43.90151" lon="5.13753">
        <ele>304.39</ele>
        <time>2019-12-09T09:53:08Z</time>
      </trkpt>
      <trkpt lat="43.90164" lon="5.13769">
        <ele>305.36</ele>
        <time>2019-12-09T09:53:25Z</time>
      </trkpt>
      <trkpt lat="43.90169" lon="5.13774">
        <ele>305.36</ele>
        <time>2019-12-09T09:53:31Z</time>
      </trkpt>
      <trkpt lat="43.90183" lon="5.13796">
        <ele>305.36</ele>
        <time>2019-12-09T09:53:52Z</time>
      </trkpt>
      <trkpt lat="43.90193" lon="5.13816">
        <ele>305.84</ele>
        <time>2019-12-09T09:54:09Z</time>
      </trkpt>
      <trkpt lat="43.90201" lon="5.13839">
        <ele>306.8</ele>
        <time>2019-12-09T09:54:28Z</time>
      </trkpt>
      <trkpt lat="43.90207" lon="5.13867">
        <ele>307.28</ele>
        <time>2019-12-09T09:54:48Z</time>
      </trkpt>
      <trkpt lat="43.90211" lon="5.1389">
        <ele>306.8</ele>
        <time>2019-12-09T09:55:06Z</time>
      </trkpt>
      <trkpt lat="43.90219" lon="5.13915">
        <ele>307.28</ele>
        <time>2019-12-09T09:55:26Z</time>
      </trkpt>
      <trkpt lat="43.90227" lon="5.13936">
        <ele>306.8</ele>
        <time>2019-12-09T09:55:44Z</time>
      </trkpt>
      <trkpt lat="43.90232" lon="5.1395">
        <ele>305.84</ele>
        <time>2019-12-09T09:55:55Z</time>
      </trkpt>
      <trkpt lat="43.9024" lon="5.1397">
        <ele>305.84</ele>
        <time>2019-12-09T09:56:13Z</time>
      </trkpt>
      <trkpt lat="43.90245" lon="5.13981">
        <ele>305.84</ele>
        <time>2019-12-09T09:56:22Z</time>
      </trkpt>
      <trkpt lat="43.90253" lon="5.14003">
        <ele>305.84</ele>
        <time>2019-12-09T09:56:39Z</time>
      </trkpt>
      <trkpt lat="43.90262" lon="5.14023">
        <ele>305.84</ele>
        <time>2019-12-09T09:56:56Z</time>
      </trkpt>
      <trkpt lat="43.90269" lon="5.14034">
        <ele>305.84</ele>
        <time>2019-12-09T09:57:07Z</time>
      </trkpt>
      <trkpt lat="43.90282" lon="5.1405">
        <ele>307.28</ele>
        <time>2019-12-09T09:57:25Z</time>
      </trkpt>
      <trkpt lat="43.90292" lon="5.14062">
        <ele>308.24</ele>
        <time>2019-12-09T09:57:40Z</time>
      </trkpt>
      <trkpt lat="43.90303" lon="5.14072">
        <ele>309.2</ele>
        <time>2019-12-09T09:57:55Z</time>
      </trkpt>
      <trkpt lat="43.90305" lon="5.14073">
        <ele>309.68</ele>
        <time>2019-12-09T09:58:11Z</time>
      </trkpt>
      <trkpt lat="43.90306" lon="5.14072">
        <ele>309.68</ele>
        <time>2019-12-09T09:58:32Z</time>
      </trkpt>
      <trkpt lat="43.90307" lon="5.14073">
        <ele>309.68</ele>
        <time>2019-12-09T09:58:45Z</time>
      </trkpt>
      <trkpt lat="43.90308" lon="5.14074">
        <ele>309.68</ele>
        <time>2019-12-09T09:59:14Z</time>
      </trkpt>
      <trkpt lat="43.90319" lon="5.14074">
        <ele>310.16</ele>
        <time>2019-12-09T09:59:29Z</time>
      </trkpt>
      <trkpt lat="43.90319" lon="5.14073">
        <ele>310.16</ele>
        <time>2019-12-09T09:59:48Z</time>
      </trkpt>
      <trkpt lat="43.90322" lon="5.14066">
        <ele>310.16</ele>
        <time>2019-12-09T10:00:03Z</time>
      </trkpt>
      <trkpt lat="43.90335" lon="5.14055">
        <ele>311.6</ele>
        <time>2019-12-09T10:00:20Z</time>
      </trkpt>
      <trkpt lat="43.90349" lon="5.14043">
        <ele>313.05</ele>
        <time>2019-12-09T10:00:39Z</time>
      </trkpt>
      <trkpt lat="43.90357" lon="5.14035">
        <ele>314.49</ele>
        <time>2019-12-09T10:00:53Z</time>
      </trkpt>
      <trkpt lat="43.90364" lon="5.14024">
        <ele>315.93</ele>
        <time>2019-12-09T10:01:09Z</time>
      </trkpt>
      <trkpt lat="43.9037" lon="5.14012">
        <ele>316.89</ele>
        <time>2019-12-09T10:01:23Z</time>
      </trkpt>
      <trkpt lat="43.90378" lon="5.13996">
        <ele>317.85</ele>
        <time>2019-12-09T10:01:39Z</time>
      </trkpt>
      <trkpt lat="43.90387" lon="5.13981">
        <ele>318.33</ele>
        <time>2019-12-09T10:01:55Z</time>
      </trkpt>
      <trkpt lat="43.90393" lon="5.13973">
        <ele>318.33</ele>
        <time>2019-12-09T10:02:09Z</time>
      </trkpt>
      <trkpt lat="43.90397" lon="5.13966">
        <ele>316.89</ele>
        <time>2019-12-09T10:02:21Z</time>
      </trkpt>
      <trkpt lat="43.90396" lon="5.13956">
        <ele>316.41</ele>
        <time>2019-12-09T10:02:34Z</time>
      </trkpt>
      <trkpt lat="43.90394" lon="5.13944">
        <ele>314.97</ele>
        <time>2019-12-09T10:02:47Z</time>
      </trkpt>
      <trkpt lat="43.90394" lon="5.13931">
        <ele>314.01</ele>
        <time>2019-12-09T10:03:02Z</time>
      </trkpt>
      <trkpt lat="43.90397" lon="5.13923">
        <ele>312.09</ele>
        <time>2019-12-09T10:03:15Z</time>
      </trkpt>
      <trkpt lat="43.904" lon="5.13913">
        <ele>310.16</ele>
        <time>2019-12-09T10:03:30Z</time>
      </trkpt>
      <trkpt lat="43.90402" lon="5.13906">
        <ele>308.72</ele>
        <time>2019-12-09T10:03:45Z</time>
      </trkpt>
      <trkpt lat="43.90404" lon="5.13902">
        <ele>307.28</ele>
        <time>2019-12-09T10:03:59Z</time>
      </trkpt>
      <trkpt lat="43.90406" lon="5.13896">
        <ele>305.84</ele>
        <time>2019-12-09T10:04:13Z</time>
      </trkpt>
      <trkpt lat="43.90408" lon="5.13894">
        <ele>304.39</ele>
        <time>2019-12-09T10:04:27Z</time>
      </trkpt>
      <trkpt lat="43.90412" lon="5.13897">
        <ele>303.43</ele>
        <time>2019-12-09T10:04:43Z</time>
      </trkpt>
      <trkpt lat="43.90414" lon="5.13894">
        <ele>301.51</ele>
        <time>2019-12-09T10:04:59Z</time>
      </trkpt>
      <trkpt lat="43.90413" lon="5.13889">
        <ele>300.07</ele>
        <time>2019-12-09T10:05:15Z</time>
      </trkpt>
      <trkpt lat="43.90414" lon="5.1388">
        <ele>299.11</ele>
        <time>2019-12-09T10:05:31Z</time>
      </trkpt>
      <trkpt lat="43.90416" lon="5.13884">
        <ele>298.15</ele>
        <time>2019-12-09T10:05:47Z</time>
      </trkpt>
      <trkpt lat="43.90422" lon="5.13882">
        <ele>296.7</ele>
        <time>2019-12-09T10:06:02Z</time>
      </trkpt>
      <trkpt lat="43.90425" lon="5.13876">
        <ele>295.26</ele>
        <time>2019-12-09T10:06:34Z</time>
      </trkpt>
      <trkpt lat="43.90424" lon="5.13871">
        <ele>294.3</ele>
        <time>2019-12-09T10:06:45Z</time>
      </trkpt>
      <trkpt lat="43.90424" lon="5.13862">
        <ele>294.3</ele>
        <time>2019-12-09T10:06:56Z</time>
      </trkpt>
      <trkpt lat="43.90426" lon="5.13855">
        <ele>292.86</ele>
        <time>2019-12-09T10:07:10Z</time>
      </trkpt>
      <trkpt lat="43.90427" lon="5.13849">
        <ele>291.42</ele>
        <time>2019-12-09T10:07:22Z</time>
      </trkpt>
      <trkpt lat="43.90429" lon="5.13844">
        <ele>291.42</ele>
        <time>2019-12-09T10:07:32Z</time>
      </trkpt>
      <trkpt lat="43.9043" lon="5.13837">
        <ele>290.94</ele>
        <time>2019-12-09T10:07:43Z</time>
      </trkpt>
      <trkpt lat="43.90432" lon="5.13829">
        <ele>289.97</ele>
        <time>2019-12-09T10:07:56Z</time>
      </trkpt>
      <trkpt lat="43.90436" lon="5.13828">
        <ele>290.46</ele>
        <time>2019-12-09T10:08:08Z</time>
      </trkpt>
      <trkpt lat="43.90438" lon="5.13823">
        <ele>290.46</ele>
        <time>2019-12-09T10:08:21Z</time>
      </trkpt>
      <trkpt lat="43.90441" lon="5.13817">
        <ele>289.97</ele>
        <time>2019-12-09T10:08:35Z</time>
      </trkpt>
      <trkpt lat="43.90441" lon="5.13807">
        <ele>288.53</ele>
        <time>2019-12-09T10:08:48Z</time>
      </trkpt>
      <trkpt lat="43.90445" lon="5.13801">
        <ele>287.57</ele>
        <time>2019-12-09T10:09:02Z</time>
      </trkpt>
      <trkpt lat="43.90448" lon="5.13796">
        <ele>287.57</ele>
        <time>2019-12-09T10:09:17Z</time>
      </trkpt>
      <trkpt lat="43.90453" lon="5.13788">
        <ele>286.61</ele>
        <time>2019-12-09T10:09:29Z</time>
      </trkpt>
      <trkpt lat="43.90457" lon="5.13777">
        <ele>285.65</ele>
        <time>2019-12-09T10:09:44Z</time>
      </trkpt>
      <trkpt lat="43.90459" lon="5.13771">
        <ele>285.17</ele>
        <time>2019-12-09T10:09:56Z</time>
      </trkpt>
      <trkpt lat="43.9046" lon="5.13764">
        <ele>284.69</ele>
        <time>2019-12-09T10:10:08Z</time>
      </trkpt>
      <trkpt lat="43.90461" lon="5.13761">
        <ele>284.21</ele>
        <time>2019-12-09T10:10:19Z</time>
      </trkpt>
      <trkpt lat="43.90464" lon="5.13755">
        <ele>282.77</ele>
        <time>2019-12-09T10:10:34Z</time>
      </trkpt>
      <trkpt lat="43.90467" lon="5.13749">
        <ele>281.8</ele>
        <time>2019-12-09T10:10:49Z</time>
      </trkpt>
      <trkpt lat="43.90469" lon="5.13744">
        <ele>281.32</ele>
        <time>2019-12-09T10:11:01Z</time>
      </trkpt>
      <trkpt lat="43.90472" lon="5.13741">
        <ele>280.84</ele>
        <time>2019-12-09T10:11:18Z</time>
      </trkpt>
      <trkpt lat="43.90477" lon="5.13731">
        <ele>280.36</ele>
        <time>2019-12-09T10:11:34Z</time>
      </trkpt>
      <trkpt lat="43.90482" lon="5.1372">
        <ele>279.88</ele>
        <time>2019-12-09T10:11:50Z</time>
      </trkpt>
      <trkpt lat="43.9049" lon="5.13705">
        <ele>279.4</ele>
        <time>2019-12-09T10:12:05Z</time>
      </trkpt>
      <trkpt lat="43.90491" lon="5.13698">
        <ele>278.44</ele>
        <time>2019-12-09T10:12:17Z</time>
      </trkpt>
      <trkpt lat="43.90493" lon="5.13691">
        <ele>277.48</ele>
        <time>2019-12-09T10:12:31Z</time>
      </trkpt>
      <trkpt lat="43.90497" lon="5.13679">
        <ele>276.04</ele>
        <time>2019-12-09T10:12:46Z</time>
      </trkpt>
      <trkpt lat="43.90499" lon="5.13665">
        <ele>276.04</ele>
        <time>2019-12-09T10:13:02Z</time>
      </trkpt>
      <trkpt lat="43.90502" lon="5.13648">
        <ele>274.59</ele>
        <time>2019-12-09T10:13:19Z</time>
      </trkpt>
      <trkpt lat="43.90504" lon="5.13638">
        <ele>274.11</ele>
        <time>2019-12-09T10:13:33Z</time>
      </trkpt>
      <trkpt lat="43.90506" lon="5.13622">
        <ele>273.15</ele>
        <time>2019-12-09T10:13:49Z</time>
      </trkpt>
      <trkpt lat="43.90506" lon="5.13613">
        <ele>272.19</ele>
        <time>2019-12-09T10:14:02Z</time>
      </trkpt>
      <trkpt lat="43.90506" lon="5.136">
        <ele>271.71</ele>
        <time>2019-12-09T10:14:16Z</time>
      </trkpt>
      <trkpt lat="43.90501" lon="5.13585">
        <ele>271.23</ele>
        <time>2019-12-09T10:14:32Z</time>
      </trkpt>
      <trkpt lat="43.90495" lon="5.13578">
        <ele>270.27</ele>
        <time>2019-12-09T10:14:46Z</time>
      </trkpt>
      <trkpt lat="43.90487" lon="5.1357">
        <ele>269.31</ele>
        <time>2019-12-09T10:15:04Z</time>
      </trkpt>
      <trkpt lat="43.90476" lon="5.13564">
        <ele>268.35</ele>
        <time>2019-12-09T10:15:21Z</time>
      </trkpt>
      <trkpt lat="43.90468" lon="5.13559">
        <ele>267.38</ele>
        <time>2019-12-09T10:15:36Z</time>
      </trkpt>
      <trkpt lat="43.90463" lon="5.13554">
        <ele>266.42</ele>
        <time>2019-12-09T10:15:50Z</time>
      </trkpt>
      <trkpt lat="43.90459" lon="5.1355">
        <ele>265.46</ele>
        <time>2019-12-09T10:16:02Z</time>
      </trkpt>
      <trkpt lat="43.90457" lon="5.13548">
        <ele>265.46</ele>
        <time>2019-12-09T10:16:19Z</time>
      </trkpt>
      <trkpt lat="43.90456" lon="5.13548">
        <ele>265.46</ele>
        <time>2019-12-09T10:16:34Z</time>
      </trkpt>
      <trkpt lat="43.90456" lon="5.13543">
        <ele>264.98</ele>
        <time>2019-12-09T10:16:49Z</time>
      </trkpt>
      <trkpt lat="43.9046" lon="5.13548">
        <ele>264.02</ele>
        <time>2019-12-09T10:17:01Z</time>
      </trkpt>
      <trkpt lat="43.90465" lon="5.13554">
        <ele>263.06</ele>
        <time>2019-12-09T10:17:14Z</time>
      </trkpt>
      <trkpt lat="43.90467" lon="5.1355">
        <ele>262.58</ele>
        <time>2019-12-09T10:17:28Z</time>
      </trkpt>
      <trkpt lat="43.90462" lon="5.13544">
        <ele>261.14</ele>
        <time>2019-12-09T10:17:43Z</time>
      </trkpt>
      <trkpt lat="43.90458" lon="5.13537">
        <ele>260.65</ele>
        <time>2019-12-09T10:17:56Z</time>
      </trkpt>
      <trkpt lat="43.90452" lon="5.13525">
        <ele>259.69</ele>
        <time>2019-12-09T10:18:10Z</time>
      </trkpt>
      <trkpt lat="43.90446" lon="5.13513">
        <ele>258.25</ele>
        <time>2019-12-09T10:18:28Z</time>
      </trkpt>
      <trkpt lat="43.90448" lon="5.13513">
        <ele>258.25</ele>
        <time>2019-12-09T10:18:45Z</time>
      </trkpt>
      <trkpt lat="43.90447" lon="5.1351">
        <ele>258.25</ele>
        <time>2019-12-09T10:18:54Z</time>
      </trkpt>
      <trkpt lat="43.90442" lon="5.13505">
        <ele>258.25</ele>
        <time>2019-12-09T10:19:07Z</time>
      </trkpt>
      <trkpt lat="43.90436" lon="5.13494">
        <ele>257.29</ele>
        <time>2019-12-09T10:19:22Z</time>
      </trkpt>
      <trkpt lat="43.90435" lon="5.13483">
        <ele>255.85</ele>
        <time>2019-12-09T10:19:37Z</time>
      </trkpt>
      <trkpt lat="43.90437" lon="5.13467">
        <ele>254.41</ele>
        <time>2019-12-09T10:19:52Z</time>
      </trkpt>
      <trkpt lat="43.90436" lon="5.13449">
        <ele>253.44</ele>
        <time>2019-12-09T10:20:09Z</time>
      </trkpt>
      <trkpt lat="43.9043" lon="5.13434">
        <ele>252</ele>
        <time>2019-12-09T10:20:26Z</time>
      </trkpt>
      <trkpt lat="43.90431" lon="5.13422">
        <ele>250.56</ele>
        <time>2019-12-09T10:20:40Z</time>
      </trkpt>
      <trkpt lat="43.90431" lon="5.13421">
        <ele>250.56</ele>
        <time>2019-12-09T10:20:42Z</time>
      </trkpt>
      <trkpt lat="43.90431" lon="5.13407">
        <ele>249.12</ele>
        <time>2019-12-09T10:20:56Z</time>
      </trkpt>
      <trkpt lat="43.90433" lon="5.13395">
        <ele>247.68</ele>
        <time>2019-12-09T10:21:09Z</time>
      </trkpt>
      <trkpt lat="43.90438" lon="5.13385">
        <ele>245.75</ele>
        <time>2019-12-09T10:21:23Z</time>
      </trkpt>
      <trkpt lat="43.90445" lon="5.13371">
        <ele>244.31</ele>
        <time>2019-12-09T10:21:38Z</time>
      </trkpt>
      <trkpt lat="43.90449" lon="5.13353">
        <ele>242.87</ele>
        <time>2019-12-09T10:21:56Z</time>
      </trkpt>
      <trkpt lat="43.90456" lon="5.1334">
        <ele>240.95</ele>
        <time>2019-12-09T10:22:12Z</time>
      </trkpt>
      <trkpt lat="43.90462" lon="5.1333">
        <ele>239.51</ele>
        <time>2019-12-09T10:22:25Z</time>
      </trkpt>
      <trkpt lat="43.90468" lon="5.13323">
        <ele>238.54</ele>
        <time>2019-12-09T10:22:39Z</time>
      </trkpt>
      <trkpt lat="43.90475" lon="5.13318">
        <ele>237.1</ele>
        <time>2019-12-09T10:22:52Z</time>
      </trkpt>
      <trkpt lat="43.90481" lon="5.1331">
        <ele>235.66</ele>
        <time>2019-12-09T10:23:05Z</time>
      </trkpt>
      <trkpt lat="43.90487" lon="5.13297">
        <ele>233.74</ele>
        <time>2019-12-09T10:23:20Z</time>
      </trkpt>
      <trkpt lat="43.90493" lon="5.13285">
        <ele>232.3</ele>
        <time>2019-12-09T10:23:38Z</time>
      </trkpt>
      <trkpt lat="43.90499" lon="5.13273">
        <ele>230.37</ele>
        <time>2019-12-09T10:23:53Z</time>
      </trkpt>
      <trkpt lat="43.90507" lon="5.13264">
        <ele>229.41</ele>
        <time>2019-12-09T10:24:06Z</time>
      </trkpt>
      <trkpt lat="43.90516" lon="5.13251">
        <ele>227.97</ele>
        <time>2019-12-09T10:24:22Z</time>
      </trkpt>
      <trkpt lat="43.90517" lon="5.13246">
        <ele>227.49</ele>
        <time>2019-12-09T10:24:38Z</time>
      </trkpt>
      <trkpt lat="43.90518" lon="5.13246">
        <ele>227.49</ele>
        <time>2019-12-09T10:25:04Z</time>
      </trkpt>
      <trkpt lat="43.9052" lon="5.13241">
        <ele>227.01</ele>
        <time>2019-12-09T10:25:31Z</time>
      </trkpt>
      <trkpt lat="43.90523" lon="5.13228">
        <ele>225.57</ele>
        <time>2019-12-09T10:25:45Z</time>
      </trkpt>
      <trkpt lat="43.90532" lon="5.13213">
        <ele>224.12</ele>
        <time>2019-12-09T10:26:03Z</time>
      </trkpt>
      <trkpt lat="43.9054" lon="5.13197">
        <ele>222.68</ele>
        <time>2019-12-09T10:26:19Z</time>
      </trkpt>
      <trkpt lat="43.90544" lon="5.13181">
        <ele>222.2</ele>
        <time>2019-12-09T10:26:33Z</time>
      </trkpt>
      <trkpt lat="43.90552" lon="5.13173">
        <ele>220.76</ele>
        <time>2019-12-09T10:26:49Z</time>
      </trkpt>
      <trkpt lat="43.90557" lon="5.13169">
        <ele>218.84</ele>
        <time>2019-12-09T10:27:05Z</time>
      </trkpt>
      <trkpt lat="43.90563" lon="5.13161">
        <ele>217.88</ele>
        <time>2019-12-09T10:27:19Z</time>
      </trkpt>
      <trkpt lat="43.90567" lon="5.13152">
        <ele>216.43</ele>
        <time>2019-12-09T10:27:31Z</time>
      </trkpt>
      <trkpt lat="43.90573" lon="5.13144">
        <ele>214.51</ele>
        <time>2019-12-09T10:27:46Z</time>
      </trkpt>
      <trkpt lat="43.90579" lon="5.13128">
        <ele>213.07</ele>
        <time>2019-12-09T10:28:02Z</time>
      </trkpt>
      <trkpt lat="43.90581" lon="5.13115">
        <ele>212.11</ele>
        <time>2019-12-09T10:28:17Z</time>
      </trkpt>
      <trkpt lat="43.90588" lon="5.13103">
        <ele>210.19</ele>
        <time>2019-12-09T10:28:33Z</time>
      </trkpt>
      <trkpt lat="43.90593" lon="5.13088">
        <ele>208.74</ele>
        <time>2019-12-09T10:28:49Z</time>
      </trkpt>
      <trkpt lat="43.90597" lon="5.13077">
        <ele>207.3</ele>
        <time>2019-12-09T10:29:04Z</time>
      </trkpt>
      <trkpt lat="43.90602" lon="5.13071">
        <ele>205.86</ele>
        <time>2019-12-09T10:29:18Z</time>
      </trkpt>
      <trkpt lat="43.9061" lon="5.1306">
        <ele>204.42</ele>
        <time>2019-12-09T10:29:34Z</time>
      </trkpt>
      <trkpt lat="43.90616" lon="5.1305">
        <ele>202.49</ele>
        <time>2019-12-09T10:29:50Z</time>
      </trkpt>
      <trkpt lat="43.90623" lon="5.1304">
        <ele>200.57</ele>
        <time>2019-12-09T10:30:05Z</time>
      </trkpt>
      <trkpt lat="43.90627" lon="5.13026">
        <ele>199.13</ele>
        <time>2019-12-09T10:30:20Z</time>
      </trkpt>
      <trkpt lat="43.90635" lon="5.13013">
        <ele>197.21</ele>
        <time>2019-12-09T10:30:37Z</time>
      </trkpt>
      <trkpt lat="43.90642" lon="5.13007">
        <ele>195.77</ele>
        <time>2019-12-09T10:30:50Z</time>
      </trkpt>
      <trkpt lat="43.9065" lon="5.12996">
        <ele>194.32</ele>
        <time>2019-12-09T10:31:05Z</time>
      </trkpt>
      <trkpt lat="43.90659" lon="5.12985">
        <ele>192.88</ele>
        <time>2019-12-09T10:31:20Z</time>
      </trkpt>
      <trkpt lat="43.90665" lon="5.12973">
        <ele>191.44</ele>
        <time>2019-12-09T10:31:35Z</time>
      </trkpt>
      <trkpt lat="43.90669" lon="5.12961">
        <ele>190</ele>
        <time>2019-12-09T10:31:49Z</time>
      </trkpt>
      <trkpt lat="43.90669" lon="5.12948">
        <ele>188.56</ele>
        <time>2019-12-09T10:32:04Z</time>
      </trkpt>
      <trkpt lat="43.90671" lon="5.12935">
        <ele>187.11</ele>
        <time>2019-12-09T10:32:18Z</time>
      </trkpt>
      <trkpt lat="43.90674" lon="5.12925">
        <ele>185.67</ele>
        <time>2019-12-09T10:32:32Z</time>
      </trkpt>
      <trkpt lat="43.90675" lon="5.12915">
        <ele>184.23</ele>
        <time>2019-12-09T10:32:45Z</time>
      </trkpt>
      <trkpt lat="43.90676" lon="5.12905">
        <ele>183.27</ele>
        <time>2019-12-09T10:32:58Z</time>
      </trkpt>
      <trkpt lat="43.90676" lon="5.12893">
        <ele>181.83</ele>
        <time>2019-12-09T10:33:12Z</time>
      </trkpt>
      <trkpt lat="43.90675" lon="5.12884">
        <ele>180.38</ele>
        <time>2019-12-09T10:33:23Z</time>
      </trkpt>
      <trkpt lat="43.90676" lon="5.12871">
        <ele>178.94</ele>
        <time>2019-12-09T10:33:36Z</time>
      </trkpt>
      <trkpt lat="43.90679" lon="5.1285">
        <ele>177.5</ele>
        <time>2019-12-09T10:33:52Z</time>
      </trkpt>
      <trkpt lat="43.90684" lon="5.12836">
        <ele>176.06</ele>
        <time>2019-12-09T10:34:07Z</time>
      </trkpt>
      <trkpt lat="43.90695" lon="5.1283">
        <ele>174.62</ele>
        <time>2019-12-09T10:34:25Z</time>
      </trkpt>
      <trkpt lat="43.90705" lon="5.12834">
        <ele>173.66</ele>
        <time>2019-12-09T10:34:40Z</time>
      </trkpt>
      <trkpt lat="43.90708" lon="5.12829">
        <ele>173.66</ele>
        <time>2019-12-09T10:34:53Z</time>
      </trkpt>
      <trkpt lat="43.90708" lon="5.1283">
        <ele>173.66</ele>
        <time>2019-12-09T10:35:15Z</time>
      </trkpt>
      <trkpt lat="43.90708" lon="5.12831">
        <ele>173.66</ele>
        <time>2019-12-09T10:35:39Z</time>
      </trkpt>
      <trkpt lat="43.90705" lon="5.12832">
        <ele>173.66</ele>
        <time>2019-12-09T10:36:07Z</time>
      </trkpt>
      <trkpt lat="43.90706" lon="5.12833">
        <ele>173.66</ele>
        <time>2019-12-09T10:36:41Z</time>
      </trkpt>
      <trkpt lat="43.90711" lon="5.12826">
        <ele>173.66</ele>
        <time>2019-12-09T10:37:00Z</time>
      </trkpt>
      <trkpt lat="43.90718" lon="5.12826">
        <ele>172.69</ele>
        <time>2019-12-09T10:37:13Z</time>
      </trkpt>
      <trkpt lat="43.90726" lon="5.1283">
        <ele>171.25</ele>
        <time>2019-12-09T10:37:28Z</time>
      </trkpt>
      <trkpt lat="43.90731" lon="5.1283">
        <ele>170.29</ele>
        <time>2019-12-09T10:37:44Z</time>
      </trkpt>
      <trkpt lat="43.90732" lon="5.12832">
        <ele>169.81</ele>
        <time>2019-12-09T10:38:08Z</time>
      </trkpt>
      <trkpt lat="43.90739" lon="5.12824">
        <ele>171.25</ele>
        <time>2019-12-09T10:38:27Z</time>
      </trkpt>
      <trkpt lat="43.90745" lon="5.12812">
        <ele>171.25</ele>
        <time>2019-12-09T10:38:42Z</time>
      </trkpt>
      <trkpt lat="43.9075" lon="5.128">
        <ele>170.29</ele>
        <time>2019-12-09T10:38:57Z</time>
      </trkpt>
      <trkpt lat="43.90757" lon="5.1279">
        <ele>168.85</ele>
        <time>2019-12-09T10:39:12Z</time>
      </trkpt>
      <trkpt lat="43.90762" lon="5.12784">
        <ele>166.93</ele>
        <time>2019-12-09T10:39:28Z</time>
      </trkpt>
      <trkpt lat="43.9077" lon="5.12773">
        <ele>165</ele>
        <time>2019-12-09T10:39:45Z</time>
      </trkpt>
      <trkpt lat="43.9078" lon="5.12761">
        <ele>164.52</ele>
        <time>2019-12-09T10:40:02Z</time>
      </trkpt>
      <trkpt lat="43.90786" lon="5.12753">
        <ele>162.12</ele>
        <time>2019-12-09T10:40:17Z</time>
      </trkpt>
      <trkpt lat="43.90795" lon="5.12749">
        <ele>160.2</ele>
        <time>2019-12-09T10:40:33Z</time>
      </trkpt>
      <trkpt lat="43.90805" lon="5.12741">
        <ele>158.75</ele>
        <time>2019-12-09T10:40:50Z</time>
      </trkpt>
      <trkpt lat="43.90813" lon="5.12734">
        <ele>157.31</ele>
        <time>2019-12-09T10:41:02Z</time>
      </trkpt>
      <trkpt lat="43.9082" lon="5.12727">
        <ele>156.83</ele>
        <time>2019-12-09T10:41:16Z</time>
      </trkpt>
      <trkpt lat="43.90826" lon="5.12725">
        <ele>156.35</ele>
        <time>2019-12-09T10:41:32Z</time>
      </trkpt>
      <trkpt lat="43.90827" lon="5.12726">
        <ele>156.35</ele>
        <time>2019-12-09T10:41:47Z</time>
      </trkpt>
      <trkpt lat="43.9083" lon="5.1273">
        <ele>156.35</ele>
        <time>2019-12-09T10:42:04Z</time>
      </trkpt>
      <trkpt lat="43.9083" lon="5.12732">
        <ele>156.35</ele>
        <time>2019-12-09T10:42:25Z</time>
      </trkpt>
      <trkpt lat="43.90827" lon="5.12733">
        <ele>156.35</ele>
        <time>2019-12-09T10:42:52Z</time>
      </trkpt>
      <trkpt lat="43.90824" lon="5.12733">
        <ele>156.35</ele>
        <time>2019-12-09T10:43:12Z</time>
      </trkpt>
      <trkpt lat="43.90827" lon="5.12725">
        <ele>155.87</ele>
        <time>2019-12-09T10:43:34Z</time>
      </trkpt>
      <trkpt lat="43.90841" lon="5.12731">
        <ele>155.87</ele>
        <time>2019-12-09T10:43:48Z</time>
      </trkpt>
      <trkpt lat="43.90855" lon="5.12732">
        <ele>155.87</ele>
        <time>2019-12-09T10:44:04Z</time>
      </trkpt>
      <trkpt lat="43.9087" lon="5.12729">
        <ele>155.39</ele>
        <time>2019-12-09T10:44:19Z</time>
      </trkpt>
      <trkpt lat="43.90882" lon="5.12735">
        <ele>154.91</ele>
        <time>2019-12-09T10:44:37Z</time>
      </trkpt>
      <trkpt lat="43.90899" lon="5.12736">
        <ele>153.47</ele>
        <time>2019-12-09T10:44:55Z</time>
      </trkpt>
      <trkpt lat="43.90901" lon="5.12736">
        <ele>153.47</ele>
        <time>2019-12-09T10:44:57Z</time>
      </trkpt>
      <trkpt lat="43.90916" lon="5.12744">
        <ele>153.47</ele>
        <time>2019-12-09T10:45:16Z</time>
      </trkpt>
      <trkpt lat="43.9093" lon="5.12749">
        <ele>152.51</ele>
        <time>2019-12-09T10:45:30Z</time>
      </trkpt>
      <trkpt lat="43.90949" lon="5.12757">
        <ele>152.51</ele>
        <time>2019-12-09T10:45:50Z</time>
      </trkpt>
      <trkpt lat="43.90967" lon="5.12769">
        <ele>152.03</ele>
        <time>2019-12-09T10:46:09Z</time>
      </trkpt>
      <trkpt lat="43.9097" lon="5.12769">
        <ele>151.54</ele>
        <time>2019-12-09T10:46:12Z</time>
      </trkpt>
      <trkpt lat="43.90986" lon="5.1277">
        <ele>150.58</ele>
        <time>2019-12-09T10:46:28Z</time>
      </trkpt>
      <trkpt lat="43.91001" lon="5.12775">
        <ele>149.14</ele>
        <time>2019-12-09T10:46:45Z</time>
      </trkpt>
      <trkpt lat="43.91015" lon="5.12774">
        <ele>149.14</ele>
        <time>2019-12-09T10:47:02Z</time>
      </trkpt>
      <trkpt lat="43.91018" lon="5.12766">
        <ele>148.18</ele>
        <time>2019-12-09T10:47:17Z</time>
      </trkpt>
      <trkpt lat="43.91019" lon="5.12761">
        <ele>146.26</ele>
        <time>2019-12-09T10:47:32Z</time>
      </trkpt>
      <trkpt lat="43.91022" lon="5.12756">
        <ele>144.34</ele>
        <time>2019-12-09T10:47:49Z</time>
      </trkpt>
      <trkpt lat="43.91025" lon="5.12753">
        <ele>143.37</ele>
        <time>2019-12-09T10:48:05Z</time>
      </trkpt>
      <trkpt lat="43.91029" lon="5.1275">
        <ele>140.97</ele>
        <time>2019-12-09T10:48:20Z</time>
      </trkpt>
      <trkpt lat="43.91037" lon="5.12744">
        <ele>139.53</ele>
        <time>2019-12-09T10:48:35Z</time>
      </trkpt>
      <trkpt lat="43.91048" lon="5.12743">
        <ele>137.61</ele>
        <time>2019-12-09T10:48:53Z</time>
      </trkpt>
      <trkpt lat="43.91062" lon="5.12742">
        <ele>137.61</ele>
        <time>2019-12-09T10:49:08Z</time>
      </trkpt>
      <trkpt lat="43.91069" lon="5.12746">
        <ele>137.61</ele>
        <time>2019-12-09T10:49:28Z</time>
      </trkpt>
      <trkpt lat="43.91084" lon="5.12747">
        <ele>137.13</ele>
        <time>2019-12-09T10:49:44Z</time>
      </trkpt>
      <trkpt lat="43.91098" lon="5.12749">
        <ele>137.13</ele>
        <time>2019-12-09T10:49:58Z</time>
      </trkpt>
      <trkpt lat="43.91108" lon="5.12754">
        <ele>137.13</ele>
        <time>2019-12-09T10:50:14Z</time>
      </trkpt>
      <trkpt lat="43.91114" lon="5.12768">
        <ele>138.09</ele>
        <time>2019-12-09T10:50:29Z</time>
      </trkpt>
      <trkpt lat="43.91121" lon="5.12769">
        <ele>138.09</ele>
        <time>2019-12-09T10:50:41Z</time>
      </trkpt>
      <trkpt lat="43.91136" lon="5.12772">
        <ele>136.16</ele>
        <time>2019-12-09T10:50:57Z</time>
      </trkpt>
      <trkpt lat="43.91153" lon="5.12775">
        <ele>133.76</ele>
        <time>2019-12-09T10:51:15Z</time>
      </trkpt>
      <trkpt lat="43.91167" lon="5.12779">
        <ele>132.32</ele>
        <time>2019-12-09T10:51:32Z</time>
      </trkpt>
      <trkpt lat="43.91184" lon="5.12783">
        <ele>130.4</ele>
        <time>2019-12-09T10:51:51Z</time>
      </trkpt>
      <trkpt lat="43.91203" lon="5.12786">
        <ele>127.99</ele>
        <time>2019-12-09T10:52:06Z</time>
      </trkpt>
      <trkpt lat="43.91218" lon="5.12786">
        <ele>126.55</ele>
        <time>2019-12-09T10:52:25Z</time>
      </trkpt>
      <trkpt lat="43.91226" lon="5.1279">
        <ele>125.59</ele>
        <time>2019-12-09T10:52:41Z</time>
      </trkpt>
      <trkpt lat="43.91243" lon="5.12797">
        <ele>123.67</ele>
        <time>2019-12-09T10:52:59Z</time>
      </trkpt>
      <trkpt lat="43.91259" lon="5.12802">
        <ele>123.19</ele>
        <time>2019-12-09T10:53:16Z</time>
      </trkpt>
      <trkpt lat="43.91279" lon="5.12804">
        <ele>122.22</ele>
        <time>2019-12-09T10:53:35Z</time>
      </trkpt>
      <trkpt lat="43.91291" lon="5.12804">
        <ele>120.3</ele>
        <time>2019-12-09T10:53:51Z</time>
      </trkpt>
      <trkpt lat="43.91303" lon="5.12802">
        <ele>118.86</ele>
        <time>2019-12-09T10:54:06Z</time>
      </trkpt>
      <trkpt lat="43.91317" lon="5.12799">
        <ele>117.42</ele>
        <time>2019-12-09T10:54:22Z</time>
      </trkpt>
      <trkpt lat="43.91331" lon="5.12799">
        <ele>116.46</ele>
        <time>2019-12-09T10:54:40Z</time>
      </trkpt>
      <trkpt lat="43.91349" lon="5.12795">
        <ele>115.01</ele>
        <time>2019-12-09T10:55:00Z</time>
      </trkpt>
      <trkpt lat="43.91359" lon="5.12793">
        <ele>114.53</ele>
        <time>2019-12-09T10:55:11Z</time>
      </trkpt>
      <trkpt lat="43.91363" lon="5.12785">
        <ele>114.05</ele>
        <time>2019-12-09T10:55:25Z</time>
      </trkpt>
      <trkpt lat="43.91378" lon="5.12774">
        <ele>113.09</ele>
        <time>2019-12-09T10:55:43Z</time>
      </trkpt>
      <trkpt lat="43.91382" lon="5.12772">
        <ele>112.61</ele>
        <time>2019-12-09T10:56:01Z</time>
      </trkpt>
      <trkpt lat="43.91385" lon="5.12768">
        <ele>112.61</ele>
        <time>2019-12-09T10:56:25Z</time>
      </trkpt>
      <trkpt lat="43.91387" lon="5.12767">
        <ele>112.61</ele>
        <time>2019-12-09T10:56:27Z</time>
      </trkpt>
      <trkpt lat="43.91404" lon="5.12755">
        <ele>111.17</ele>
        <time>2019-12-09T10:56:46Z</time>
      </trkpt>
      <trkpt lat="43.91422" lon="5.12742">
        <ele>110.69</ele>
        <time>2019-12-09T10:57:07Z</time>
      </trkpt>
      <trkpt lat="43.9144" lon="5.12728">
        <ele>110.21</ele>
        <time>2019-12-09T10:57:27Z</time>
      </trkpt>
      <trkpt lat="43.91457" lon="5.12713">
        <ele>109.73</ele>
        <time>2019-12-09T10:57:47Z</time>
      </trkpt>
      <trkpt lat="43.91468" lon="5.12704">
        <ele>109.25</ele>
        <time>2019-12-09T10:58:02Z</time>
      </trkpt>
      <trkpt lat="43.91477" lon="5.12701">
        <ele>109.25</ele>
        <time>2019-12-09T10:58:10Z</time>
      </trkpt>
      <trkpt lat="43.91492" lon="5.12705">
        <ele>108.77</ele>
        <time>2019-12-09T10:58:27Z</time>
      </trkpt>
      <trkpt lat="43.91507" lon="5.12709">
        <ele>107.81</ele>
        <time>2019-12-09T10:58:45Z</time>
      </trkpt>
      <trkpt lat="43.91524" lon="5.12716">
        <ele>106.84</ele>
        <time>2019-12-09T10:59:04Z</time>
      </trkpt>
      <trkpt lat="43.91542" lon="5.12716">
        <ele>106.84</ele>
        <time>2019-12-09T10:59:21Z</time>
      </trkpt>
      <trkpt lat="43.91565" lon="5.12714">
        <ele>105.88</ele>
        <time>2019-12-09T10:59:42Z</time>
      </trkpt>
      <trkpt lat="43.91582" lon="5.1271">
        <ele>105.4</ele>
        <time>2019-12-09T10:59:58Z</time>
      </trkpt>
      <trkpt lat="43.91599" lon="5.12704">
        <ele>105.4</ele>
        <time>2019-12-09T11:00:16Z</time>
      </trkpt>
      <trkpt lat="43.91619" lon="5.127">
        <ele>104.44</ele>
        <time>2019-12-09T11:00:36Z</time>
      </trkpt>
      <trkpt lat="43.91633" lon="5.12698">
        <ele>103.48</ele>
        <time>2019-12-09T11:00:49Z</time>
      </trkpt>
      <trkpt lat="43.91645" lon="5.12698">
        <ele>103</ele>
        <time>2019-12-09T11:01:03Z</time>
      </trkpt>
      <trkpt lat="43.91659" lon="5.12696">
        <ele>102.04</ele>
        <time>2019-12-09T11:01:20Z</time>
      </trkpt>
      <trkpt lat="43.91674" lon="5.12693">
        <ele>101.56</ele>
        <time>2019-12-09T11:01:37Z</time>
      </trkpt>
      <trkpt lat="43.91692" lon="5.1269">
        <ele>101.08</ele>
        <time>2019-12-09T11:01:54Z</time>
      </trkpt>
      <trkpt lat="43.91714" lon="5.12687">
        <ele>100.6</ele>
        <time>2019-12-09T11:02:14Z</time>
      </trkpt>
      <trkpt lat="43.91733" lon="5.12685">
        <ele>99.63</ele>
        <time>2019-12-09T11:02:31Z</time>
      </trkpt>
      <trkpt lat="43.91753" lon="5.12681">
        <ele>99.15</ele>
        <time>2019-12-09T11:02:48Z</time>
      </trkpt>
      <trkpt lat="43.91768" lon="5.12678">
        <ele>98.19</ele>
        <time>2019-12-09T11:03:03Z</time>
      </trkpt>
      <trkpt lat="43.91779" lon="5.12676">
        <ele>98.19</ele>
        <time>2019-12-09T11:03:14Z</time>
      </trkpt>
      <trkpt lat="43.91782" lon="5.12676">
        <ele>97.71</ele>
        <time>2019-12-09T11:03:17Z</time>
      </trkpt>
      <trkpt lat="43.91786" lon="5.12674">
        <ele>97.71</ele>
        <time>2019-12-09T11:03:21Z</time>
      </trkpt>
      <trkpt lat="43.91809" lon="5.12671">
        <ele>96.27</ele>
        <time>2019-12-09T11:03:41Z</time>
      </trkpt>
      <trkpt lat="43.91829" lon="5.12664">
        <ele>94.83</ele>
        <time>2019-12-09T11:04:01Z</time>
      </trkpt>
      <trkpt lat="43.91853" lon="5.12662">
        <ele>93.87</ele>
        <time>2019-12-09T11:04:23Z</time>
      </trkpt>
      <trkpt lat="43.91869" lon="5.12669">
        <ele>92.42</ele>
        <time>2019-12-09T11:04:43Z</time>
      </trkpt>
      <trkpt lat="43.91879" lon="5.12681">
        <ele>90.98</ele>
        <time>2019-12-09T11:05:01Z</time>
      </trkpt>
      <trkpt lat="43.91891" lon="5.12688">
        <ele>89.06</ele>
        <time>2019-12-09T11:05:20Z</time>
      </trkpt>
      <trkpt lat="43.91897" lon="5.12695">
        <ele>87.62</ele>
        <time>2019-12-09T11:05:41Z</time>
      </trkpt>
      <trkpt lat="43.91907" lon="5.12701">
        <ele>86.18</ele>
        <time>2019-12-09T11:05:56Z</time>
      </trkpt>
      <trkpt lat="43.91919" lon="5.12713">
        <ele>84.25</ele>
        <time>2019-12-09T11:06:15Z</time>
      </trkpt>
      <trkpt lat="43.91931" lon="5.12727">
        <ele>82.33</ele>
        <time>2019-12-09T11:06:35Z</time>
      </trkpt>
      <trkpt lat="43.91935" lon="5.12732">
        <ele>81.85</ele>
        <time>2019-12-09T11:06:52Z</time>
      </trkpt>
      <trkpt lat="43.91945" lon="5.12744">
        <ele>80.41</ele>
        <time>2019-12-09T11:07:11Z</time>
      </trkpt>
      <trkpt lat="43.91954" lon="5.12753">
        <ele>79.45</ele>
        <time>2019-12-09T11:07:27Z</time>
      </trkpt>
      <trkpt lat="43.91963" lon="5.12761">
        <ele>78</ele>
        <time>2019-12-09T11:07:43Z</time>
      </trkpt>
      <trkpt lat="43.91966" lon="5.12763">
        <ele>78</ele>
        <time>2019-12-09T11:07:47Z</time>
      </trkpt>
      <trkpt lat="43.91981" lon="5.12773">
        <ele>77.52</ele>
        <time>2019-12-09T11:08:04Z</time>
      </trkpt>
      <trkpt lat="43.91996" lon="5.12785">
        <ele>77.52</ele>
        <time>2019-12-09T11:08:23Z</time>
      </trkpt>
      <trkpt lat="43.92011" lon="5.12789">
        <ele>77.52</ele>
        <time>2019-12-09T11:08:40Z</time>
      </trkpt>
      <trkpt lat="43.92027" lon="5.12794">
        <ele>79.45</ele>
        <time>2019-12-09T11:08:57Z</time>
      </trkpt>
      <trkpt lat="43.92043" lon="5.12801">
        <ele>79.93</ele>
        <time>2019-12-09T11:09:16Z</time>
      </trkpt>
      <trkpt lat="43.92056" lon="5.12804">
        <ele>79.93</ele>
        <time>2019-12-09T11:09:33Z</time>
      </trkpt>
      <trkpt lat="43.92072" lon="5.1281">
        <ele>79.93</ele>
        <time>2019-12-09T11:09:51Z</time>
      </trkpt>
      <trkpt lat="43.92087" lon="5.12819">
        <ele>79.93</ele>
        <time>2019-12-09T11:10:08Z</time>
      </trkpt>
      <trkpt lat="43.92105" lon="5.12822">
        <ele>79.93</ele>
        <time>2019-12-09T11:10:26Z</time>
      </trkpt>
      <trkpt lat="43.92118" lon="5.12831">
        <ele>79.93</ele>
        <time>2019-12-09T11:10:41Z</time>
      </trkpt>
      <trkpt lat="43.92129" lon="5.12837">
        <ele>79.93</ele>
        <time>2019-12-09T11:10:53Z</time>
      </trkpt>
      <trkpt lat="43.92147" lon="5.12837">
        <ele>79.93</ele>
        <time>2019-12-09T11:11:11Z</time>
      </trkpt>
      <trkpt lat="43.9216" lon="5.12841">
        <ele>79.93</ele>
        <time>2019-12-09T11:11:26Z</time>
      </trkpt>
      <trkpt lat="43.92174" lon="5.12842">
        <ele>79.93</ele>
        <time>2019-12-09T11:11:40Z</time>
      </trkpt>
      <trkpt lat="43.92178" lon="5.1284">
        <ele>79.93</ele>
        <time>2019-12-09T11:11:44Z</time>
      </trkpt>
      <trkpt lat="43.92194" lon="5.12814">
        <ele>79.93</ele>
        <time>2019-12-09T11:12:02Z</time>
      </trkpt>
      <trkpt lat="43.92199" lon="5.12806">
        <ele>79.93</ele>
        <time>2019-12-09T11:12:17Z</time>
      </trkpt>
      <trkpt lat="43.92199" lon="5.12806">
        <ele>79.45</ele>
        <time>2019-12-09T11:12:35Z</time>
      </trkpt>
      <trkpt lat="43.92193" lon="5.12789">
        <ele>79.45</ele>
        <time>2019-12-09T11:12:55Z</time>
      </trkpt>
      <trkpt lat="43.92193" lon="5.1278">
        <ele>79.45</ele>
        <time>2019-12-09T11:13:11Z</time>
      </trkpt>
      <trkpt lat="43.92198" lon="5.12764">
        <ele>79.45</ele>
        <time>2019-12-09T11:13:28Z</time>
      </trkpt>
      <trkpt lat="43.92212" lon="5.12759">
        <ele>79.93</ele>
        <time>2019-12-09T11:13:44Z</time>
      </trkpt>
      <trkpt lat="43.92227" lon="5.12771">
        <ele>79.93</ele>
        <time>2019-12-09T11:14:03Z</time>
      </trkpt>
      <trkpt lat="43.92237" lon="5.1278">
        <ele>79.93</ele>
        <time>2019-12-09T11:14:13Z</time>
      </trkpt>
      <trkpt lat="43.9225" lon="5.12801">
        <ele>79.93</ele>
        <time>2019-12-09T11:14:31Z</time>
      </trkpt>
      <trkpt lat="43.92258" lon="5.12821">
        <ele>81.37</ele>
        <time>2019-12-09T11:14:47Z</time>
      </trkpt>
      <trkpt lat="43.92268" lon="5.12842">
        <ele>82.33</ele>
        <time>2019-12-09T11:15:04Z</time>
      </trkpt>
      <trkpt lat="43.92272" lon="5.12862">
        <ele>83.77</ele>
        <time>2019-12-09T11:15:20Z</time>
      </trkpt>
      <trkpt lat="43.92275" lon="5.12883">
        <ele>85.21</ele>
        <time>2019-12-09T11:15:36Z</time>
      </trkpt>
      <trkpt lat="43.92274" lon="5.12891">
        <ele>85.69</ele>
        <time>2019-12-09T11:15:42Z</time>
      </trkpt>
      <trkpt lat="43.9227" lon="5.12921">
        <ele>86.66</ele>
        <time>2019-12-09T11:16:03Z</time>
      </trkpt>
      <trkpt lat="43.92263" lon="5.12946">
        <ele>86.66</ele>
        <time>2019-12-09T11:16:19Z</time>
      </trkpt>
      <trkpt lat="43.92254" lon="5.12971">
        <ele>86.66</ele>
        <time>2019-12-09T11:16:39Z</time>
      </trkpt>
      <trkpt lat="43.92243" lon="5.12987">
        <ele>86.66</ele>
        <time>2019-12-09T11:16:57Z</time>
      </trkpt>
      <trkpt lat="43.9224" lon="5.1299">
        <ele>86.66</ele>
        <time>2019-12-09T11:17:01Z</time>
      </trkpt>
      <trkpt lat="43.92224" lon="5.13007">
        <ele>84.73</ele>
        <time>2019-12-09T11:17:22Z</time>
      </trkpt>
      <trkpt lat="43.92215" lon="5.13023">
        <ele>84.73</ele>
        <time>2019-12-09T11:17:39Z</time>
      </trkpt>
      <trkpt lat="43.92203" lon="5.13041">
        <ele>84.25</ele>
        <time>2019-12-09T11:17:56Z</time>
      </trkpt>
      <trkpt lat="43.92193" lon="5.13054">
        <ele>84.25</ele>
        <time>2019-12-09T11:18:11Z</time>
      </trkpt>
      <trkpt lat="43.92178" lon="5.13068">
        <ele>84.25</ele>
        <time>2019-12-09T11:18:30Z</time>
      </trkpt>
      <trkpt lat="43.9216" lon="5.13077">
        <ele>85.21</ele>
        <time>2019-12-09T11:18:45Z</time>
      </trkpt>
      <trkpt lat="43.92142" lon="5.13085">
        <ele>85.69</ele>
        <time>2019-12-09T11:19:00Z</time>
      </trkpt>
      <trkpt lat="43.92126" lon="5.13104">
        <ele>85.21</ele>
        <time>2019-12-09T11:19:20Z</time>
      </trkpt>
      <trkpt lat="43.92113" lon="5.13121">
        <ele>85.21</ele>
        <time>2019-12-09T11:19:38Z</time>
      </trkpt>
      <trkpt lat="43.92102" lon="5.13135">
        <ele>83.77</ele>
        <time>2019-12-09T11:19:54Z</time>
      </trkpt>
      <trkpt lat="43.92085" lon="5.13143">
        <ele>83.29</ele>
        <time>2019-12-09T11:20:12Z</time>
      </trkpt>
      <trkpt lat="43.92069" lon="5.13149">
        <ele>83.29</ele>
        <time>2019-12-09T11:20:31Z</time>
      </trkpt>
      <trkpt lat="43.92054" lon="5.13153">
        <ele>82.33</ele>
        <time>2019-12-09T11:20:47Z</time>
      </trkpt>
      <trkpt lat="43.9204" lon="5.1316">
        <ele>82.33</ele>
        <time>2019-12-09T11:21:03Z</time>
      </trkpt>
      <trkpt lat="43.92025" lon="5.13165">
        <ele>81.37</ele>
        <time>2019-12-09T11:21:19Z</time>
      </trkpt>
      <trkpt lat="43.92011" lon="5.1317">
        <ele>81.37</ele>
        <time>2019-12-09T11:21:35Z</time>
      </trkpt>
      <trkpt lat="43.91999" lon="5.13174">
        <ele>82.81</ele>
        <time>2019-12-09T11:21:50Z</time>
      </trkpt>
      <trkpt lat="43.91987" lon="5.13175">
        <ele>83.29</ele>
        <time>2019-12-09T11:22:07Z</time>
      </trkpt>
      <trkpt lat="43.91973" lon="5.13179">
        <ele>84.25</ele>
        <time>2019-12-09T11:22:24Z</time>
      </trkpt>
      <trkpt lat="43.91961" lon="5.13185">
        <ele>84.73</ele>
        <time>2019-12-09T11:22:40Z</time>
      </trkpt>
      <trkpt lat="43.91953" lon="5.13192">
        <ele>84.25</ele>
        <time>2019-12-09T11:22:55Z</time>
      </trkpt>
      <trkpt lat="43.91946" lon="5.13192">
        <ele>84.25</ele>
        <time>2019-12-09T11:23:12Z</time>
      </trkpt>
      <trkpt lat="43.91943" lon="5.1319">
        <ele>83.77</ele>
        <time>2019-12-09T11:23:42Z</time>
      </trkpt>
      <trkpt lat="43.91939" lon="5.13193">
        <ele>84.25</ele>
        <time>2019-12-09T11:23:56Z</time>
      </trkpt>
      <trkpt lat="43.91936" lon="5.13188">
        <ele>83.77</ele>
        <time>2019-12-09T11:24:23Z</time>
      </trkpt>
      <trkpt lat="43.91931" lon="5.13193">
        <ele>84.73</ele>
        <time>2019-12-09T11:24:36Z</time>
      </trkpt>
      <trkpt lat="43.9192" lon="5.13195">
        <ele>86.18</ele>
        <time>2019-12-09T11:24:49Z</time>
      </trkpt>
      <trkpt lat="43.91907" lon="5.132">
        <ele>88.1</ele>
        <time>2019-12-09T11:25:05Z</time>
      </trkpt>
      <trkpt lat="43.91894" lon="5.13207">
        <ele>89.54</ele>
        <time>2019-12-09T11:25:19Z</time>
      </trkpt>
      <trkpt lat="43.91882" lon="5.13216">
        <ele>91.46</ele>
        <time>2019-12-09T11:25:35Z</time>
      </trkpt>
      <trkpt lat="43.91869" lon="5.13226">
        <ele>93.39</ele>
        <time>2019-12-09T11:25:50Z</time>
      </trkpt>
      <trkpt lat="43.91853" lon="5.13241">
        <ele>95.79</ele>
        <time>2019-12-09T11:26:06Z</time>
      </trkpt>
      <trkpt lat="43.91846" lon="5.13249">
        <ele>97.23</ele>
        <time>2019-12-09T11:26:18Z</time>
      </trkpt>
      <trkpt lat="43.91847" lon="5.13243">
        <ele>96.75</ele>
        <time>2019-12-09T11:26:38Z</time>
      </trkpt>
      <trkpt lat="43.9185" lon="5.13241">
        <ele>96.75</ele>
        <time>2019-12-09T11:27:06Z</time>
      </trkpt>
      <trkpt lat="43.91851" lon="5.13246">
        <ele>97.23</ele>
        <time>2019-12-09T11:27:21Z</time>
      </trkpt>
      <trkpt lat="43.91847" lon="5.13249">
        <ele>97.71</ele>
        <time>2019-12-09T11:27:39Z</time>
      </trkpt>
      <trkpt lat="43.91841" lon="5.13262">
        <ele>98.19</ele>
        <time>2019-12-09T11:27:54Z</time>
      </trkpt>
      <trkpt lat="43.91837" lon="5.13269">
        <ele>98.67</ele>
        <time>2019-12-09T11:28:00Z</time>
      </trkpt>
      <trkpt lat="43.91815" lon="5.13253">
        <ele>100.11</ele>
        <time>2019-12-09T11:28:16Z</time>
      </trkpt>
      <trkpt lat="43.91805" lon="5.13231">
        <ele>101.08</ele>
        <time>2019-12-09T11:28:35Z</time>
      </trkpt>
      <trkpt lat="43.91808" lon="5.13219">
        <ele>101.08</ele>
        <time>2019-12-09T11:28:58Z</time>
      </trkpt>
      <trkpt lat="43.9181" lon="5.13229">
        <ele>101.08</ele>
        <time>2019-12-09T11:29:14Z</time>
      </trkpt>
      <trkpt lat="43.9181" lon="5.13241">
        <ele>101.08</ele>
        <time>2019-12-09T11:29:37Z</time>
      </trkpt>
      <trkpt lat="43.91811" lon="5.1326">
        <ele>101.56</ele>
        <time>2019-12-09T11:30:00Z</time>
      </trkpt>
      <trkpt lat="43.91813" lon="5.13267">
        <ele>102.52</ele>
        <time>2019-12-09T11:30:13Z</time>
      </trkpt>
      <trkpt lat="43.91813" lon="5.13266">
        <ele>103</ele>
        <time>2019-12-09T11:30:25Z</time>
      </trkpt>
      <trkpt lat="43.91803" lon="5.13269">
        <ele>103</ele>
        <time>2019-12-09T11:30:35Z</time>
      </trkpt>
      <trkpt lat="43.91798" lon="5.13267">
        <ele>103</ele>
        <time>2019-12-09T11:30:54Z</time>
      </trkpt>
      <trkpt lat="43.91801" lon="5.13264">
        <ele>103</ele>
        <time>2019-12-09T11:31:20Z</time>
      </trkpt>
      <trkpt lat="43.91797" lon="5.13262">
        <ele>103</ele>
        <time>2019-12-09T11:31:36Z</time>
      </trkpt>
      <trkpt lat="43.91797" lon="5.13258">
        <ele>103</ele>
        <time>2019-12-09T11:31:49Z</time>
      </trkpt>
      <trkpt lat="43.91796" lon="5.13264">
        <ele>103</ele>
        <time>2019-12-09T11:32:10Z</time>
      </trkpt>
      <trkpt lat="43.91796" lon="5.13265">
        <ele>103</ele>
        <time>2019-12-09T11:32:27Z</time>
      </trkpt>
      <trkpt lat="43.91794" lon="5.13263">
        <ele>103</ele>
        <time>2019-12-09T11:32:42Z</time>
      </trkpt>
      <trkpt lat="43.91793" lon="5.13275">
        <ele>103</ele>
        <time>2019-12-09T11:32:58Z</time>
      </trkpt>
      <trkpt lat="43.91806" lon="5.13274">
        <ele>103.48</ele>
        <time>2019-12-09T11:33:23Z</time>
      </trkpt>
      <trkpt lat="43.91808" lon="5.13269">
        <ele>103.48</ele>
        <time>2019-12-09T11:33:50Z</time>
      </trkpt>
      <trkpt lat="43.91807" lon="5.13268">
        <ele>103.48</ele>
        <time>2019-12-09T11:34:07Z</time>
      </trkpt>
      <trkpt lat="43.91807" lon="5.13269">
        <ele>103.48</ele>
        <time>2019-12-09T11:34:20Z</time>
      </trkpt>
      <trkpt lat="43.91816" lon="5.13263">
        <ele>102.52</ele>
        <time>2019-12-09T11:34:37Z</time>
      </trkpt>
      <trkpt lat="43.91818" lon="5.13257">
        <ele>102.52</ele>
        <time>2019-12-09T11:34:55Z</time>
      </trkpt>
      <trkpt lat="43.91823" lon="5.13255">
        <ele>101.56</ele>
        <time>2019-12-09T11:35:09Z</time>
      </trkpt>
      <trkpt lat="43.91829" lon="5.13254">
        <ele>100.6</ele>
        <time>2019-12-09T11:35:21Z</time>
      </trkpt>
      <trkpt lat="43.91837" lon="5.13257">
        <ele>99.63</ele>
        <time>2019-12-09T11:35:33Z</time>
      </trkpt>
      <trkpt lat="43.91843" lon="5.13235">
        <ele>99.15</ele>
        <time>2019-12-09T11:35:47Z</time>
      </trkpt>
      <trkpt lat="43.91844" lon="5.13228">
        <ele>98.67</ele>
        <time>2019-12-09T11:36:02Z</time>
      </trkpt>
      <trkpt lat="43.9185" lon="5.13227">
        <ele>98.19</ele>
        <time>2019-12-09T11:36:18Z</time>
      </trkpt>
      <trkpt lat="43.91856" lon="5.13224">
        <ele>97.23</ele>
        <time>2019-12-09T11:36:32Z</time>
      </trkpt>
      <trkpt lat="43.9186" lon="5.13229">
        <ele>96.27</ele>
        <time>2019-12-09T11:36:47Z</time>
      </trkpt>
      <trkpt lat="43.91867" lon="5.13226">
        <ele>94.83</ele>
        <time>2019-12-09T11:36:58Z</time>
      </trkpt>
      <trkpt lat="43.9187" lon="5.13212">
        <ele>92.9</ele>
        <time>2019-12-09T11:37:14Z</time>
      </trkpt>
      <trkpt lat="43.91877" lon="5.13208">
        <ele>92.42</ele>
        <time>2019-12-09T11:37:30Z</time>
      </trkpt>
      <trkpt lat="43.91886" lon="5.13202">
        <ele>90.5</ele>
        <time>2019-12-09T11:37:47Z</time>
      </trkpt>
      <trkpt lat="43.91894" lon="5.13199">
        <ele>89.06</ele>
        <time>2019-12-09T11:38:02Z</time>
      </trkpt>
      <trkpt lat="43.91901" lon="5.13195">
        <ele>88.1</ele>
        <time>2019-12-09T11:38:18Z</time>
      </trkpt>
      <trkpt lat="43.91909" lon="5.13196">
        <ele>87.14</ele>
        <time>2019-12-09T11:38:36Z</time>
      </trkpt>
      <trkpt lat="43.91917" lon="5.13194">
        <ele>85.69</ele>
        <time>2019-12-09T11:38:52Z</time>
      </trkpt>
      <trkpt lat="43.91929" lon="5.13192">
        <ele>84.25</ele>
        <time>2019-12-09T11:39:07Z</time>
      </trkpt>
      <trkpt lat="43.91942" lon="5.13188">
        <ele>83.29</ele>
        <time>2019-12-09T11:39:23Z</time>
      </trkpt>
      <trkpt lat="43.9195" lon="5.1318">
        <ele>82.81</ele>
        <time>2019-12-09T11:39:36Z</time>
      </trkpt>
      <trkpt lat="43.91958" lon="5.13175">
        <ele>82.81</ele>
        <time>2019-12-09T11:39:50Z</time>
      </trkpt>
      <trkpt lat="43.9197" lon="5.13173">
        <ele>82.33</ele>
        <time>2019-12-09T11:40:08Z</time>
      </trkpt>
      <trkpt lat="43.91985" lon="5.13169">
        <ele>81.37</ele>
        <time>2019-12-09T11:40:23Z</time>
      </trkpt>
      <trkpt lat="43.91996" lon="5.13168">
        <ele>80.41</ele>
        <time>2019-12-09T11:40:38Z</time>
      </trkpt>
      <trkpt lat="43.92008" lon="5.13162">
        <ele>79.45</ele>
        <time>2019-12-09T11:40:54Z</time>
      </trkpt>
      <trkpt lat="43.92023" lon="5.13158">
        <ele>78.97</ele>
        <time>2019-12-09T11:41:12Z</time>
      </trkpt>
      <trkpt lat="43.92033" lon="5.13154">
        <ele>78.48</ele>
        <time>2019-12-09T11:41:26Z</time>
      </trkpt>
      <trkpt lat="43.92046" lon="5.1315">
        <ele>78.48</ele>
        <time>2019-12-09T11:41:41Z</time>
      </trkpt>
      <trkpt lat="43.92057" lon="5.13147">
        <ele>78</ele>
        <time>2019-12-09T11:41:55Z</time>
      </trkpt>
      <trkpt lat="43.92073" lon="5.13141">
        <ele>77.52</ele>
        <time>2019-12-09T11:42:11Z</time>
      </trkpt>
      <trkpt lat="43.9209" lon="5.13136">
        <ele>78.97</ele>
        <time>2019-12-09T11:42:27Z</time>
      </trkpt>
      <trkpt lat="43.92103" lon="5.13125">
        <ele>78.97</ele>
        <time>2019-12-09T11:42:42Z</time>
      </trkpt>
      <trkpt lat="43.92116" lon="5.1311">
        <ele>78.97</ele>
        <time>2019-12-09T11:42:58Z</time>
      </trkpt>
      <trkpt lat="43.92129" lon="5.13092">
        <ele>78.97</ele>
        <time>2019-12-09T11:43:16Z</time>
      </trkpt>
      <trkpt lat="43.92142" lon="5.13075">
        <ele>79.45</ele>
        <time>2019-12-09T11:43:35Z</time>
      </trkpt>
      <trkpt lat="43.92152" lon="5.13062">
        <ele>78.97</ele>
        <time>2019-12-09T11:43:51Z</time>
      </trkpt>
      <trkpt lat="43.92161" lon="5.13045">
        <ele>78.97</ele>
        <time>2019-12-09T11:44:09Z</time>
      </trkpt>
      <trkpt lat="43.92169" lon="5.13028">
        <ele>78.97</ele>
        <time>2019-12-09T11:44:26Z</time>
      </trkpt>
      <trkpt lat="43.9218" lon="5.13017">
        <ele>78.97</ele>
        <time>2019-12-09T11:44:43Z</time>
      </trkpt>
      <trkpt lat="43.92191" lon="5.13005">
        <ele>78.97</ele>
        <time>2019-12-09T11:44:59Z</time>
      </trkpt>
      <trkpt lat="43.922" lon="5.12996">
        <ele>79.93</ele>
        <time>2019-12-09T11:45:16Z</time>
      </trkpt>
      <trkpt lat="43.92203" lon="5.12994">
        <ele>80.41</ele>
        <time>2019-12-09T11:45:20Z</time>
      </trkpt>
      <trkpt lat="43.92218" lon="5.12978">
        <ele>80.41</ele>
        <time>2019-12-09T11:45:40Z</time>
      </trkpt>
      <trkpt lat="43.92231" lon="5.12965">
        <ele>80.41</ele>
        <time>2019-12-09T11:45:57Z</time>
      </trkpt>
      <trkpt lat="43.92239" lon="5.12951">
        <ele>80.89</ele>
        <time>2019-12-09T11:46:15Z</time>
      </trkpt>
      <trkpt lat="43.92246" lon="5.12949">
        <ele>80.89</ele>
        <time>2019-12-09T11:46:38Z</time>
      </trkpt>
      <trkpt lat="43.9225" lon="5.12945">
        <ele>80.89</ele>
        <time>2019-12-09T11:46:54Z</time>
      </trkpt>
      <trkpt lat="43.92238" lon="5.12955">
        <ele>81.37</ele>
        <time>2019-12-09T11:47:09Z</time>
      </trkpt>
      <trkpt lat="43.92237" lon="5.12955">
        <ele>81.37</ele>
        <time>2019-12-09T11:47:22Z</time>
      </trkpt>
      <trkpt lat="43.92244" lon="5.12959">
        <ele>79.93</ele>
        <time>2019-12-09T11:47:38Z</time>
      </trkpt>
      <trkpt lat="43.92259" lon="5.1296">
        <ele>80.41</ele>
        <time>2019-12-09T11:47:53Z</time>
      </trkpt>
      <trkpt lat="43.92258" lon="5.12957">
        <ele>80.41</ele>
        <time>2019-12-09T11:48:05Z</time>
      </trkpt>
      <trkpt lat="43.92257" lon="5.12955">
        <ele>80.89</ele>
        <time>2019-12-09T11:48:19Z</time>
      </trkpt>
      <trkpt lat="43.92256" lon="5.12956">
        <ele>81.85</ele>
        <time>2019-12-09T11:48:30Z</time>
      </trkpt>
      <trkpt lat="43.92255" lon="5.12956">
        <ele>80.41</ele>
        <time>2019-12-09T11:48:45Z</time>
      </trkpt>
      <trkpt lat="43.92256" lon="5.12955">
        <ele>80.41</ele>
        <time>2019-12-09T11:49:08Z</time>
      </trkpt>
      <trkpt lat="43.92257" lon="5.12955">
        <ele>81.85</ele>
        <time>2019-12-09T11:49:12Z</time>
      </trkpt>
      <trkpt lat="43.92256" lon="5.12957">
        <ele>78.48</ele>
        <time>2019-12-09T11:49:28Z</time>
      </trkpt>
      <trkpt lat="43.92256" lon="5.12956">
        <ele>83.29</ele>
        <time>2019-12-09T11:49:35Z</time>
      </trkpt>
      <trkpt lat="43.92256" lon="5.12956">
        <ele>81.85</ele>
        <time>2019-12-09T11:49:58Z</time>
      </trkpt>
      <trkpt lat="43.92256" lon="5.12953">
        <ele>82.33</ele>
        <time>2019-12-09T11:50:27Z</time>
      </trkpt>
      <trkpt lat="43.92256" lon="5.12956">
        <ele>82.33</ele>
        <time>2019-12-09T11:50:55Z</time>
      </trkpt>
      <trkpt lat="43.92255" lon="5.12958">
        <ele>82.81</ele>
        <time>2019-12-09T11:51:22Z</time>
      </trkpt>
      <trkpt lat="43.92256" lon="5.12956">
        <ele>82.81</ele>
        <time>2019-12-09T11:51:47Z</time>
      </trkpt>
      <trkpt lat="43.92255" lon="5.12955">
        <ele>82.81</ele>
        <time>2019-12-09T11:52:16Z</time>
      </trkpt>
      <trkpt lat="43.92259" lon="5.12958">
        <ele>83.29</ele>
        <time>2019-12-09T11:52:42Z</time>
      </trkpt>
      <trkpt lat="43.92256" lon="5.12955">
        <ele>83.29</ele>
        <time>2019-12-09T11:53:06Z</time>
      </trkpt>
      <trkpt lat="43.92254" lon="5.12951">
        <ele>83.77</ele>
        <time>2019-12-09T11:53:36Z</time>
      </trkpt>
      <trkpt lat="43.92256" lon="5.12951">
        <ele>84.25</ele>
        <time>2019-12-09T11:54:02Z</time>
      </trkpt>
      <trkpt lat="43.92254" lon="5.12952">
        <ele>84.25</ele>
        <time>2019-12-09T11:54:37Z</time>
      </trkpt>
      <trkpt lat="43.92256" lon="5.12956">
        <ele>84.73</ele>
        <time>2019-12-09T11:55:07Z</time>
      </trkpt>
      <trkpt lat="43.92257" lon="5.1296">
        <ele>84.73</ele>
        <time>2019-12-09T11:55:37Z</time>
      </trkpt>
      <trkpt lat="43.92253" lon="5.12956">
        <ele>84.73</ele>
        <time>2019-12-09T11:56:07Z</time>
      </trkpt>
      <trkpt lat="43.92254" lon="5.12959">
        <ele>84.73</ele>
        <time>2019-12-09T11:56:37Z</time>
      </trkpt>
      <trkpt lat="43.92254" lon="5.12958">
        <ele>85.21</ele>
        <time>2019-12-09T11:57:04Z</time>
      </trkpt>
      <trkpt lat="43.92253" lon="5.1296">
        <ele>85.21</ele>
        <time>2019-12-09T11:57:25Z</time>
      </trkpt>
      <trkpt lat="43.92255" lon="5.12961">
        <ele>85.21</ele>
        <time>2019-12-09T11:57:59Z</time>
      </trkpt>
      <trkpt lat="43.92257" lon="5.1296">
        <ele>84.73</ele>
        <time>2019-12-09T11:58:33Z</time>
      </trkpt>
      <trkpt lat="43.92253" lon="5.12962">
        <ele>84.73</ele>
        <time>2019-12-09T11:58:55Z</time>
      </trkpt>
      <trkpt lat="43.92255" lon="5.12963">
        <ele>84.73</ele>
        <time>2019-12-09T11:59:16Z</time>
      </trkpt>
      <trkpt lat="43.92258" lon="5.12964">
        <ele>84.73</ele>
        <time>2019-12-09T11:59:39Z</time>
      </trkpt>
      <trkpt lat="43.92255" lon="5.12957">
        <ele>84.73</ele>
        <time>2019-12-09T12:00:05Z</time>
      </trkpt>
      <trkpt lat="43.92255" lon="5.12961">
        <ele>84.73</ele>
        <time>2019-12-09T12:00:42Z</time>
      </trkpt>
      <trkpt lat="43.92257" lon="5.1296">
        <ele>84.73</ele>
        <time>2019-12-09T12:01:13Z</time>
      </trkpt>
      <trkpt lat="43.92256" lon="5.12962">
        <ele>85.21</ele>
        <time>2019-12-09T12:01:40Z</time>
      </trkpt>
      <trkpt lat="43.92255" lon="5.12957">
        <ele>85.21</ele>
        <time>2019-12-09T12:02:12Z</time>
      </trkpt>
      <trkpt lat="43.92255" lon="5.12958">
        <ele>85.69</ele>
        <time>2019-12-09T12:02:40Z</time>
      </trkpt>
      <trkpt lat="43.92256" lon="5.12963">
        <ele>85.69</ele>
        <time>2019-12-09T12:03:14Z</time>
      </trkpt>
      <trkpt lat="43.92254" lon="5.12961">
        <ele>85.69</ele>
        <time>2019-12-09T12:03:39Z</time>
      </trkpt>
      <trkpt lat="43.92256" lon="5.12961">
        <ele>85.69</ele>
        <time>2019-12-09T12:04:10Z</time>
      </trkpt>
      <trkpt lat="43.92255" lon="5.12958">
        <ele>85.69</ele>
        <time>2019-12-09T12:04:42Z</time>
      </trkpt>
      <trkpt lat="43.92255" lon="5.12961">
        <ele>85.69</ele>
        <time>2019-12-09T12:05:16Z</time>
      </trkpt>
      <trkpt lat="43.92254" lon="5.12956">
        <ele>85.69</ele>
        <time>2019-12-09T12:05:45Z</time>
      </trkpt>
      <trkpt lat="43.92254" lon="5.12958">
        <ele>85.69</ele>
        <time>2019-12-09T12:06:18Z</time>
      </trkpt>
      <trkpt lat="43.92257" lon="5.12963">
        <ele>85.69</ele>
        <time>2019-12-09T12:06:54Z</time>
      </trkpt>
      <trkpt lat="43.92257" lon="5.12956">
        <ele>85.69</ele>
        <time>2019-12-09T12:07:34Z</time>
      </trkpt>
      <trkpt lat="43.92256" lon="5.12957">
        <ele>85.69</ele>
        <time>2019-12-09T12:08:04Z</time>
      </trkpt>
      <trkpt lat="43.92256" lon="5.12956">
        <ele>85.21</ele>
        <time>2019-12-09T12:08:32Z</time>
      </trkpt>
      <trkpt lat="43.92256" lon="5.12956">
        <ele>85.21</ele>
        <time>2019-12-09T12:09:02Z</time>
      </trkpt>
      <trkpt lat="43.92255" lon="5.12958">
        <ele>85.21</ele>
        <time>2019-12-09T12:09:26Z</time>
      </trkpt>
      <trkpt lat="43.92254" lon="5.12958">
        <ele>86.18</ele>
        <time>2019-12-09T12:09:55Z</time>
      </trkpt>
      <trkpt lat="43.92255" lon="5.12958">
        <ele>86.66</ele>
        <time>2019-12-09T12:10:16Z</time>
      </trkpt>
      <trkpt lat="43.92257" lon="5.12959">
        <ele>86.66</ele>
        <time>2019-12-09T12:10:41Z</time>
      </trkpt>
      <trkpt lat="43.92255" lon="5.12957">
        <ele>86.66</ele>
        <time>2019-12-09T12:11:04Z</time>
      </trkpt>
      <trkpt lat="43.92256" lon="5.12957">
        <ele>86.66</ele>
        <time>2019-12-09T12:11:30Z</time>
      </trkpt>
      <trkpt lat="43.92257" lon="5.12958">
        <ele>86.66</ele>
        <time>2019-12-09T12:11:49Z</time>
      </trkpt>
      <trkpt lat="43.92257" lon="5.12957">
        <ele>86.66</ele>
        <time>2019-12-09T12:12:12Z</time>
      </trkpt>
      <trkpt lat="43.92258" lon="5.12957">
        <ele>86.66</ele>
        <time>2019-12-09T12:12:39Z</time>
      </trkpt>
      <trkpt lat="43.92258" lon="5.12955">
        <ele>86.66</ele>
        <time>2019-12-09T12:13:09Z</time>
      </trkpt>
      <trkpt lat="43.92254" lon="5.12957">
        <ele>86.66</ele>
        <time>2019-12-09T12:13:42Z</time>
      </trkpt>
      <trkpt lat="43.92255" lon="5.12961">
        <ele>86.66</ele>
        <time>2019-12-09T12:14:16Z</time>
      </trkpt>
      <trkpt lat="43.92257" lon="5.12959">
        <ele>87.14</ele>
        <time>2019-12-09T12:14:50Z</time>
      </trkpt>
      <trkpt lat="43.92259" lon="5.12961">
        <ele>87.14</ele>
        <time>2019-12-09T12:15:22Z</time>
      </trkpt>
      <trkpt lat="43.92257" lon="5.12956">
        <ele>87.14</ele>
        <time>2019-12-09T12:15:59Z</time>
      </trkpt>
      <trkpt lat="43.92257" lon="5.12957">
        <ele>87.14</ele>
        <time>2019-12-09T12:16:33Z</time>
      </trkpt>
      <trkpt lat="43.92254" lon="5.12958">
        <ele>87.14</ele>
        <time>2019-12-09T12:17:11Z</time>
      </trkpt>
      <trkpt lat="43.92253" lon="5.12956">
        <ele>85.69</ele>
        <time>2019-12-09T12:17:34Z</time>
      </trkpt>
      <trkpt lat="43.92253" lon="5.12956">
        <ele>87.62</ele>
        <time>2019-12-09T12:17:36Z</time>
      </trkpt>
      <trkpt lat="43.92254" lon="5.12962">
        <ele>87.62</ele>
        <time>2019-12-09T12:18:03Z</time>
      </trkpt>
      <trkpt lat="43.92254" lon="5.12963">
        <ele>86.18</ele>
        <time>2019-12-09T12:18:36Z</time>
      </trkpt>
      <trkpt lat="43.92253" lon="5.12963">
        <ele>86.18</ele>
        <time>2019-12-09T12:19:18Z</time>
      </trkpt>
      <trkpt lat="43.92256" lon="5.12962">
        <ele>86.66</ele>
        <time>2019-12-09T12:19:44Z</time>
      </trkpt>
      <trkpt lat="43.92252" lon="5.12959">
        <ele>86.66</ele>
        <time>2019-12-09T12:20:20Z</time>
      </trkpt>
      <trkpt lat="43.92253" lon="5.12955">
        <ele>86.66</ele>
        <time>2019-12-09T12:20:59Z</time>
      </trkpt>
      <trkpt lat="43.92256" lon="5.1296">
        <ele>87.14</ele>
        <time>2019-12-09T12:21:24Z</time>
      </trkpt>
      <trkpt lat="43.92257" lon="5.12959">
        <ele>87.14</ele>
        <time>2019-12-09T12:21:52Z</time>
      </trkpt>
      <trkpt lat="43.92256" lon="5.12959">
        <ele>87.62</ele>
        <time>2019-12-09T12:22:22Z</time>
      </trkpt>
      <trkpt lat="43.92257" lon="5.12959">
        <ele>87.62</ele>
        <time>2019-12-09T12:22:52Z</time>
      </trkpt>
      <trkpt lat="43.92255" lon="5.12955">
        <ele>88.1</ele>
        <time>2019-12-09T12:23:01Z</time>
      </trkpt>
      <trkpt lat="43.92256" lon="5.12956">
        <ele>88.58</ele>
        <time>2019-12-09T12:23:22Z</time>
      </trkpt>
      <trkpt lat="43.92255" lon="5.12956">
        <ele>88.58</ele>
        <time>2019-12-09T12:23:43Z</time>
      </trkpt>
      <trkpt lat="43.92256" lon="5.12958">
        <ele>88.58</ele>
        <time>2019-12-09T12:24:05Z</time>
      </trkpt>
      <trkpt lat="43.92256" lon="5.12955">
        <ele>88.58</ele>
        <time>2019-12-09T12:24:17Z</time>
      </trkpt>
      <trkpt lat="43.92256" lon="5.12954">
        <ele>89.54</ele>
        <time>2019-12-09T12:24:39Z</time>
      </trkpt>
      <trkpt lat="43.92255" lon="5.12953">
        <ele>90.5</ele>
        <time>2019-12-09T12:24:57Z</time>
      </trkpt>
      <trkpt lat="43.92255" lon="5.12953">
        <ele>90.02</ele>
        <time>2019-12-09T12:25:10Z</time>
      </trkpt>
      <trkpt lat="43.92256" lon="5.12951">
        <ele>89.06</ele>
        <time>2019-12-09T12:25:27Z</time>
      </trkpt>
      <trkpt lat="43.9226" lon="5.12947">
        <ele>89.06</ele>
        <time>2019-12-09T12:25:37Z</time>
      </trkpt>
      <trkpt lat="43.92262" lon="5.12946">
        <ele>88.58</ele>
        <time>2019-12-09T12:25:40Z</time>
      </trkpt>
      <trkpt lat="43.92268" lon="5.12932">
        <ele>88.58</ele>
        <time>2019-12-09T12:25:53Z</time>
      </trkpt>
      <trkpt lat="43.92273" lon="5.12913">
        <ele>88.1</ele>
        <time>2019-12-09T12:26:09Z</time>
      </trkpt>
      <trkpt lat="43.92273" lon="5.1291">
        <ele>88.1</ele>
        <time>2019-12-09T12:26:11Z</time>
      </trkpt>
      <trkpt lat="43.92275" lon="5.12894">
        <ele>87.62</ele>
        <time>2019-12-09T12:26:25Z</time>
      </trkpt>
      <trkpt lat="43.92275" lon="5.12878">
        <ele>87.14</ele>
        <time>2019-12-09T12:26:37Z</time>
      </trkpt>
      <trkpt lat="43.92274" lon="5.12862">
        <ele>86.18</ele>
        <time>2019-12-09T12:26:50Z</time>
      </trkpt>
      <trkpt lat="43.92268" lon="5.12843">
        <ele>84.73</ele>
        <time>2019-12-09T12:27:07Z</time>
      </trkpt>
      <trkpt lat="43.92261" lon="5.12832">
        <ele>83.77</ele>
        <time>2019-12-09T12:27:21Z</time>
      </trkpt>
      <trkpt lat="43.92255" lon="5.12821">
        <ele>83.29</ele>
        <time>2019-12-09T12:27:34Z</time>
      </trkpt>
      <trkpt lat="43.92255" lon="5.12819">
        <ele>82.81</ele>
        <time>2019-12-09T12:27:44Z</time>
      </trkpt>
      <trkpt lat="43.92251" lon="5.12811">
        <ele>82.81</ele>
        <time>2019-12-09T12:27:57Z</time>
      </trkpt>
      <trkpt lat="43.92247" lon="5.12799">
        <ele>81.85</ele>
        <time>2019-12-09T12:28:11Z</time>
      </trkpt>
      <trkpt lat="43.92238" lon="5.1279">
        <ele>81.37</ele>
        <time>2019-12-09T12:28:26Z</time>
      </trkpt>
      <trkpt lat="43.92234" lon="5.12784">
        <ele>81.37</ele>
        <time>2019-12-09T12:28:33Z</time>
      </trkpt>
      <trkpt lat="43.9223" lon="5.12778">
        <ele>81.37</ele>
        <time>2019-12-09T12:28:41Z</time>
      </trkpt>
      <trkpt lat="43.92221" lon="5.12771">
        <ele>81.37</ele>
        <time>2019-12-09T12:28:55Z</time>
      </trkpt>
      <trkpt lat="43.92212" lon="5.12765">
        <ele>81.37</ele>
        <time>2019-12-09T12:29:07Z</time>
      </trkpt>
      <trkpt lat="43.92203" lon="5.12767">
        <ele>80.89</ele>
        <time>2019-12-09T12:29:20Z</time>
      </trkpt>
      <trkpt lat="43.92196" lon="5.12775">
        <ele>80.89</ele>
        <time>2019-12-09T12:29:33Z</time>
      </trkpt>
      <trkpt lat="43.92194" lon="5.12786">
        <ele>80.89</ele>
        <time>2019-12-09T12:29:47Z</time>
      </trkpt>
      <trkpt lat="43.92194" lon="5.12794">
        <ele>80.89</ele>
        <time>2019-12-09T12:29:58Z</time>
      </trkpt>
      <trkpt lat="43.92194" lon="5.12803">
        <ele>80.89</ele>
        <time>2019-12-09T12:30:13Z</time>
      </trkpt>
      <trkpt lat="43.92194" lon="5.12807">
        <ele>80.89</ele>
        <time>2019-12-09T12:30:16Z</time>
      </trkpt>
      <trkpt lat="43.92195" lon="5.12811">
        <ele>80.89</ele>
        <time>2019-12-09T12:30:19Z</time>
      </trkpt>
      <trkpt lat="43.92196" lon="5.12814">
        <ele>82.33</ele>
        <time>2019-12-09T12:30:22Z</time>
      </trkpt>
      <trkpt lat="43.92197" lon="5.12821">
        <ele>82.33</ele>
        <time>2019-12-09T12:30:27Z</time>
      </trkpt>
      <trkpt lat="43.9219" lon="5.1283">
        <ele>82.33</ele>
        <time>2019-12-09T12:30:36Z</time>
      </trkpt>
      <trkpt lat="43.92188" lon="5.12832">
        <ele>82.33</ele>
        <time>2019-12-09T12:30:39Z</time>
      </trkpt>
      <trkpt lat="43.9217" lon="5.12834">
        <ele>82.33</ele>
        <time>2019-12-09T12:30:53Z</time>
      </trkpt>
      <trkpt lat="43.92169" lon="5.12835">
        <ele>82.33</ele>
        <time>2019-12-09T12:30:54Z</time>
      </trkpt>
      <trkpt lat="43.92162" lon="5.12836">
        <ele>81.37</ele>
        <time>2019-12-09T12:31:00Z</time>
      </trkpt>
      <trkpt lat="43.92159" lon="5.12835">
        <ele>81.37</ele>
        <time>2019-12-09T12:31:03Z</time>
      </trkpt>
      <trkpt lat="43.92157" lon="5.12836">
        <ele>81.37</ele>
        <time>2019-12-09T12:31:05Z</time>
      </trkpt>
      <trkpt lat="43.92136" lon="5.12835">
        <ele>81.37</ele>
        <time>2019-12-09T12:31:22Z</time>
      </trkpt>
      <trkpt lat="43.92117" lon="5.12831">
        <ele>82.81</ele>
        <time>2019-12-09T12:31:39Z</time>
      </trkpt>
      <trkpt lat="43.92105" lon="5.12827">
        <ele>81.37</ele>
        <time>2019-12-09T12:31:51Z</time>
      </trkpt>
      <trkpt lat="43.9209" lon="5.12819">
        <ele>81.37</ele>
        <time>2019-12-09T12:32:07Z</time>
      </trkpt>
      <trkpt lat="43.92073" lon="5.12817">
        <ele>81.37</ele>
        <time>2019-12-09T12:32:23Z</time>
      </trkpt>
      <trkpt lat="43.92062" lon="5.1281">
        <ele>81.37</ele>
        <time>2019-12-09T12:32:35Z</time>
      </trkpt>
      <trkpt lat="43.9206" lon="5.1281">
        <ele>81.37</ele>
        <time>2019-12-09T12:32:37Z</time>
      </trkpt>
      <trkpt lat="43.92057" lon="5.12809">
        <ele>81.37</ele>
        <time>2019-12-09T12:32:40Z</time>
      </trkpt>
      <trkpt lat="43.92038" lon="5.12804">
        <ele>81.37</ele>
        <time>2019-12-09T12:32:59Z</time>
      </trkpt>
      <trkpt lat="43.92026" lon="5.12799">
        <ele>80.89</ele>
        <time>2019-12-09T12:33:13Z</time>
      </trkpt>
      <trkpt lat="43.92024" lon="5.12798">
        <ele>80.89</ele>
        <time>2019-12-09T12:33:15Z</time>
      </trkpt>
      <trkpt lat="43.92022" lon="5.12798">
        <ele>80.89</ele>
        <time>2019-12-09T12:33:17Z</time>
      </trkpt>
      <trkpt lat="43.9202" lon="5.12796">
        <ele>80.89</ele>
        <time>2019-12-09T12:33:19Z</time>
      </trkpt>
      <trkpt lat="43.92018" lon="5.12796">
        <ele>80.89</ele>
        <time>2019-12-09T12:33:21Z</time>
      </trkpt>
      <trkpt lat="43.92006" lon="5.12792">
        <ele>81.37</ele>
        <time>2019-12-09T12:33:35Z</time>
      </trkpt>
      <trkpt lat="43.91995" lon="5.12788">
        <ele>80.89</ele>
        <time>2019-12-09T12:33:46Z</time>
      </trkpt>
      <trkpt lat="43.91993" lon="5.12788">
        <ele>80.89</ele>
        <time>2019-12-09T12:33:48Z</time>
      </trkpt>
      <trkpt lat="43.91984" lon="5.12777">
        <ele>80.89</ele>
        <time>2019-12-09T12:34:03Z</time>
      </trkpt>
      <trkpt lat="43.91981" lon="5.12777">
        <ele>80.89</ele>
        <time>2019-12-09T12:34:35Z</time>
      </trkpt>
      <trkpt lat="43.91981" lon="5.12775">
        <ele>80.89</ele>
        <time>2019-12-09T12:34:56Z</time>
      </trkpt>
      <trkpt lat="43.91984" lon="5.12776">
        <ele>80.41</ele>
        <time>2019-12-09T12:35:22Z</time>
      </trkpt>
      <trkpt lat="43.91983" lon="5.12777">
        <ele>80.41</ele>
        <time>2019-12-09T12:35:38Z</time>
      </trkpt>
      <trkpt lat="43.91984" lon="5.12775">
        <ele>79.45</ele>
        <time>2019-12-09T12:35:58Z</time>
      </trkpt>
      <trkpt lat="43.91984" lon="5.12776">
        <ele>80.89</ele>
        <time>2019-12-09T12:36:16Z</time>
      </trkpt>
      <trkpt lat="43.91985" lon="5.12778">
        <ele>80.89</ele>
        <time>2019-12-09T12:36:32Z</time>
      </trkpt>
      <trkpt lat="43.91985" lon="5.12778">
        <ele>80.89</ele>
        <time>2019-12-09T12:36:47Z</time>
      </trkpt>
      <trkpt lat="43.91983" lon="5.1278">
        <ele>80.89</ele>
        <time>2019-12-09T12:36:57Z</time>
      </trkpt>
      <trkpt lat="43.91981" lon="5.12776">
        <ele>80.89</ele>
        <time>2019-12-09T12:37:12Z</time>
      </trkpt>
      <trkpt lat="43.9198" lon="5.12773">
        <ele>81.37</ele>
        <time>2019-12-09T12:37:31Z</time>
      </trkpt>
      <trkpt lat="43.91975" lon="5.12772">
        <ele>81.37</ele>
        <time>2019-12-09T12:37:46Z</time>
      </trkpt>
      <trkpt lat="43.91968" lon="5.12764">
        <ele>81.37</ele>
        <time>2019-12-09T12:37:58Z</time>
      </trkpt>
      <trkpt lat="43.91967" lon="5.12762">
        <ele>81.37</ele>
        <time>2019-12-09T12:38:00Z</time>
      </trkpt>
      <trkpt lat="43.91957" lon="5.12744">
        <ele>81.37</ele>
        <time>2019-12-09T12:38:14Z</time>
      </trkpt>
      <trkpt lat="43.9195" lon="5.12731">
        <ele>81.37</ele>
        <time>2019-12-09T12:38:26Z</time>
      </trkpt>
      <trkpt lat="43.91942" lon="5.12707">
        <ele>81.37</ele>
        <time>2019-12-09T12:38:43Z</time>
      </trkpt>
      <trkpt lat="43.91938" lon="5.12696">
        <ele>81.37</ele>
        <time>2019-12-09T12:38:51Z</time>
      </trkpt>
      <trkpt lat="43.91935" lon="5.12673">
        <ele>79.93</ele>
        <time>2019-12-09T12:39:09Z</time>
      </trkpt>
      <trkpt lat="43.91935" lon="5.12663">
        <ele>79.93</ele>
        <time>2019-12-09T12:39:17Z</time>
      </trkpt>
      <trkpt lat="43.91939" lon="5.12642">
        <ele>79.93</ele>
        <time>2019-12-09T12:39:32Z</time>
      </trkpt>
      <trkpt lat="43.91944" lon="5.12621">
        <ele>79.93</ele>
        <time>2019-12-09T12:39:45Z</time>
      </trkpt>
      <trkpt lat="43.91952" lon="5.12597">
        <ele>79.93</ele>
        <time>2019-12-09T12:39:59Z</time>
      </trkpt>
      <trkpt lat="43.91952" lon="5.12596">
        <ele>80.41</ele>
        <time>2019-12-09T12:40:00Z</time>
      </trkpt>
      <trkpt lat="43.9195" lon="5.12584">
        <ele>80.41</ele>
        <time>2019-12-09T12:40:07Z</time>
      </trkpt>
      <trkpt lat="43.91962" lon="5.12565">
        <ele>80.41</ele>
        <time>2019-12-09T12:40:25Z</time>
      </trkpt>
      <trkpt lat="43.91964" lon="5.12556">
        <ele>80.41</ele>
        <time>2019-12-09T12:40:39Z</time>
      </trkpt>
      <trkpt lat="43.91964" lon="5.12554">
        <ele>81.85</ele>
        <time>2019-12-09T12:40:48Z</time>
      </trkpt>
      <trkpt lat="43.91963" lon="5.12554">
        <ele>81.85</ele>
        <time>2019-12-09T12:41:04Z</time>
      </trkpt>
      <trkpt lat="43.91962" lon="5.12555">
        <ele>81.85</ele>
        <time>2019-12-09T12:41:09Z</time>
      </trkpt>
      <trkpt lat="43.91957" lon="5.12553">
        <ele>81.85</ele>
        <time>2019-12-09T12:41:13Z</time>
      </trkpt>
      <trkpt lat="43.91938" lon="5.12547">
        <ele>82.33</ele>
        <time>2019-12-09T12:41:31Z</time>
      </trkpt>
      <trkpt lat="43.91927" lon="5.12544">
        <ele>82.81</ele>
        <time>2019-12-09T12:41:40Z</time>
      </trkpt>
      <trkpt lat="43.91924" lon="5.12538">
        <ele>82.81</ele>
        <time>2019-12-09T12:41:45Z</time>
      </trkpt>
      <trkpt lat="43.91918" lon="5.12531">
        <ele>84.25</ele>
        <time>2019-12-09T12:41:52Z</time>
      </trkpt>
      <trkpt lat="43.91914" lon="5.12522">
        <ele>85.69</ele>
        <time>2019-12-09T12:42:00Z</time>
      </trkpt>
      <trkpt lat="43.91912" lon="5.12518">
        <ele>86.18</ele>
        <time>2019-12-09T12:42:03Z</time>
      </trkpt>
      <trkpt lat="43.9191" lon="5.12514">
        <ele>85.69</ele>
        <time>2019-12-09T12:42:06Z</time>
      </trkpt>
      <trkpt lat="43.91902" lon="5.12498">
        <ele>88.1</ele>
        <time>2019-12-09T12:42:21Z</time>
      </trkpt>
      <trkpt lat="43.91891" lon="5.12484">
        <ele>90.02</ele>
        <time>2019-12-09T12:42:36Z</time>
      </trkpt>
      <trkpt lat="43.91883" lon="5.12476">
        <ele>91.94</ele>
        <time>2019-12-09T12:42:48Z</time>
      </trkpt>
      <trkpt lat="43.91879" lon="5.1247">
        <ele>92.9</ele>
        <time>2019-12-09T12:42:55Z</time>
      </trkpt>
      <trkpt lat="43.91871" lon="5.12459">
        <ele>95.79</ele>
        <time>2019-12-09T12:43:10Z</time>
      </trkpt>
      <trkpt lat="43.91864" lon="5.1245">
        <ele>97.23</ele>
        <time>2019-12-09T12:43:22Z</time>
      </trkpt>
      <trkpt lat="43.91858" lon="5.12446">
        <ele>98.67</ele>
        <time>2019-12-09T12:43:33Z</time>
      </trkpt>
      <trkpt lat="43.91854" lon="5.12442">
        <ele>100.11</ele>
        <time>2019-12-09T12:43:40Z</time>
      </trkpt>
      <trkpt lat="43.91847" lon="5.12436">
        <ele>101.08</ele>
        <time>2019-12-09T12:43:51Z</time>
      </trkpt>
      <trkpt lat="43.91843" lon="5.12433">
        <ele>101.56</ele>
        <time>2019-12-09T12:43:56Z</time>
      </trkpt>
      <trkpt lat="43.91837" lon="5.12429">
        <ele>103</ele>
        <time>2019-12-09T12:44:05Z</time>
      </trkpt>
      <trkpt lat="43.91835" lon="5.12426">
        <ele>103.48</ele>
        <time>2019-12-09T12:44:09Z</time>
      </trkpt>
      <trkpt lat="43.91831" lon="5.12424">
        <ele>104.44</ele>
        <time>2019-12-09T12:44:15Z</time>
      </trkpt>
      <trkpt lat="43.91823" lon="5.1242">
        <ele>106.36</ele>
        <time>2019-12-09T12:44:27Z</time>
      </trkpt>
      <trkpt lat="43.91815" lon="5.12415">
        <ele>108.77</ele>
        <time>2019-12-09T12:44:41Z</time>
      </trkpt>
      <trkpt lat="43.91814" lon="5.12412">
        <ele>108.77</ele>
        <time>2019-12-09T12:44:43Z</time>
      </trkpt>
      <trkpt lat="43.91811" lon="5.12402">
        <ele>110.69</ele>
        <time>2019-12-09T12:44:55Z</time>
      </trkpt>
      <trkpt lat="43.91811" lon="5.124">
        <ele>111.17</ele>
        <time>2019-12-09T12:44:57Z</time>
      </trkpt>
      <trkpt lat="43.91812" lon="5.12389">
        <ele>113.57</ele>
        <time>2019-12-09T12:45:08Z</time>
      </trkpt>
      <trkpt lat="43.91812" lon="5.12377">
        <ele>115.5</ele>
        <time>2019-12-09T12:45:21Z</time>
      </trkpt>
      <trkpt lat="43.9181" lon="5.1237">
        <ele>116.94</ele>
        <time>2019-12-09T12:45:32Z</time>
      </trkpt>
      <trkpt lat="43.91811" lon="5.12368">
        <ele>116.94</ele>
        <time>2019-12-09T12:45:44Z</time>
      </trkpt>
      <trkpt lat="43.9181" lon="5.12368">
        <ele>116.94</ele>
        <time>2019-12-09T12:46:06Z</time>
      </trkpt>
      <trkpt lat="43.9181" lon="5.12367">
        <ele>116.94</ele>
        <time>2019-12-09T12:46:31Z</time>
      </trkpt>
      <trkpt lat="43.91806" lon="5.12363">
        <ele>117.9</ele>
        <time>2019-12-09T12:46:40Z</time>
      </trkpt>
      <trkpt lat="43.91797" lon="5.12352">
        <ele>121.26</ele>
        <time>2019-12-09T12:46:53Z</time>
      </trkpt>
      <trkpt lat="43.91792" lon="5.12345">
        <ele>123.19</ele>
        <time>2019-12-09T12:47:02Z</time>
      </trkpt>
      <trkpt lat="43.91786" lon="5.12331">
        <ele>125.59</ele>
        <time>2019-12-09T12:47:17Z</time>
      </trkpt>
      <trkpt lat="43.91781" lon="5.12321">
        <ele>127.51</ele>
        <time>2019-12-09T12:47:30Z</time>
      </trkpt>
      <trkpt lat="43.91778" lon="5.1231">
        <ele>130.4</ele>
        <time>2019-12-09T12:47:44Z</time>
      </trkpt>
      <trkpt lat="43.91773" lon="5.12305">
        <ele>131.36</ele>
        <time>2019-12-09T12:47:51Z</time>
      </trkpt>
      <trkpt lat="43.91765" lon="5.12299">
        <ele>133.28</ele>
        <time>2019-12-09T12:48:02Z</time>
      </trkpt>
      <trkpt lat="43.91759" lon="5.12292">
        <ele>134.72</ele>
        <time>2019-12-09T12:48:15Z</time>
      </trkpt>
      <trkpt lat="43.91753" lon="5.12288">
        <ele>136.64</ele>
        <time>2019-12-09T12:48:25Z</time>
      </trkpt>
      <trkpt lat="43.91743" lon="5.12279">
        <ele>139.05</ele>
        <time>2019-12-09T12:48:40Z</time>
      </trkpt>
      <trkpt lat="43.9174" lon="5.12276">
        <ele>139.53</ele>
        <time>2019-12-09T12:48:45Z</time>
      </trkpt>
      <trkpt lat="43.9173" lon="5.12267">
        <ele>141.45</ele>
        <time>2019-12-09T12:48:59Z</time>
      </trkpt>
      <trkpt lat="43.91724" lon="5.12259">
        <ele>142.41</ele>
        <time>2019-12-09T12:49:08Z</time>
      </trkpt>
      <trkpt lat="43.91721" lon="5.12257">
        <ele>142.89</ele>
        <time>2019-12-09T12:49:11Z</time>
      </trkpt>
      <trkpt lat="43.91719" lon="5.12255">
        <ele>141.45</ele>
        <time>2019-12-09T12:49:23Z</time>
      </trkpt>
      <trkpt lat="43.91716" lon="5.12256">
        <ele>141.45</ele>
        <time>2019-12-09T12:49:58Z</time>
      </trkpt>
      <trkpt lat="43.91715" lon="5.12256">
        <ele>142.89</ele>
        <time>2019-12-09T12:50:23Z</time>
      </trkpt>
      <trkpt lat="43.91716" lon="5.12257">
        <ele>142.89</ele>
        <time>2019-12-09T12:50:57Z</time>
      </trkpt>
      <trkpt lat="43.91718" lon="5.12255">
        <ele>142.89</ele>
        <time>2019-12-09T12:51:26Z</time>
      </trkpt>
      <trkpt lat="43.91719" lon="5.12258">
        <ele>143.85</ele>
        <time>2019-12-09T12:51:34Z</time>
      </trkpt>
      <trkpt lat="43.91721" lon="5.12258">
        <ele>144.34</ele>
        <time>2019-12-09T12:51:57Z</time>
      </trkpt>
      <trkpt lat="43.9172" lon="5.1226">
        <ele>144.34</ele>
        <time>2019-12-09T12:52:14Z</time>
      </trkpt>
      <trkpt lat="43.91719" lon="5.12261">
        <ele>144.34</ele>
        <time>2019-12-09T12:52:42Z</time>
      </trkpt>
      <trkpt lat="43.91715" lon="5.12259">
        <ele>144.82</ele>
        <time>2019-12-09T12:52:48Z</time>
      </trkpt>
      <trkpt lat="43.91702" lon="5.12256">
        <ele>146.74</ele>
        <time>2019-12-09T12:53:04Z</time>
      </trkpt>
      <trkpt lat="43.91694" lon="5.12257">
        <ele>148.18</ele>
        <time>2019-12-09T12:53:14Z</time>
      </trkpt>
      <trkpt lat="43.91691" lon="5.12257">
        <ele>149.14</ele>
        <time>2019-12-09T12:53:18Z</time>
      </trkpt>
      <trkpt lat="43.91681" lon="5.12258">
        <ele>150.58</ele>
        <time>2019-12-09T12:53:31Z</time>
      </trkpt>
      <trkpt lat="43.91671" lon="5.1226">
        <ele>152.03</ele>
        <time>2019-12-09T12:53:44Z</time>
      </trkpt>
      <trkpt lat="43.91663" lon="5.12261">
        <ele>154.91</ele>
        <time>2019-12-09T12:53:57Z</time>
      </trkpt>
      <trkpt lat="43.91653" lon="5.12263">
        <ele>156.35</ele>
        <time>2019-12-09T12:54:10Z</time>
      </trkpt>
      <trkpt lat="43.91648" lon="5.12264">
        <ele>157.31</ele>
        <time>2019-12-09T12:54:17Z</time>
      </trkpt>
      <trkpt lat="43.9164" lon="5.12264">
        <ele>159.24</ele>
        <time>2019-12-09T12:54:29Z</time>
      </trkpt>
      <trkpt lat="43.9164" lon="5.12265">
        <ele>159.24</ele>
        <time>2019-12-09T12:54:31Z</time>
      </trkpt>
      <trkpt lat="43.91629" lon="5.12264">
        <ele>161.16</ele>
        <time>2019-12-09T12:54:44Z</time>
      </trkpt>
      <trkpt lat="43.91621" lon="5.12263">
        <ele>162.6</ele>
        <time>2019-12-09T12:54:54Z</time>
      </trkpt>
      <trkpt lat="43.91618" lon="5.12263">
        <ele>164.04</ele>
        <time>2019-12-09T12:54:59Z</time>
      </trkpt>
      <trkpt lat="43.91608" lon="5.12261">
        <ele>165.48</ele>
        <time>2019-12-09T12:55:12Z</time>
      </trkpt>
      <trkpt lat="43.91597" lon="5.12259">
        <ele>167.41</ele>
        <time>2019-12-09T12:55:25Z</time>
      </trkpt>
      <trkpt lat="43.91591" lon="5.12257">
        <ele>168.85</ele>
        <time>2019-12-09T12:55:34Z</time>
      </trkpt>
      <trkpt lat="43.9158" lon="5.12255">
        <ele>170.77</ele>
        <time>2019-12-09T12:55:49Z</time>
      </trkpt>
      <trkpt lat="43.91571" lon="5.12253">
        <ele>172.69</ele>
        <time>2019-12-09T12:56:00Z</time>
      </trkpt>
      <trkpt lat="43.91565" lon="5.1225">
        <ele>173.66</ele>
        <time>2019-12-09T12:56:07Z</time>
      </trkpt>
      <trkpt lat="43.91562" lon="5.12247">
        <ele>174.14</ele>
        <time>2019-12-09T12:56:11Z</time>
      </trkpt>
      <trkpt lat="43.91558" lon="5.12243">
        <ele>174.62</ele>
        <time>2019-12-09T12:56:18Z</time>
      </trkpt>
      <trkpt lat="43.91556" lon="5.12242">
        <ele>175.1</ele>
        <time>2019-12-09T12:56:20Z</time>
      </trkpt>
      <trkpt lat="43.91546" lon="5.12236">
        <ele>177.5</ele>
        <time>2019-12-09T12:56:33Z</time>
      </trkpt>
      <trkpt lat="43.91538" lon="5.12232">
        <ele>179.42</ele>
        <time>2019-12-09T12:56:44Z</time>
      </trkpt>
      <trkpt lat="43.91528" lon="5.12229">
        <ele>181.35</ele>
        <time>2019-12-09T12:56:57Z</time>
      </trkpt>
      <trkpt lat="43.91523" lon="5.12227">
        <ele>181.83</ele>
        <time>2019-12-09T12:57:02Z</time>
      </trkpt>
      <trkpt lat="43.91511" lon="5.12225">
        <ele>183.75</ele>
        <time>2019-12-09T12:57:16Z</time>
      </trkpt>
      <trkpt lat="43.91501" lon="5.12223">
        <ele>185.19</ele>
        <time>2019-12-09T12:57:28Z</time>
      </trkpt>
      <trkpt lat="43.91489" lon="5.12221">
        <ele>187.11</ele>
        <time>2019-12-09T12:57:42Z</time>
      </trkpt>
      <trkpt lat="43.91487" lon="5.12221">
        <ele>187.11</ele>
        <time>2019-12-09T12:57:44Z</time>
      </trkpt>
      <trkpt lat="43.9148" lon="5.12219">
        <ele>188.08</ele>
        <time>2019-12-09T12:57:52Z</time>
      </trkpt>
      <trkpt lat="43.91473" lon="5.12221">
        <ele>188.56</ele>
        <time>2019-12-09T12:57:59Z</time>
      </trkpt>
      <trkpt lat="43.91471" lon="5.12221">
        <ele>189.04</ele>
        <time>2019-12-09T12:58:01Z</time>
      </trkpt>
      <trkpt lat="43.91469" lon="5.12221">
        <ele>189.52</ele>
        <time>2019-12-09T12:58:03Z</time>
      </trkpt>
      <trkpt lat="43.91458" lon="5.12221">
        <ele>190.48</ele>
        <time>2019-12-09T12:58:15Z</time>
      </trkpt>
      <trkpt lat="43.91446" lon="5.12224">
        <ele>191.44</ele>
        <time>2019-12-09T12:58:29Z</time>
      </trkpt>
      <trkpt lat="43.91442" lon="5.12225">
        <ele>191.44</ele>
        <time>2019-12-09T12:58:33Z</time>
      </trkpt>
      <trkpt lat="43.9144" lon="5.12225">
        <ele>191.92</ele>
        <time>2019-12-09T12:58:35Z</time>
      </trkpt>
      <trkpt lat="43.91426" lon="5.1223">
        <ele>192.88</ele>
        <time>2019-12-09T12:58:50Z</time>
      </trkpt>
      <trkpt lat="43.91422" lon="5.12232">
        <ele>193.36</ele>
        <time>2019-12-09T12:59:05Z</time>
      </trkpt>
      <trkpt lat="43.91416" lon="5.12238">
        <ele>194.32</ele>
        <time>2019-12-09T12:59:22Z</time>
      </trkpt>
      <trkpt lat="43.91414" lon="5.1224">
        <ele>195.28</ele>
        <time>2019-12-09T12:59:35Z</time>
      </trkpt>
      <trkpt lat="43.91417" lon="5.12238">
        <ele>195.28</ele>
        <time>2019-12-09T12:59:54Z</time>
      </trkpt>
      <trkpt lat="43.91419" lon="5.12237">
        <ele>193.84</ele>
        <time>2019-12-09T12:59:57Z</time>
      </trkpt>
      <trkpt lat="43.91419" lon="5.12234">
        <ele>193.84</ele>
        <time>2019-12-09T13:00:12Z</time>
      </trkpt>
      <trkpt lat="43.91422" lon="5.1224">
        <ele>193.84</ele>
        <time>2019-12-09T13:00:31Z</time>
      </trkpt>
      <trkpt lat="43.91423" lon="5.1224">
        <ele>193.84</ele>
        <time>2019-12-09T13:00:52Z</time>
      </trkpt>
      <trkpt lat="43.91421" lon="5.12238">
        <ele>193.84</ele>
        <time>2019-12-09T13:01:08Z</time>
      </trkpt>
      <trkpt lat="43.91417" lon="5.12236">
        <ele>193.84</ele>
        <time>2019-12-09T13:01:19Z</time>
      </trkpt>
      <trkpt lat="43.91414" lon="5.12235">
        <ele>193.84</ele>
        <time>2019-12-09T13:01:39Z</time>
      </trkpt>
      <trkpt lat="43.91415" lon="5.12233">
        <ele>193.84</ele>
        <time>2019-12-09T13:02:01Z</time>
      </trkpt>
      <trkpt lat="43.91416" lon="5.12233">
        <ele>193.84</ele>
        <time>2019-12-09T13:02:24Z</time>
      </trkpt>
      <trkpt lat="43.91416" lon="5.12235">
        <ele>194.8</ele>
        <time>2019-12-09T13:02:47Z</time>
      </trkpt>
      <trkpt lat="43.91414" lon="5.12234">
        <ele>195.28</ele>
        <time>2019-12-09T13:03:10Z</time>
      </trkpt>
      <trkpt lat="43.91414" lon="5.12233">
        <ele>195.28</ele>
        <time>2019-12-09T13:03:29Z</time>
      </trkpt>
      <trkpt lat="43.91417" lon="5.12237">
        <ele>195.28</ele>
        <time>2019-12-09T13:03:45Z</time>
      </trkpt>
      <trkpt lat="43.91414" lon="5.12237">
        <ele>195.28</ele>
        <time>2019-12-09T13:04:05Z</time>
      </trkpt>
      <trkpt lat="43.91406" lon="5.12235">
        <ele>195.77</ele>
        <time>2019-12-09T13:04:22Z</time>
      </trkpt>
      <trkpt lat="43.91394" lon="5.12234">
        <ele>195.77</ele>
        <time>2019-12-09T13:04:37Z</time>
      </trkpt>
      <trkpt lat="43.91389" lon="5.12232">
        <ele>195.77</ele>
        <time>2019-12-09T13:04:42Z</time>
      </trkpt>
      <trkpt lat="43.91388" lon="5.12232">
        <ele>195.77</ele>
        <time>2019-12-09T13:04:44Z</time>
      </trkpt>
      <trkpt lat="43.91377" lon="5.12228">
        <ele>194.32</ele>
        <time>2019-12-09T13:04:55Z</time>
      </trkpt>
      <trkpt lat="43.91374" lon="5.12227">
        <ele>194.32</ele>
        <time>2019-12-09T13:04:58Z</time>
      </trkpt>
      <trkpt lat="43.9136" lon="5.12222">
        <ele>194.32</ele>
        <time>2019-12-09T13:05:12Z</time>
      </trkpt>
      <trkpt lat="43.91359" lon="5.12222">
        <ele>194.32</ele>
        <time>2019-12-09T13:05:13Z</time>
      </trkpt>
      <trkpt lat="43.91353" lon="5.12222">
        <ele>194.32</ele>
        <time>2019-12-09T13:05:19Z</time>
      </trkpt>
      <trkpt lat="43.91351" lon="5.1222">
        <ele>194.32</ele>
        <time>2019-12-09T13:05:22Z</time>
      </trkpt>
      <trkpt lat="43.91342" lon="5.12217">
        <ele>194.32</ele>
        <time>2019-12-09T13:05:35Z</time>
      </trkpt>
      <trkpt lat="43.91341" lon="5.12217">
        <ele>194.32</ele>
        <time>2019-12-09T13:05:36Z</time>
      </trkpt>
      <trkpt lat="43.9133" lon="5.12215">
        <ele>195.77</ele>
        <time>2019-12-09T13:05:46Z</time>
      </trkpt>
      <trkpt lat="43.91326" lon="5.12215">
        <ele>195.77</ele>
        <time>2019-12-09T13:05:49Z</time>
      </trkpt>
      <trkpt lat="43.9131" lon="5.12212">
        <ele>196.73</ele>
        <time>2019-12-09T13:06:05Z</time>
      </trkpt>
      <trkpt lat="43.91296" lon="5.12208">
        <ele>197.21</ele>
        <time>2019-12-09T13:06:19Z</time>
      </trkpt>
      <trkpt lat="43.91286" lon="5.12206">
        <ele>197.21</ele>
        <time>2019-12-09T13:06:29Z</time>
      </trkpt>
      <trkpt lat="43.91275" lon="5.12204">
        <ele>197.69</ele>
        <time>2019-12-09T13:06:39Z</time>
      </trkpt>
      <trkpt lat="43.91272" lon="5.12204">
        <ele>197.69</ele>
        <time>2019-12-09T13:06:42Z</time>
      </trkpt>
      <trkpt lat="43.91266" lon="5.12203">
        <ele>197.69</ele>
        <time>2019-12-09T13:06:47Z</time>
      </trkpt>
      <trkpt lat="43.9126" lon="5.12201">
        <ele>197.69</ele>
        <time>2019-12-09T13:06:53Z</time>
      </trkpt>
      <trkpt lat="43.91251" lon="5.12194">
        <ele>197.69</ele>
        <time>2019-12-09T13:07:02Z</time>
      </trkpt>
      <trkpt lat="43.9125" lon="5.12193">
        <ele>196.25</ele>
        <time>2019-12-09T13:07:04Z</time>
      </trkpt>
      <trkpt lat="43.91234" lon="5.1218">
        <ele>195.28</ele>
        <time>2019-12-09T13:07:21Z</time>
      </trkpt>
      <trkpt lat="43.91226" lon="5.12177">
        <ele>194.8</ele>
        <time>2019-12-09T13:07:29Z</time>
      </trkpt>
      <trkpt lat="43.91222" lon="5.12176">
        <ele>194.8</ele>
        <time>2019-12-09T13:07:32Z</time>
      </trkpt>
      <trkpt lat="43.91214" lon="5.12173">
        <ele>195.28</ele>
        <time>2019-12-09T13:07:44Z</time>
      </trkpt>
      <trkpt lat="43.91195" lon="5.12169">
        <ele>195.28</ele>
        <time>2019-12-09T13:08:00Z</time>
      </trkpt>
      <trkpt lat="43.91187" lon="5.12168">
        <ele>195.28</ele>
        <time>2019-12-09T13:08:09Z</time>
      </trkpt>
      <trkpt lat="43.9117" lon="5.12165">
        <ele>196.25</ele>
        <time>2019-12-09T13:08:25Z</time>
      </trkpt>
      <trkpt lat="43.91156" lon="5.12163">
        <ele>196.73</ele>
        <time>2019-12-09T13:08:38Z</time>
      </trkpt>
      <trkpt lat="43.91149" lon="5.12161">
        <ele>197.21</ele>
        <time>2019-12-09T13:08:46Z</time>
      </trkpt>
      <trkpt lat="43.91133" lon="5.12154">
        <ele>197.21</ele>
        <time>2019-12-09T13:09:02Z</time>
      </trkpt>
      <trkpt lat="43.91124" lon="5.1215">
        <ele>197.69</ele>
        <time>2019-12-09T13:09:14Z</time>
      </trkpt>
      <trkpt lat="43.91123" lon="5.1215">
        <ele>197.69</ele>
        <time>2019-12-09T13:09:15Z</time>
      </trkpt>
      <trkpt lat="43.91119" lon="5.12148">
        <ele>198.17</ele>
        <time>2019-12-09T13:09:19Z</time>
      </trkpt>
      <trkpt lat="43.91107" lon="5.12148">
        <ele>198.17</ele>
        <time>2019-12-09T13:09:29Z</time>
      </trkpt>
      <trkpt lat="43.91095" lon="5.12146">
        <ele>198.65</ele>
        <time>2019-12-09T13:09:46Z</time>
      </trkpt>
      <trkpt lat="43.91093" lon="5.12149">
        <ele>199.13</ele>
        <time>2019-12-09T13:09:53Z</time>
      </trkpt>
      <trkpt lat="43.91092" lon="5.12151">
        <ele>199.13</ele>
        <time>2019-12-09T13:09:55Z</time>
      </trkpt>
      <trkpt lat="43.91088" lon="5.12159">
        <ele>199.13</ele>
        <time>2019-12-09T13:10:01Z</time>
      </trkpt>
      <trkpt lat="43.91087" lon="5.12162">
        <ele>199.13</ele>
        <time>2019-12-09T13:10:04Z</time>
      </trkpt>
      <trkpt lat="43.91081" lon="5.12175">
        <ele>199.13</ele>
        <time>2019-12-09T13:10:14Z</time>
      </trkpt>
      <trkpt lat="43.91071" lon="5.12199">
        <ele>199.61</ele>
        <time>2019-12-09T13:10:31Z</time>
      </trkpt>
      <trkpt lat="43.91065" lon="5.12211">
        <ele>201.05</ele>
        <time>2019-12-09T13:10:41Z</time>
      </trkpt>
      <trkpt lat="43.91065" lon="5.12213">
        <ele>201.05</ele>
        <time>2019-12-09T13:10:43Z</time>
      </trkpt>
      <trkpt lat="43.91052" lon="5.12224">
        <ele>201.53</ele>
        <time>2019-12-09T13:10:58Z</time>
      </trkpt>
      <trkpt lat="43.9104" lon="5.12226">
        <ele>201.53</ele>
        <time>2019-12-09T13:11:12Z</time>
      </trkpt>
      <trkpt lat="43.91023" lon="5.12237">
        <ele>201.53</ele>
        <time>2019-12-09T13:11:28Z</time>
      </trkpt>
      <trkpt lat="43.91007" lon="5.12249">
        <ele>201.53</ele>
        <time>2019-12-09T13:11:45Z</time>
      </trkpt>
      <trkpt lat="43.90999" lon="5.12255">
        <ele>201.53</ele>
        <time>2019-12-09T13:11:53Z</time>
      </trkpt>
      <trkpt lat="43.90992" lon="5.12258">
        <ele>201.53</ele>
        <time>2019-12-09T13:12:00Z</time>
      </trkpt>
      <trkpt lat="43.90975" lon="5.1227">
        <ele>201.53</ele>
        <time>2019-12-09T13:12:18Z</time>
      </trkpt>
      <trkpt lat="43.90962" lon="5.12279">
        <ele>201.53</ele>
        <time>2019-12-09T13:12:33Z</time>
      </trkpt>
      <trkpt lat="43.90945" lon="5.12291">
        <ele>202.01</ele>
        <time>2019-12-09T13:12:49Z</time>
      </trkpt>
      <trkpt lat="43.90941" lon="5.12294">
        <ele>202.01</ele>
        <time>2019-12-09T13:12:53Z</time>
      </trkpt>
      <trkpt lat="43.90935" lon="5.123">
        <ele>202.49</ele>
        <time>2019-12-09T13:13:02Z</time>
      </trkpt>
      <trkpt lat="43.90932" lon="5.12306">
        <ele>203.46</ele>
        <time>2019-12-09T13:13:07Z</time>
      </trkpt>
      <trkpt lat="43.90923" lon="5.12326">
        <ele>205.86</ele>
        <time>2019-12-09T13:13:24Z</time>
      </trkpt>
      <trkpt lat="43.90922" lon="5.12336">
        <ele>207.3</ele>
        <time>2019-12-09T13:13:33Z</time>
      </trkpt>
      <trkpt lat="43.90922" lon="5.12341">
        <ele>207.78</ele>
        <time>2019-12-09T13:13:36Z</time>
      </trkpt>
      <trkpt lat="43.90924" lon="5.12348">
        <ele>208.26</ele>
        <time>2019-12-09T13:13:41Z</time>
      </trkpt>
      <trkpt lat="43.90928" lon="5.1236">
        <ele>211.15</ele>
        <time>2019-12-09T13:13:53Z</time>
      </trkpt>
      <trkpt lat="43.90926" lon="5.1237">
        <ele>213.55</ele>
        <time>2019-12-09T13:14:05Z</time>
      </trkpt>
      <trkpt lat="43.90919" lon="5.12373">
        <ele>214.51</ele>
        <time>2019-12-09T13:14:16Z</time>
      </trkpt>
      <trkpt lat="43.90907" lon="5.12375">
        <ele>214.03</ele>
        <time>2019-12-09T13:14:30Z</time>
      </trkpt>
      <trkpt lat="43.90894" lon="5.12374">
        <ele>214.03</ele>
        <time>2019-12-09T13:14:45Z</time>
      </trkpt>
      <trkpt lat="43.90885" lon="5.12374">
        <ele>214.03</ele>
        <time>2019-12-09T13:14:59Z</time>
      </trkpt>
      <trkpt lat="43.90884" lon="5.12374">
        <ele>214.03</ele>
        <time>2019-12-09T13:15:15Z</time>
      </trkpt>
      <trkpt lat="43.90885" lon="5.12375">
        <ele>214.03</ele>
        <time>2019-12-09T13:15:32Z</time>
      </trkpt>
      <trkpt lat="43.90886" lon="5.12376">
        <ele>214.03</ele>
        <time>2019-12-09T13:15:58Z</time>
      </trkpt>
      <trkpt lat="43.90884" lon="5.12376">
        <ele>214.03</ele>
        <time>2019-12-09T13:16:15Z</time>
      </trkpt>
      <trkpt lat="43.90883" lon="5.12375">
        <ele>214.03</ele>
        <time>2019-12-09T13:16:33Z</time>
      </trkpt>
      <trkpt lat="43.90881" lon="5.12377">
        <ele>214.03</ele>
        <time>2019-12-09T13:16:46Z</time>
      </trkpt>
      <trkpt lat="43.90864" lon="5.12374">
        <ele>214.03</ele>
        <time>2019-12-09T13:17:02Z</time>
      </trkpt>
      <trkpt lat="43.90859" lon="5.12373">
        <ele>214.03</ele>
        <time>2019-12-09T13:17:06Z</time>
      </trkpt>
      <trkpt lat="43.90843" lon="5.12374">
        <ele>212.59</ele>
        <time>2019-12-09T13:17:19Z</time>
      </trkpt>
      <trkpt lat="43.90839" lon="5.12375">
        <ele>212.59</ele>
        <time>2019-12-09T13:17:23Z</time>
      </trkpt>
      <trkpt lat="43.90834" lon="5.12379">
        <ele>212.59</ele>
        <time>2019-12-09T13:17:28Z</time>
      </trkpt>
      <trkpt lat="43.90826" lon="5.12379">
        <ele>212.11</ele>
        <time>2019-12-09T13:17:36Z</time>
      </trkpt>
      <trkpt lat="43.90822" lon="5.12378">
        <ele>212.11</ele>
        <time>2019-12-09T13:17:41Z</time>
      </trkpt>
      <trkpt lat="43.90818" lon="5.12376">
        <ele>212.11</ele>
        <time>2019-12-09T13:17:44Z</time>
      </trkpt>
      <trkpt lat="43.90814" lon="5.12375">
        <ele>212.11</ele>
        <time>2019-12-09T13:17:48Z</time>
      </trkpt>
      <trkpt lat="43.90798" lon="5.12375">
        <ele>212.11</ele>
        <time>2019-12-09T13:18:01Z</time>
      </trkpt>
      <trkpt lat="43.90793" lon="5.12375">
        <ele>212.11</ele>
        <time>2019-12-09T13:18:05Z</time>
      </trkpt>
      <trkpt lat="43.90786" lon="5.12374">
        <ele>212.11</ele>
        <time>2019-12-09T13:18:11Z</time>
      </trkpt>
      <trkpt lat="43.90771" lon="5.12367">
        <ele>212.11</ele>
        <time>2019-12-09T13:18:25Z</time>
      </trkpt>
      <trkpt lat="43.90766" lon="5.12364">
        <ele>212.11</ele>
        <time>2019-12-09T13:18:30Z</time>
      </trkpt>
      <trkpt lat="43.90745" lon="5.12361">
        <ele>210.19</ele>
        <time>2019-12-09T13:18:47Z</time>
      </trkpt>
      <trkpt lat="43.9074" lon="5.12363">
        <ele>211.63</ele>
        <time>2019-12-09T13:18:52Z</time>
      </trkpt>
      <trkpt lat="43.90733" lon="5.12366">
        <ele>210.19</ele>
        <time>2019-12-09T13:19:02Z</time>
      </trkpt>
      <trkpt lat="43.90716" lon="5.12371">
        <ele>209.7</ele>
        <time>2019-12-09T13:19:17Z</time>
      </trkpt>
      <trkpt lat="43.90699" lon="5.12374">
        <ele>209.22</ele>
        <time>2019-12-09T13:19:32Z</time>
      </trkpt>
      <trkpt lat="43.90688" lon="5.12373">
        <ele>207.78</ele>
        <time>2019-12-09T13:19:43Z</time>
      </trkpt>
      <trkpt lat="43.90678" lon="5.12367">
        <ele>206.82</ele>
        <time>2019-12-09T13:19:52Z</time>
      </trkpt>
      <trkpt lat="43.90667" lon="5.12358">
        <ele>205.86</ele>
        <time>2019-12-09T13:20:03Z</time>
      </trkpt>
      <trkpt lat="43.90659" lon="5.12351">
        <ele>206.82</ele>
        <time>2019-12-09T13:20:11Z</time>
      </trkpt>
      <trkpt lat="43.90653" lon="5.12347">
        <ele>205.38</ele>
        <time>2019-12-09T13:20:18Z</time>
      </trkpt>
      <trkpt lat="43.90647" lon="5.12346">
        <ele>205.38</ele>
        <time>2019-12-09T13:20:25Z</time>
      </trkpt>
      <trkpt lat="43.90632" lon="5.12339">
        <ele>203.94</ele>
        <time>2019-12-09T13:20:39Z</time>
      </trkpt>
      <trkpt lat="43.90617" lon="5.12328">
        <ele>202.98</ele>
        <time>2019-12-09T13:20:54Z</time>
      </trkpt>
      <trkpt lat="43.90615" lon="5.12327">
        <ele>202.98</ele>
        <time>2019-12-09T13:20:56Z</time>
      </trkpt>
      <trkpt lat="43.90602" lon="5.12331">
        <ele>202.01</ele>
        <time>2019-12-09T13:21:09Z</time>
      </trkpt>
      <trkpt lat="43.90596" lon="5.1233">
        <ele>200.57</ele>
        <time>2019-12-09T13:21:14Z</time>
      </trkpt>
      <trkpt lat="43.90591" lon="5.12331">
        <ele>200.09</ele>
        <time>2019-12-09T13:21:18Z</time>
      </trkpt>
      <trkpt lat="43.90575" lon="5.12337">
        <ele>198.65</ele>
        <time>2019-12-09T13:21:33Z</time>
      </trkpt>
      <trkpt lat="43.90574" lon="5.12338">
        <ele>198.65</ele>
        <time>2019-12-09T13:21:34Z</time>
      </trkpt>
      <trkpt lat="43.9056" lon="5.12339">
        <ele>196.73</ele>
        <time>2019-12-09T13:21:49Z</time>
      </trkpt>
      <trkpt lat="43.90553" lon="5.12342">
        <ele>196.73</ele>
        <time>2019-12-09T13:21:56Z</time>
      </trkpt>
      <trkpt lat="43.9055" lon="5.12343">
        <ele>196.25</ele>
        <time>2019-12-09T13:21:59Z</time>
      </trkpt>
      <trkpt lat="43.9054" lon="5.12345">
        <ele>195.28</ele>
        <time>2019-12-09T13:22:13Z</time>
      </trkpt>
      <trkpt lat="43.90527" lon="5.12347">
        <ele>194.32</ele>
        <time>2019-12-09T13:22:24Z</time>
      </trkpt>
      <trkpt lat="43.90525" lon="5.1235">
        <ele>194.32</ele>
        <time>2019-12-09T13:22:27Z</time>
      </trkpt>
      <trkpt lat="43.90515" lon="5.12353">
        <ele>194.32</ele>
        <time>2019-12-09T13:22:36Z</time>
      </trkpt>
      <trkpt lat="43.90507" lon="5.12356">
        <ele>195.77</ele>
        <time>2019-12-09T13:22:46Z</time>
      </trkpt>
      <trkpt lat="43.90506" lon="5.12355">
        <ele>194.32</ele>
        <time>2019-12-09T13:22:58Z</time>
      </trkpt>
      <trkpt lat="43.90506" lon="5.12353">
        <ele>194.32</ele>
        <time>2019-12-09T13:23:20Z</time>
      </trkpt>
      <trkpt lat="43.90505" lon="5.12354">
        <ele>193.84</ele>
        <time>2019-12-09T13:23:46Z</time>
      </trkpt>
      <trkpt lat="43.90507" lon="5.12354">
        <ele>193.84</ele>
        <time>2019-12-09T13:24:03Z</time>
      </trkpt>
      <trkpt lat="43.90505" lon="5.12355">
        <ele>193.36</ele>
        <time>2019-12-09T13:24:05Z</time>
      </trkpt>
      <trkpt lat="43.905" lon="5.1236">
        <ele>193.36</ele>
        <time>2019-12-09T13:24:13Z</time>
      </trkpt>
      <trkpt lat="43.90497" lon="5.12363">
        <ele>193.36</ele>
        <time>2019-12-09T13:24:17Z</time>
      </trkpt>
      <trkpt lat="43.90492" lon="5.12366">
        <ele>192.88</ele>
        <time>2019-12-09T13:24:22Z</time>
      </trkpt>
      <trkpt lat="43.90484" lon="5.12375">
        <ele>191.92</ele>
        <time>2019-12-09T13:24:36Z</time>
      </trkpt>
      <trkpt lat="43.90478" lon="5.12376">
        <ele>190.48</ele>
        <time>2019-12-09T13:24:48Z</time>
      </trkpt>
      <trkpt lat="43.90477" lon="5.12376">
        <ele>190.48</ele>
        <time>2019-12-09T13:24:49Z</time>
      </trkpt>
      <trkpt lat="43.90466" lon="5.12374">
        <ele>189.52</ele>
        <time>2019-12-09T13:25:00Z</time>
      </trkpt>
      <trkpt lat="43.90463" lon="5.12375">
        <ele>189.04</ele>
        <time>2019-12-09T13:25:03Z</time>
      </trkpt>
      <trkpt lat="43.90446" lon="5.12372">
        <ele>188.56</ele>
        <time>2019-12-09T13:25:20Z</time>
      </trkpt>
      <trkpt lat="43.90443" lon="5.12372">
        <ele>188.56</ele>
        <time>2019-12-09T13:25:23Z</time>
      </trkpt>
      <trkpt lat="43.90428" lon="5.12364">
        <ele>188.56</ele>
        <time>2019-12-09T13:25:39Z</time>
      </trkpt>
      <trkpt lat="43.90422" lon="5.12362">
        <ele>187.59</ele>
        <time>2019-12-09T13:25:45Z</time>
      </trkpt>
      <trkpt lat="43.90402" lon="5.12368">
        <ele>186.63</ele>
        <time>2019-12-09T13:26:03Z</time>
      </trkpt>
      <trkpt lat="43.90385" lon="5.12376">
        <ele>186.63</ele>
        <time>2019-12-09T13:26:21Z</time>
      </trkpt>
      <trkpt lat="43.90379" lon="5.12373">
        <ele>186.63</ele>
        <time>2019-12-09T13:26:32Z</time>
      </trkpt>
      <trkpt lat="43.90379" lon="5.12372">
        <ele>186.63</ele>
        <time>2019-12-09T13:26:33Z</time>
      </trkpt>
      <trkpt lat="43.90375" lon="5.12368">
        <ele>186.63</ele>
        <time>2019-12-09T13:26:38Z</time>
      </trkpt>
      <trkpt lat="43.90364" lon="5.12356">
        <ele>186.15</ele>
        <time>2019-12-09T13:26:51Z</time>
      </trkpt>
      <trkpt lat="43.90361" lon="5.12349">
        <ele>186.15</ele>
        <time>2019-12-09T13:26:57Z</time>
      </trkpt>
      <trkpt lat="43.90367" lon="5.12327">
        <ele>185.67</ele>
        <time>2019-12-09T13:27:13Z</time>
      </trkpt>
      <trkpt lat="43.9037" lon="5.12311">
        <ele>185.67</ele>
        <time>2019-12-09T13:27:27Z</time>
      </trkpt>
      <trkpt lat="43.9037" lon="5.1231">
        <ele>185.67</ele>
        <time>2019-12-09T13:27:28Z</time>
      </trkpt>
      <trkpt lat="43.90369" lon="5.12305">
        <ele>187.11</ele>
        <time>2019-12-09T13:27:31Z</time>
      </trkpt>
      <trkpt lat="43.90368" lon="5.12303">
        <ele>187.11</ele>
        <time>2019-12-09T13:27:33Z</time>
      </trkpt>
      <trkpt lat="43.90366" lon="5.12298">
        <ele>187.59</ele>
        <time>2019-12-09T13:27:37Z</time>
      </trkpt>
      <trkpt lat="43.90365" lon="5.12295">
        <ele>187.59</ele>
        <time>2019-12-09T13:27:39Z</time>
      </trkpt>
      <trkpt lat="43.90359" lon="5.12278">
        <ele>189.04</ele>
        <time>2019-12-09T13:27:54Z</time>
      </trkpt>
      <trkpt lat="43.90357" lon="5.12274">
        <ele>190</ele>
        <time>2019-12-09T13:27:57Z</time>
      </trkpt>
      <trkpt lat="43.90353" lon="5.12265">
        <ele>191.44</ele>
        <time>2019-12-09T13:28:06Z</time>
      </trkpt>
      <trkpt lat="43.9035" lon="5.12259">
        <ele>191.44</ele>
        <time>2019-12-09T13:28:12Z</time>
      </trkpt>
      <trkpt lat="43.9035" lon="5.12256">
        <ele>191.44</ele>
        <time>2019-12-09T13:28:14Z</time>
      </trkpt>
      <trkpt lat="43.90345" lon="5.12243">
        <ele>191.44</ele>
        <time>2019-12-09T13:28:24Z</time>
      </trkpt>
      <trkpt lat="43.90343" lon="5.12241">
        <ele>191.92</ele>
        <time>2019-12-09T13:28:26Z</time>
      </trkpt>
      <trkpt lat="43.90339" lon="5.12233">
        <ele>192.4</ele>
        <time>2019-12-09T13:28:33Z</time>
      </trkpt>
      <trkpt lat="43.90338" lon="5.12229">
        <ele>192.88</ele>
        <time>2019-12-09T13:28:36Z</time>
      </trkpt>
      <trkpt lat="43.90335" lon="5.1222">
        <ele>193.36</ele>
        <time>2019-12-09T13:28:43Z</time>
      </trkpt>
      <trkpt lat="43.90331" lon="5.12209">
        <ele>194.32</ele>
        <time>2019-12-09T13:28:51Z</time>
      </trkpt>
      <trkpt lat="43.90329" lon="5.12204">
        <ele>194.8</ele>
        <time>2019-12-09T13:28:56Z</time>
      </trkpt>
      <trkpt lat="43.90315" lon="5.12182">
        <ele>194.8</ele>
        <time>2019-12-09T13:29:14Z</time>
      </trkpt>
      <trkpt lat="43.90311" lon="5.12174">
        <ele>194.8</ele>
        <time>2019-12-09T13:29:20Z</time>
      </trkpt>
      <trkpt lat="43.90308" lon="5.12171">
        <ele>194.8</ele>
        <time>2019-12-09T13:29:23Z</time>
      </trkpt>
      <trkpt lat="43.90304" lon="5.12166">
        <ele>194.8</ele>
        <time>2019-12-09T13:29:28Z</time>
      </trkpt>
      <trkpt lat="43.90288" lon="5.12149">
        <ele>194.8</ele>
        <time>2019-12-09T13:29:44Z</time>
      </trkpt>
      <trkpt lat="43.90265" lon="5.12141">
        <ele>194.8</ele>
        <time>2019-12-09T13:30:04Z</time>
      </trkpt>
      <trkpt lat="43.90257" lon="5.12139">
        <ele>195.28</ele>
        <time>2019-12-09T13:30:15Z</time>
      </trkpt>
      <trkpt lat="43.90257" lon="5.1214">
        <ele>195.28</ele>
        <time>2019-12-09T13:30:36Z</time>
      </trkpt>
      <trkpt lat="43.90257" lon="5.12139">
        <ele>195.28</ele>
        <time>2019-12-09T13:31:02Z</time>
      </trkpt>
      <trkpt lat="43.90256" lon="5.12137">
        <ele>195.28</ele>
        <time>2019-12-09T13:31:18Z</time>
      </trkpt>
      <trkpt lat="43.90256" lon="5.12137">
        <ele>195.28</ele>
        <time>2019-12-09T13:31:19Z</time>
      </trkpt>
      <trkpt lat="43.90242" lon="5.12135">
        <ele>195.28</ele>
        <time>2019-12-09T13:31:35Z</time>
      </trkpt>
      <trkpt lat="43.90234" lon="5.12136">
        <ele>195.28</ele>
        <time>2019-12-09T13:31:42Z</time>
      </trkpt>
      <trkpt lat="43.90216" lon="5.12133">
        <ele>194.32</ele>
        <time>2019-12-09T13:31:58Z</time>
      </trkpt>
      <trkpt lat="43.90214" lon="5.12132">
        <ele>194.32</ele>
        <time>2019-12-09T13:32:00Z</time>
      </trkpt>
      <trkpt lat="43.90204" lon="5.12129">
        <ele>194.32</ele>
        <time>2019-12-09T13:32:07Z</time>
      </trkpt>
      <trkpt lat="43.90202" lon="5.12129">
        <ele>194.32</ele>
        <time>2019-12-09T13:32:09Z</time>
      </trkpt>
      <trkpt lat="43.90184" lon="5.12123">
        <ele>194.32</ele>
        <time>2019-12-09T13:32:24Z</time>
      </trkpt>
      <trkpt lat="43.9017" lon="5.12116">
        <ele>193.84</ele>
        <time>2019-12-09T13:32:38Z</time>
      </trkpt>
      <trkpt lat="43.90149" lon="5.12109">
        <ele>193.36</ele>
        <time>2019-12-09T13:32:55Z</time>
      </trkpt>
      <trkpt lat="43.90125" lon="5.12098">
        <ele>192.4</ele>
        <time>2019-12-09T13:33:15Z</time>
      </trkpt>
      <trkpt lat="43.90105" lon="5.12086">
        <ele>191.44</ele>
        <time>2019-12-09T13:33:33Z</time>
      </trkpt>
      <trkpt lat="43.90102" lon="5.12083">
        <ele>190.96</ele>
        <time>2019-12-09T13:33:36Z</time>
      </trkpt>
      <trkpt lat="43.90095" lon="5.12078">
        <ele>190.48</ele>
        <time>2019-12-09T13:33:44Z</time>
      </trkpt>
      <trkpt lat="43.90084" lon="5.12075">
        <ele>190</ele>
        <time>2019-12-09T13:33:54Z</time>
      </trkpt>
      <trkpt lat="43.90068" lon="5.12068">
        <ele>188.56</ele>
        <time>2019-12-09T13:34:09Z</time>
      </trkpt>
      <trkpt lat="43.90063" lon="5.12066">
        <ele>188.56</ele>
        <time>2019-12-09T13:34:13Z</time>
      </trkpt>
      <trkpt lat="43.90055" lon="5.1206">
        <ele>187.59</ele>
        <time>2019-12-09T13:34:21Z</time>
      </trkpt>
      <trkpt lat="43.90048" lon="5.12053">
        <ele>187.11</ele>
        <time>2019-12-09T13:34:28Z</time>
      </trkpt>
      <trkpt lat="43.90039" lon="5.12048">
        <ele>186.63</ele>
        <time>2019-12-09T13:34:36Z</time>
      </trkpt>
      <trkpt lat="43.90023" lon="5.12038">
        <ele>185.67</ele>
        <time>2019-12-09T13:34:52Z</time>
      </trkpt>
      <trkpt lat="43.90013" lon="5.12034">
        <ele>184.23</ele>
        <time>2019-12-09T13:35:06Z</time>
      </trkpt>
      <trkpt lat="43.90012" lon="5.12034">
        <ele>184.23</ele>
        <time>2019-12-09T13:35:07Z</time>
      </trkpt>
      <trkpt lat="43.90009" lon="5.12033">
        <ele>184.23</ele>
        <time>2019-12-09T13:35:11Z</time>
      </trkpt>
      <trkpt lat="43.90007" lon="5.12032">
        <ele>183.75</ele>
        <time>2019-12-09T13:35:13Z</time>
      </trkpt>
      <trkpt lat="43.90003" lon="5.12031">
        <ele>183.27</ele>
        <time>2019-12-09T13:35:17Z</time>
      </trkpt>
      <trkpt lat="43.89992" lon="5.1203">
        <ele>182.31</ele>
        <time>2019-12-09T13:35:27Z</time>
      </trkpt>
      <trkpt lat="43.89988" lon="5.12021">
        <ele>181.83</ele>
        <time>2019-12-09T13:35:33Z</time>
      </trkpt>
      <trkpt lat="43.89985" lon="5.12018">
        <ele>181.83</ele>
        <time>2019-12-09T13:35:37Z</time>
      </trkpt>
      <trkpt lat="43.89972" lon="5.12006">
        <ele>180.38</ele>
        <time>2019-12-09T13:35:52Z</time>
      </trkpt>
      <trkpt lat="43.89961" lon="5.12004">
        <ele>179.42</ele>
        <time>2019-12-09T13:36:01Z</time>
      </trkpt>
      <trkpt lat="43.89959" lon="5.12001">
        <ele>179.42</ele>
        <time>2019-12-09T13:36:04Z</time>
      </trkpt>
      <trkpt lat="43.89955" lon="5.11999">
        <ele>178.94</ele>
        <time>2019-12-09T13:36:08Z</time>
      </trkpt>
      <trkpt lat="43.89937" lon="5.11991">
        <ele>177.02</ele>
        <time>2019-12-09T13:36:25Z</time>
      </trkpt>
      <trkpt lat="43.89936" lon="5.11991">
        <ele>177.02</ele>
        <time>2019-12-09T13:36:26Z</time>
      </trkpt>
      <trkpt lat="43.8993" lon="5.1199">
        <ele>176.54</ele>
        <time>2019-12-09T13:36:32Z</time>
      </trkpt>
      <trkpt lat="43.89928" lon="5.11987">
        <ele>176.06</ele>
        <time>2019-12-09T13:36:35Z</time>
      </trkpt>
      <trkpt lat="43.89924" lon="5.11986">
        <ele>175.58</ele>
        <time>2019-12-09T13:36:38Z</time>
      </trkpt>
      <trkpt lat="43.89909" lon="5.11986">
        <ele>173.66</ele>
        <time>2019-12-09T13:36:53Z</time>
      </trkpt>
      <trkpt lat="43.89904" lon="5.11988">
        <ele>173.17</ele>
        <time>2019-12-09T13:36:57Z</time>
      </trkpt>
      <trkpt lat="43.89895" lon="5.1199">
        <ele>172.21</ele>
        <time>2019-12-09T13:37:04Z</time>
      </trkpt>
      <trkpt lat="43.89892" lon="5.1199">
        <ele>171.73</ele>
        <time>2019-12-09T13:37:07Z</time>
      </trkpt>
      <trkpt lat="43.89885" lon="5.11991">
        <ele>170.77</ele>
        <time>2019-12-09T13:37:14Z</time>
      </trkpt>
      <trkpt lat="43.89876" lon="5.1199">
        <ele>169.81</ele>
        <time>2019-12-09T13:37:24Z</time>
      </trkpt>
      <trkpt lat="43.89865" lon="5.11993">
        <ele>168.37</ele>
        <time>2019-12-09T13:37:35Z</time>
      </trkpt>
      <trkpt lat="43.89861" lon="5.11994">
        <ele>167.89</ele>
        <time>2019-12-09T13:37:39Z</time>
      </trkpt>
      <trkpt lat="43.89845" lon="5.11993">
        <ele>166.45</ele>
        <time>2019-12-09T13:37:53Z</time>
      </trkpt>
      <trkpt lat="43.89843" lon="5.11994">
        <ele>165.96</ele>
        <time>2019-12-09T13:37:55Z</time>
      </trkpt>
      <trkpt lat="43.89839" lon="5.11993">
        <ele>165</ele>
        <time>2019-12-09T13:37:59Z</time>
      </trkpt>
      <trkpt lat="43.89835" lon="5.11994">
        <ele>164.52</ele>
        <time>2019-12-09T13:38:02Z</time>
      </trkpt>
      <trkpt lat="43.89832" lon="5.11996">
        <ele>164.04</ele>
        <time>2019-12-09T13:38:05Z</time>
      </trkpt>
      <trkpt lat="43.89821" lon="5.11996">
        <ele>161.16</ele>
        <time>2019-12-09T13:38:19Z</time>
      </trkpt>
      <trkpt lat="43.89815" lon="5.11999">
        <ele>160.2</ele>
        <time>2019-12-09T13:38:31Z</time>
      </trkpt>
      <trkpt lat="43.89813" lon="5.12">
        <ele>160.68</ele>
        <time>2019-12-09T13:38:45Z</time>
      </trkpt>
      <trkpt lat="43.89815" lon="5.12001">
        <ele>160.68</ele>
        <time>2019-12-09T13:38:58Z</time>
      </trkpt>
      <trkpt lat="43.89818" lon="5.11995">
        <ele>160.68</ele>
        <time>2019-12-09T13:39:10Z</time>
      </trkpt>
      <trkpt lat="43.89815" lon="5.11998">
        <ele>160.68</ele>
        <time>2019-12-09T13:39:20Z</time>
      </trkpt>
      <trkpt lat="43.89813" lon="5.12002">
        <ele>160.68</ele>
        <time>2019-12-09T13:39:31Z</time>
      </trkpt>
      <trkpt lat="43.89815" lon="5.12002">
        <ele>160.68</ele>
        <time>2019-12-09T13:39:43Z</time>
      </trkpt>
      <trkpt lat="43.89813" lon="5.11999">
        <ele>160.68</ele>
        <time>2019-12-09T13:40:11Z</time>
      </trkpt>
      <trkpt lat="43.89814" lon="5.12">
        <ele>160.68</ele>
        <time>2019-12-09T13:40:29Z</time>
      </trkpt>
      <trkpt lat="43.89813" lon="5.11999">
        <ele>160.2</ele>
        <time>2019-12-09T13:40:50Z</time>
      </trkpt>
      <trkpt lat="43.89815" lon="5.11999">
        <ele>158.75</ele>
        <time>2019-12-09T13:40:55Z</time>
      </trkpt>
      <trkpt lat="43.89816" lon="5.11998">
        <ele>160.2</ele>
        <time>2019-12-09T13:41:17Z</time>
      </trkpt>
      <trkpt lat="43.89816" lon="5.12">
        <ele>159.72</ele>
        <time>2019-12-09T13:41:30Z</time>
      </trkpt>
      <trkpt lat="43.89815" lon="5.11999">
        <ele>161.16</ele>
        <time>2019-12-09T13:41:51Z</time>
      </trkpt>
      <trkpt lat="43.89815" lon="5.12">
        <ele>161.16</ele>
        <time>2019-12-09T13:42:12Z</time>
      </trkpt>
      <trkpt lat="43.89815" lon="5.12">
        <ele>161.16</ele>
        <time>2019-12-09T13:42:27Z</time>
      </trkpt>
      <trkpt lat="43.89814" lon="5.12">
        <ele>161.16</ele>
        <time>2019-12-09T13:42:29Z</time>
      </trkpt>
      <trkpt lat="43.89806" lon="5.11984">
        <ele>159.72</ele>
        <time>2019-12-09T13:42:41Z</time>
      </trkpt>
      <trkpt lat="43.89797" lon="5.11971">
        <ele>158.27</ele>
        <time>2019-12-09T13:42:52Z</time>
      </trkpt>
      <trkpt lat="43.89784" lon="5.1195">
        <ele>157.31</ele>
        <time>2019-12-09T13:43:08Z</time>
      </trkpt>
      <trkpt lat="43.89778" lon="5.11942">
        <ele>156.83</ele>
        <time>2019-12-09T13:43:15Z</time>
      </trkpt>
      <trkpt lat="43.89761" lon="5.11915">
        <ele>155.39</ele>
        <time>2019-12-09T13:43:35Z</time>
      </trkpt>
      <trkpt lat="43.89748" lon="5.11884">
        <ele>154.43</ele>
        <time>2019-12-09T13:43:57Z</time>
      </trkpt>
      <trkpt lat="43.89749" lon="5.11873">
        <ele>155.87</ele>
        <time>2019-12-09T13:44:10Z</time>
      </trkpt>
      <trkpt lat="43.89753" lon="5.11857">
        <ele>156.35</ele>
        <time>2019-12-09T13:44:23Z</time>
      </trkpt>
      <trkpt lat="43.89753" lon="5.11851">
        <ele>156.83</ele>
        <time>2019-12-09T13:44:28Z</time>
      </trkpt>
      <trkpt lat="43.8975" lon="5.11837">
        <ele>157.79</ele>
        <time>2019-12-09T13:44:38Z</time>
      </trkpt>
      <trkpt lat="43.89748" lon="5.11831">
        <ele>158.75</ele>
        <time>2019-12-09T13:44:43Z</time>
      </trkpt>
      <trkpt lat="43.89743" lon="5.11822">
        <ele>156.83</ele>
        <time>2019-12-09T13:44:54Z</time>
      </trkpt>
      <trkpt lat="43.89742" lon="5.1182">
        <ele>158.75</ele>
        <time>2019-12-09T13:45:15Z</time>
      </trkpt>
      <trkpt lat="43.89733" lon="5.11808">
        <ele>158.75</ele>
        <time>2019-12-09T13:45:26Z</time>
      </trkpt>
      <trkpt lat="43.89732" lon="5.11802">
        <ele>158.75</ele>
        <time>2019-12-09T13:45:30Z</time>
      </trkpt>
      <trkpt lat="43.89719" lon="5.11787">
        <ele>157.31</ele>
        <time>2019-12-09T13:45:46Z</time>
      </trkpt>
      <trkpt lat="43.89703" lon="5.11773">
        <ele>156.83</ele>
        <time>2019-12-09T13:46:02Z</time>
      </trkpt>
      <trkpt lat="43.89702" lon="5.11772">
        <ele>156.83</ele>
        <time>2019-12-09T13:46:03Z</time>
      </trkpt>
      <trkpt lat="43.89688" lon="5.11763">
        <ele>156.83</ele>
        <time>2019-12-09T13:46:17Z</time>
      </trkpt>
      <trkpt lat="43.89676" lon="5.11748">
        <ele>156.83</ele>
        <time>2019-12-09T13:46:31Z</time>
      </trkpt>
      <trkpt lat="43.89672" lon="5.11744">
        <ele>156.83</ele>
        <time>2019-12-09T13:46:35Z</time>
      </trkpt>
      <trkpt lat="43.89665" lon="5.11731">
        <ele>156.83</ele>
        <time>2019-12-09T13:46:48Z</time>
      </trkpt>
      <trkpt lat="43.89655" lon="5.11716">
        <ele>158.27</ele>
        <time>2019-12-09T13:47:03Z</time>
      </trkpt>
      <trkpt lat="43.89642" lon="5.11706">
        <ele>158.75</ele>
        <time>2019-12-09T13:47:16Z</time>
      </trkpt>
      <trkpt lat="43.89638" lon="5.11702">
        <ele>158.75</ele>
        <time>2019-12-09T13:47:20Z</time>
      </trkpt>
      <trkpt lat="43.89627" lon="5.11689">
        <ele>159.24</ele>
        <time>2019-12-09T13:47:33Z</time>
      </trkpt>
      <trkpt lat="43.89617" lon="5.11682">
        <ele>159.72</ele>
        <time>2019-12-09T13:47:42Z</time>
      </trkpt>
      <trkpt lat="43.89612" lon="5.11677">
        <ele>159.72</ele>
        <time>2019-12-09T13:47:47Z</time>
      </trkpt>
      <trkpt lat="43.89597" lon="5.11659">
        <ele>159.72</ele>
        <time>2019-12-09T13:48:04Z</time>
      </trkpt>
      <trkpt lat="43.89593" lon="5.11656">
        <ele>159.72</ele>
        <time>2019-12-09T13:48:09Z</time>
      </trkpt>
      <trkpt lat="43.89591" lon="5.11652">
        <ele>159.72</ele>
        <time>2019-12-09T13:48:12Z</time>
      </trkpt>
      <trkpt lat="43.89576" lon="5.1164">
        <ele>159.72</ele>
        <time>2019-12-09T13:48:25Z</time>
      </trkpt>
      <trkpt lat="43.89561" lon="5.11627">
        <ele>158.27</ele>
        <time>2019-12-09T13:48:40Z</time>
      </trkpt>
      <trkpt lat="43.89559" lon="5.11624">
        <ele>158.27</ele>
        <time>2019-12-09T13:48:43Z</time>
      </trkpt>
      <trkpt lat="43.89543" lon="5.1161">
        <ele>156.35</ele>
        <time>2019-12-09T13:49:00Z</time>
      </trkpt>
      <trkpt lat="43.89531" lon="5.11596">
        <ele>154.91</ele>
        <time>2019-12-09T13:49:15Z</time>
      </trkpt>
      <trkpt lat="43.89528" lon="5.11591">
        <ele>154.43</ele>
        <time>2019-12-09T13:49:19Z</time>
      </trkpt>
      <trkpt lat="43.89526" lon="5.1159">
        <ele>154.43</ele>
        <time>2019-12-09T13:49:21Z</time>
      </trkpt>
      <trkpt lat="43.89524" lon="5.11588">
        <ele>153.95</ele>
        <time>2019-12-09T13:49:23Z</time>
      </trkpt>
      <trkpt lat="43.89522" lon="5.11581">
        <ele>153.47</ele>
        <time>2019-12-09T13:49:29Z</time>
      </trkpt>
      <trkpt lat="43.89509" lon="5.11568">
        <ele>152.03</ele>
        <time>2019-12-09T13:49:45Z</time>
      </trkpt>
      <trkpt lat="43.89506" lon="5.11563">
        <ele>152.03</ele>
        <time>2019-12-09T13:49:52Z</time>
      </trkpt>
      <trkpt lat="43.89494" lon="5.11545">
        <ele>151.06</ele>
        <time>2019-12-09T13:50:10Z</time>
      </trkpt>
      <trkpt lat="43.8949" lon="5.11541">
        <ele>150.58</ele>
        <time>2019-12-09T13:50:14Z</time>
      </trkpt>
      <trkpt lat="43.89472" lon="5.11524">
        <ele>148.18</ele>
        <time>2019-12-09T13:50:34Z</time>
      </trkpt>
      <trkpt lat="43.89464" lon="5.11521">
        <ele>147.22</ele>
        <time>2019-12-09T13:50:44Z</time>
      </trkpt>
      <trkpt lat="43.89454" lon="5.11525">
        <ele>145.3</ele>
        <time>2019-12-09T13:50:59Z</time>
      </trkpt>
      <trkpt lat="43.89452" lon="5.11524">
        <ele>145.3</ele>
        <time>2019-12-09T13:51:10Z</time>
      </trkpt>
      <trkpt lat="43.89451" lon="5.11522">
        <ele>142.41</ele>
        <time>2019-12-09T13:51:35Z</time>
      </trkpt>
      <trkpt lat="43.89453" lon="5.11523">
        <ele>143.85</ele>
        <time>2019-12-09T13:51:45Z</time>
      </trkpt>
      <trkpt lat="43.89453" lon="5.11519">
        <ele>146.26</ele>
        <time>2019-12-09T13:51:58Z</time>
      </trkpt>
      <trkpt lat="43.89454" lon="5.11508">
        <ele>146.26</ele>
        <time>2019-12-09T13:52:09Z</time>
      </trkpt>
      <trkpt lat="43.89454" lon="5.11504">
        <ele>145.3</ele>
        <time>2019-12-09T13:52:12Z</time>
      </trkpt>
      <trkpt lat="43.89454" lon="5.11495">
        <ele>144.34</ele>
        <time>2019-12-09T13:52:21Z</time>
      </trkpt>
      <trkpt lat="43.89452" lon="5.11492">
        <ele>146.26</ele>
        <time>2019-12-09T13:52:24Z</time>
      </trkpt>
      <trkpt lat="43.89451" lon="5.1149">
        <ele>141.93</ele>
        <time>2019-12-09T13:52:26Z</time>
      </trkpt>
      <trkpt lat="43.8945" lon="5.11489">
        <ele>141.93</ele>
        <time>2019-12-09T13:52:27Z</time>
      </trkpt>
      <trkpt lat="43.89444" lon="5.1148">
        <ele>140.49</ele>
        <time>2019-12-09T13:52:37Z</time>
      </trkpt>
      <trkpt lat="43.89437" lon="5.11468">
        <ele>138.09</ele>
        <time>2019-12-09T13:52:50Z</time>
      </trkpt>
      <trkpt lat="43.89429" lon="5.11467">
        <ele>137.61</ele>
        <time>2019-12-09T13:53:02Z</time>
      </trkpt>
      <trkpt lat="43.89422" lon="5.1147">
        <ele>139.05</ele>
        <time>2019-12-09T13:53:09Z</time>
      </trkpt>
      <trkpt lat="43.89421" lon="5.1147">
        <ele>139.05</ele>
        <time>2019-12-09T13:53:10Z</time>
      </trkpt>
      <trkpt lat="43.89406" lon="5.11472">
        <ele>140.97</ele>
        <time>2019-12-09T13:53:24Z</time>
      </trkpt>
      <trkpt lat="43.894" lon="5.11472">
        <ele>140.97</ele>
        <time>2019-12-09T13:53:29Z</time>
      </trkpt>
      <trkpt lat="43.89384" lon="5.11477">
        <ele>140.01</ele>
        <time>2019-12-09T13:53:41Z</time>
      </trkpt>
      <trkpt lat="43.89375" lon="5.11481">
        <ele>139.05</ele>
        <time>2019-12-09T13:53:50Z</time>
      </trkpt>
      <trkpt lat="43.8937" lon="5.11496">
        <ele>138.57</ele>
        <time>2019-12-09T13:54:05Z</time>
      </trkpt>
      <trkpt lat="43.89374" lon="5.11506">
        <ele>138.09</ele>
        <time>2019-12-09T13:54:16Z</time>
      </trkpt>
      <trkpt lat="43.89377" lon="5.11511">
        <ele>138.09</ele>
        <time>2019-12-09T13:54:23Z</time>
      </trkpt>
      <trkpt lat="43.89383" lon="5.11514">
        <ele>138.09</ele>
        <time>2019-12-09T13:54:38Z</time>
      </trkpt>
      <trkpt lat="43.8938" lon="5.11514">
        <ele>138.09</ele>
        <time>2019-12-09T13:54:50Z</time>
      </trkpt>
      <trkpt lat="43.89378" lon="5.11515">
        <ele>138.09</ele>
        <time>2019-12-09T13:55:05Z</time>
      </trkpt>
      <trkpt lat="43.89375" lon="5.11517">
        <ele>137.61</ele>
        <time>2019-12-09T13:55:10Z</time>
      </trkpt>
      <trkpt lat="43.89373" lon="5.11519">
        <ele>137.13</ele>
        <time>2019-12-09T13:55:13Z</time>
      </trkpt>
      <trkpt lat="43.89364" lon="5.11527">
        <ele>135.2</ele>
        <time>2019-12-09T13:55:26Z</time>
      </trkpt>
      <trkpt lat="43.8936" lon="5.11539">
        <ele>134.72</ele>
        <time>2019-12-09T13:55:38Z</time>
      </trkpt>
      <trkpt lat="43.89354" lon="5.11545">
        <ele>133.76</ele>
        <time>2019-12-09T13:55:52Z</time>
      </trkpt>
      <trkpt lat="43.89353" lon="5.11544">
        <ele>133.76</ele>
        <time>2019-12-09T13:55:57Z</time>
      </trkpt>
      <trkpt lat="43.89349" lon="5.1154">
        <ele>133.28</ele>
        <time>2019-12-09T13:56:01Z</time>
      </trkpt>
      <trkpt lat="43.89348" lon="5.1153">
        <ele>131.84</ele>
        <time>2019-12-09T13:56:08Z</time>
      </trkpt>
      <trkpt lat="43.89345" lon="5.11513">
        <ele>131.36</ele>
        <time>2019-12-09T13:56:19Z</time>
      </trkpt>
      <trkpt lat="43.89345" lon="5.1151">
        <ele>130.88</ele>
        <time>2019-12-09T13:56:22Z</time>
      </trkpt>
      <trkpt lat="43.89343" lon="5.11489">
        <ele>129.43</ele>
        <time>2019-12-09T13:56:35Z</time>
      </trkpt>
      <trkpt lat="43.89341" lon="5.11482">
        <ele>128.95</ele>
        <time>2019-12-09T13:56:41Z</time>
      </trkpt>
      <trkpt lat="43.89325" lon="5.11473">
        <ele>127.99</ele>
        <time>2019-12-09T13:56:56Z</time>
      </trkpt>
      <trkpt lat="43.89322" lon="5.11472">
        <ele>127.51</ele>
        <time>2019-12-09T13:56:58Z</time>
      </trkpt>
      <trkpt lat="43.89318" lon="5.11468">
        <ele>127.51</ele>
        <time>2019-12-09T13:57:02Z</time>
      </trkpt>
      <trkpt lat="43.89304" lon="5.11459">
        <ele>126.55</ele>
        <time>2019-12-09T13:57:17Z</time>
      </trkpt>
      <trkpt lat="43.89291" lon="5.11449">
        <ele>125.59</ele>
        <time>2019-12-09T13:57:33Z</time>
      </trkpt>
      <trkpt lat="43.89272" lon="5.11438">
        <ele>123.67</ele>
        <time>2019-12-09T13:57:50Z</time>
      </trkpt>
      <trkpt lat="43.89266" lon="5.11431">
        <ele>123.67</ele>
        <time>2019-12-09T13:57:57Z</time>
      </trkpt>
      <trkpt lat="43.89258" lon="5.11424">
        <ele>123.67</ele>
        <time>2019-12-09T13:58:10Z</time>
      </trkpt>
      <trkpt lat="43.89248" lon="5.11417">
        <ele>121.74</ele>
        <time>2019-12-09T13:58:25Z</time>
      </trkpt>
      <trkpt lat="43.89245" lon="5.11415">
        <ele>122.22</ele>
        <time>2019-12-09T13:58:40Z</time>
      </trkpt>
      <trkpt lat="43.89241" lon="5.1141">
        <ele>122.22</ele>
        <time>2019-12-09T13:58:54Z</time>
      </trkpt>
      <trkpt lat="43.8924" lon="5.11409">
        <ele>122.22</ele>
        <time>2019-12-09T13:59:07Z</time>
      </trkpt>
      <trkpt lat="43.89239" lon="5.114">
        <ele>121.26</ele>
        <time>2019-12-09T13:59:24Z</time>
      </trkpt>
      <trkpt lat="43.89238" lon="5.11398">
        <ele>121.74</ele>
        <time>2019-12-09T13:59:38Z</time>
      </trkpt>
      <trkpt lat="43.89237" lon="5.11399">
        <ele>120.78</ele>
        <time>2019-12-09T13:59:53Z</time>
      </trkpt>
      <trkpt lat="43.89237" lon="5.11399">
        <ele>121.74</ele>
        <time>2019-12-09T14:00:02Z</time>
      </trkpt>
      <trkpt lat="43.89237" lon="5.11397">
        <ele>122.22</ele>
        <time>2019-12-09T14:00:27Z</time>
      </trkpt>
    </trkseg>
  </trk>
</gpx>